<?xml version="1.0" encoding="UTF-8" standalone="no" ?><gpx xmlns="http://www.topografix.com/GPX/1/1" xmlns:gpxx="http://www.garmin.com/xmlschemas/GpxExtensions/v3" xmlns:wptx1="http://www.garmin.com/xmlschemas/WaypointExtension/v1" xmlns:gpxtpx="http://www.garmin.com/xmlschemas/TrackPointExtension/v1" creator="GuideVTT.com" version="1.1" xmlns:xsi="http://www.w3.org/2001/XMLSchema-instance" xsi:schemaLocation="http://www.topografix.com/GPX/1/1 http://www.topografix.com/GPX/1/1/gpx.xsd http://www.garmin.com/xmlschemas/GpxExtensions/v3 http://www8.garmin.com/xmlschemas/GpxExtensionsv3.xsd http://www.garmin.com/xmlschemas/WaypointExtension/v1 http://www8.garmin.com/xmlschemas/WaypointExtensionv1.xsd http://www.garmin.com/xmlschemas/TrackPointExtension/v1 http://www.garmin.com/xmlschemas/TrackPointExtensionv1.xsd">
<metadata><link href="http://www.garmin.com"><text>Garmin International</text></link><time>2013-06-22T15:13:50Z</time></metadata>
<trk><name>p1_20080302.gpx</name><extensions><gpxx:TrackExtension><gpxx:DisplayColor>Cyan</gpxx:DisplayColor></gpxx:TrackExtension></extensions><trkseg>
<trkpt lat="48.18029682" lon="6.38231585"><ele></ele><time>2014-9-10T21:50:33Z</time></trkpt>
<trkpt lat="48.18029707" lon="6.38231568"><ele></ele><time>2014-9-10T21:50:36Z</time></trkpt>
<trkpt lat="48.18029749" lon="6.38231576"><ele></ele><time>2014-9-10T21:50:39Z</time></trkpt>
<trkpt lat="48.18030529" lon="6.38232180"><ele></ele><time>2014-9-10T21:50:42Z</time></trkpt>
<trkpt lat="48.18040277" lon="6.38226916"><ele></ele><time>2014-9-10T21:50:45Z</time></trkpt>
<trkpt lat="48.18042029" lon="6.38222608"><ele></ele><time>2014-9-10T21:50:48Z</time></trkpt>
<trkpt lat="48.18058256" lon="6.38182475"><ele></ele><time>2014-9-10T21:50:51Z</time></trkpt>
<trkpt lat="48.18064098" lon="6.38171327"><ele></ele><time>2014-9-10T21:50:54Z</time></trkpt>
<trkpt lat="48.18067602" lon="6.38146399"><ele></ele><time>2014-9-10T21:50:57Z</time></trkpt>
<trkpt lat="48.18061793" lon="6.38136727"><ele></ele><time>2014-9-10T21:51:0Z</time></trkpt>
<trkpt lat="48.18030688" lon="6.38101087"><ele></ele><time>2014-9-10T21:51:3Z</time></trkpt>
<trkpt lat="48.18019708" lon="6.38078422"><ele></ele><time>2014-9-10T21:51:6Z</time></trkpt>
<trkpt lat="48.18003824" lon="6.38041383"><ele></ele><time>2014-9-10T21:51:9Z</time></trkpt>
<trkpt lat="48.17986775" lon="6.38023579"><ele></ele><time>2014-9-10T21:51:12Z</time></trkpt>
<trkpt lat="48.17966323" lon="6.37998828"><ele></ele><time>2014-9-10T21:51:15Z</time></trkpt>
<trkpt lat="48.17939443" lon="6.37960807"><ele></ele><time>2014-9-10T21:51:18Z</time></trkpt>
<trkpt lat="48.17917172" lon="6.37930859"><ele></ele><time>2014-9-10T21:51:21Z</time></trkpt>
<trkpt lat="48.17904616" lon="6.37911648"><ele></ele><time>2014-9-10T21:51:24Z</time></trkpt>
<trkpt lat="48.17905253" lon="6.37896133"><ele></ele><time>2014-9-10T21:51:27Z</time></trkpt>
<trkpt lat="48.17916334" lon="6.37860174"><ele></ele><time>2014-9-10T21:51:30Z</time></trkpt>
<trkpt lat="48.17921489" lon="6.37833344"><ele></ele><time>2014-9-10T21:51:33Z</time></trkpt>
<trkpt lat="48.17925554" lon="6.37803479"><ele></ele><time>2014-9-10T21:51:36Z</time></trkpt>
<trkpt lat="48.17925990" lon="6.37745677"><ele></ele><time>2014-9-10T21:51:39Z</time></trkpt>
<trkpt lat="48.17916795" lon="6.37676912"><ele></ele><time>2014-9-10T21:51:42Z</time></trkpt>
<trkpt lat="48.17903702" lon="6.37632606"><ele></ele><time>2014-9-10T21:51:45Z</time></trkpt>
<trkpt lat="48.17877433" lon="6.37578065"><ele></ele><time>2014-9-10T21:51:48Z</time></trkpt>
<trkpt lat="48.17853042" lon="6.37543439"><ele></ele><time>2014-9-10T21:51:51Z</time></trkpt>
<trkpt lat="48.17850016" lon="6.37539240"><ele></ele><time>2014-9-10T21:51:54Z</time></trkpt>
<trkpt lat="48.17818953" lon="6.37498797"><ele></ele><time>2014-9-10T21:51:57Z</time></trkpt>
<trkpt lat="48.17795919" lon="6.37464297"><ele></ele><time>2014-9-10T21:52:0Z</time></trkpt>
<trkpt lat="48.17774118" lon="6.37418129"><ele></ele><time>2014-9-10T21:52:3Z</time></trkpt>
<trkpt lat="48.17759257" lon="6.37363304"><ele></ele><time>2014-9-10T21:52:6Z</time></trkpt>
<trkpt lat="48.17755326" lon="6.37316390"><ele></ele><time>2014-9-10T21:52:9Z</time></trkpt>
<trkpt lat="48.17756994" lon="6.37256778"><ele></ele><time>2014-9-10T21:52:12Z</time></trkpt>
<trkpt lat="48.17760665" lon="6.37231305"><ele></ele><time>2014-9-10T21:52:15Z</time></trkpt>
<trkpt lat="48.17773749" lon="6.37171785"><ele></ele><time>2014-9-10T21:52:18Z</time></trkpt>
<trkpt lat="48.17781536" lon="6.37143019"><ele></ele><time>2014-9-10T21:52:21Z</time></trkpt>
<trkpt lat="48.17794880" lon="6.37080230"><ele></ele><time>2014-9-10T21:52:24Z</time></trkpt>
<trkpt lat="48.17807746" lon="6.37022529"><ele></ele><time>2014-9-10T21:52:27Z</time></trkpt>
<trkpt lat="48.17818928" lon="6.36964300"><ele></ele><time>2014-9-10T21:52:30Z</time></trkpt>
<trkpt lat="48.17823387" lon="6.36917579"><ele></ele><time>2014-9-10T21:52:33Z</time></trkpt>
<trkpt lat="48.17827335" lon="6.36882719"><ele></ele><time>2014-9-10T21:52:36Z</time></trkpt>
<trkpt lat="48.17823429" lon="6.36836149"><ele></ele><time>2014-9-10T21:52:39Z</time></trkpt>
<trkpt lat="48.17814619" lon="6.36788565"><ele></ele><time>2014-9-10T21:52:42Z</time></trkpt>
<trkpt lat="48.17806916" lon="6.36748499"><ele></ele><time>2014-9-10T21:52:45Z</time></trkpt>
<trkpt lat="48.17805433" lon="6.36744962"><ele></ele><time>2014-9-10T21:52:48Z</time></trkpt>
<trkpt lat="48.17797579" lon="6.36746404"><ele></ele><time>2014-9-10T21:52:51Z</time></trkpt>
<trkpt lat="48.17773003" lon="6.36765649"><ele></ele><time>2014-9-10T21:52:54Z</time></trkpt>
<trkpt lat="48.17769860" lon="6.36768205"><ele></ele><time>2014-9-10T21:52:57Z</time></trkpt>
<trkpt lat="48.17749425" lon="6.36772865"><ele></ele><time>2014-9-10T21:53:0Z</time></trkpt>
<trkpt lat="48.17733935" lon="6.36769295"><ele></ele><time>2014-9-10T21:53:3Z</time></trkpt>
<trkpt lat="48.17724380" lon="6.36781909"><ele></ele><time>2014-9-10T21:53:6Z</time></trkpt>
<trkpt lat="48.17721044" lon="6.36786503"><ele></ele><time>2014-9-10T21:53:9Z</time></trkpt>
<trkpt lat="48.17685806" lon="6.36812705"><ele></ele><time>2014-9-10T21:53:12Z</time></trkpt>
<trkpt lat="48.17647518" lon="6.36833215"><ele></ele><time>2014-9-10T21:53:15Z</time></trkpt>
<trkpt lat="48.17604745" lon="6.36852980"><ele></ele><time>2014-9-10T21:53:18Z</time></trkpt>
<trkpt lat="48.17586707" lon="6.36865117"><ele></ele><time>2014-9-10T21:53:21Z</time></trkpt>
<trkpt lat="48.17567806" lon="6.36892358"><ele></ele><time>2014-9-10T21:53:24Z</time></trkpt>
<trkpt lat="48.17551268" lon="6.36934435"><ele></ele><time>2014-9-10T21:53:27Z</time></trkpt>
<trkpt lat="48.17548184" lon="6.36964895"><ele></ele><time>2014-9-10T21:53:30Z</time></trkpt>
<trkpt lat="48.17552408" lon="6.37023266"><ele></ele><time>2014-9-10T21:53:33Z</time></trkpt>
<trkpt lat="48.17551855" lon="6.37027893"><ele></ele><time>2014-9-10T21:53:36Z</time></trkpt>
<trkpt lat="48.17540472" lon="6.37048705"><ele></ele><time>2014-9-10T21:53:39Z</time></trkpt>
<trkpt lat="48.17520356" lon="6.37066090"><ele></ele><time>2014-9-10T21:53:42Z</time></trkpt>
<trkpt lat="48.17498672" lon="6.37083222"><ele></ele><time>2014-9-10T21:53:45Z</time></trkpt>
<trkpt lat="48.17492897" lon="6.37096843"><ele></ele><time>2014-9-10T21:53:48Z</time></trkpt>
<trkpt lat="48.17494573" lon="6.37117873"><ele></ele><time>2014-9-10T21:53:51Z</time></trkpt>
<trkpt lat="48.17502938" lon="6.37163663"><ele></ele><time>2014-9-10T21:53:54Z</time></trkpt>
<trkpt lat="48.17506350" lon="6.37189186"><ele></ele><time>2014-9-10T21:53:57Z</time></trkpt>
<trkpt lat="48.17502133" lon="6.37211935"><ele></ele><time>2014-9-10T21:54:0Z</time></trkpt>
<trkpt lat="48.17488622" lon="6.37225002"><ele></ele><time>2014-9-10T21:54:3Z</time></trkpt>
<trkpt lat="48.17455128" lon="6.37237893"><ele></ele><time>2014-9-10T21:54:6Z</time></trkpt>
<trkpt lat="48.17447752" lon="6.37239494"><ele></ele><time>2014-9-10T21:54:9Z</time></trkpt>
<trkpt lat="48.17430183" lon="6.37239905"><ele></ele><time>2014-9-10T21:54:12Z</time></trkpt>
<trkpt lat="48.17419438" lon="6.37233543"><ele></ele><time>2014-9-10T21:54:15Z</time></trkpt>
<trkpt lat="48.17393856" lon="6.37205497"><ele></ele><time>2014-9-10T21:54:18Z</time></trkpt>
<trkpt lat="48.17380286" lon="6.37182858"><ele></ele><time>2014-9-10T21:54:21Z</time></trkpt>
<trkpt lat="48.17365559" lon="6.37160637"><ele></ele><time>2014-9-10T21:54:24Z</time></trkpt>
<trkpt lat="48.17355987" lon="6.37170168"><ele></ele><time>2014-9-10T21:54:27Z</time></trkpt>
<trkpt lat="48.17332786" lon="6.37213879"><ele></ele><time>2014-9-10T21:54:30Z</time></trkpt>
<trkpt lat="48.17313884" lon="6.37255898"><ele></ele><time>2014-9-10T21:54:33Z</time></trkpt>
<trkpt lat="48.17283366" lon="6.37318963"><ele></ele><time>2014-9-10T21:54:36Z</time></trkpt>
<trkpt lat="48.17266778" lon="6.37344402"><ele></ele><time>2014-9-10T21:54:39Z</time></trkpt>
<trkpt lat="48.17255773" lon="6.37338602"><ele></ele><time>2014-9-10T21:54:42Z</time></trkpt>
<trkpt lat="48.17241146" lon="6.37295527"><ele></ele><time>2014-9-10T21:54:45Z</time></trkpt>
<trkpt lat="48.17226922" lon="6.37251858"><ele></ele><time>2014-9-10T21:54:48Z</time></trkpt>
<trkpt lat="48.17221968" lon="6.37233225"><ele></ele><time>2014-9-10T21:54:51Z</time></trkpt>
<trkpt lat="48.17208616" lon="6.37191106"><ele></ele><time>2014-9-10T21:54:54Z</time></trkpt>
<trkpt lat="48.17196454" lon="6.37143932"><ele></ele><time>2014-9-10T21:54:57Z</time></trkpt>
<trkpt lat="48.17185566" lon="6.37104722"><ele></ele><time>2014-9-10T21:55:0Z</time></trkpt>
<trkpt lat="48.17176262" lon="6.37067213"><ele></ele><time>2014-9-10T21:55:3Z</time></trkpt>
<trkpt lat="48.17163672" lon="6.37017164"><ele></ele><time>2014-9-10T21:55:6Z</time></trkpt>
<trkpt lat="48.17153346" lon="6.36981944"><ele></ele><time>2014-9-10T21:55:9Z</time></trkpt>
<trkpt lat="48.17135928" lon="6.36949414"><ele></ele><time>2014-9-10T21:55:12Z</time></trkpt>
<trkpt lat="48.17095913" lon="6.36911158"><ele></ele><time>2014-9-10T21:55:15Z</time></trkpt>
<trkpt lat="48.17058915" lon="6.36878964"><ele></ele><time>2014-9-10T21:55:18Z</time></trkpt>
<trkpt lat="48.17047994" lon="6.36871504"><ele></ele><time>2014-9-10T21:55:21Z</time></trkpt>
<trkpt lat="48.17026955" lon="6.36864044"><ele></ele><time>2014-9-10T21:55:24Z</time></trkpt>
<trkpt lat="48.17007802" lon="6.36863616"><ele></ele><time>2014-9-10T21:55:27Z</time></trkpt>
<trkpt lat="48.16992229" lon="6.36860440"><ele></ele><time>2014-9-10T21:55:30Z</time></trkpt>
<trkpt lat="48.16983093" lon="6.36845872"><ele></ele><time>2014-9-10T21:55:33Z</time></trkpt>
<trkpt lat="48.16977653" lon="6.36788523"><ele></ele><time>2014-9-10T21:55:36Z</time></trkpt>
<trkpt lat="48.16976446" lon="6.36774399"><ele></ele><time>2014-9-10T21:55:39Z</time></trkpt>
<trkpt lat="48.16965692" lon="6.36740218"><ele></ele><time>2014-9-10T21:55:42Z</time></trkpt>
<trkpt lat="48.16956505" lon="6.36731769"><ele></ele><time>2014-9-10T21:55:45Z</time></trkpt>
<trkpt lat="48.16927764" lon="6.36712926"><ele></ele><time>2014-9-10T21:55:48Z</time></trkpt>
<trkpt lat="48.16918887" lon="6.36705525"><ele></ele><time>2014-9-10T21:55:51Z</time></trkpt>
<trkpt lat="48.16893733" lon="6.36670363"><ele></ele><time>2014-9-10T21:55:54Z</time></trkpt>
<trkpt lat="48.16885276" lon="6.36652878"><ele></ele><time>2014-9-10T21:55:57Z</time></trkpt>
<trkpt lat="48.16874924" lon="6.36631748"><ele></ele><time>2014-9-10T21:56:0Z</time></trkpt>
<trkpt lat="48.16864388" lon="6.36608002"><ele></ele><time>2014-9-10T21:56:3Z</time></trkpt>
<trkpt lat="48.16847197" lon="6.36573460"><ele></ele><time>2014-9-10T21:56:6Z</time></trkpt>
<trkpt lat="48.16817072" lon="6.36512180"><ele></ele><time>2014-9-10T21:56:9Z</time></trkpt>
<trkpt lat="48.16811104" lon="6.36479658"><ele></ele><time>2014-9-10T21:56:12Z</time></trkpt>
<trkpt lat="48.16814256" lon="6.36431940"><ele></ele><time>2014-9-10T21:56:15Z</time></trkpt>
<trkpt lat="48.16820056" lon="6.36412477"><ele></ele><time>2014-9-10T21:56:18Z</time></trkpt>
<trkpt lat="48.16835219" lon="6.36379109"><ele></ele><time>2014-9-10T21:56:21Z</time></trkpt>
<trkpt lat="48.16843299" lon="6.36341239"><ele></ele><time>2014-9-10T21:56:24Z</time></trkpt>
<trkpt lat="48.16843886" lon="6.36297075"><ele></ele><time>2014-9-10T21:56:27Z</time></trkpt>
<trkpt lat="48.16846082" lon="6.36247463"><ele></ele><time>2014-9-10T21:56:30Z</time></trkpt>
<trkpt lat="48.16848345" lon="6.36188018"><ele></ele><time>2014-9-10T21:56:33Z</time></trkpt>
<trkpt lat="48.16846954" lon="6.36172285"><ele></ele><time>2014-9-10T21:56:36Z</time></trkpt>
<trkpt lat="48.16839678" lon="6.36141624"><ele></ele><time>2014-9-10T21:56:39Z</time></trkpt>
<trkpt lat="48.16830223" lon="6.36120980"><ele></ele><time>2014-9-10T21:56:42Z</time></trkpt>
<trkpt lat="48.16790233" lon="6.36067738"><ele></ele><time>2014-9-10T21:56:45Z</time></trkpt>
<trkpt lat="48.16751123" lon="6.36020112"><ele></ele><time>2014-9-10T21:56:48Z</time></trkpt>
<trkpt lat="48.16743999" lon="6.36011872"><ele></ele><time>2014-9-10T21:56:51Z</time></trkpt>
<trkpt lat="48.16727729" lon="6.36003742"><ele></ele><time>2014-9-10T21:56:54Z</time></trkpt>
<trkpt lat="48.16699843" lon="6.36004035"><ele></ele><time>2014-9-10T21:56:57Z</time></trkpt>
<trkpt lat="48.16690329" lon="6.35996894"><ele></ele><time>2014-9-10T21:57:0Z</time></trkpt>
<trkpt lat="48.16668184" lon="6.35979694"><ele></ele><time>2014-9-10T21:57:3Z</time></trkpt>
<trkpt lat="48.16660666" lon="6.35975529"><ele></ele><time>2014-9-10T21:57:6Z</time></trkpt>
<trkpt lat="48.16639066" lon="6.35965772"><ele></ele><time>2014-9-10T21:57:9Z</time></trkpt>
<trkpt lat="48.16634330" lon="6.35967013"><ele></ele><time>2014-9-10T21:57:12Z</time></trkpt>
<trkpt lat="48.16605689" lon="6.35980876"><ele></ele><time>2014-9-10T21:57:15Z</time></trkpt>
<trkpt lat="48.16579244" lon="6.35995712"><ele></ele><time>2014-9-10T21:57:18Z</time></trkpt>
<trkpt lat="48.16553889" lon="6.36010967"><ele></ele><time>2014-9-10T21:57:21Z</time></trkpt>
<trkpt lat="48.16550109" lon="6.36014035"><ele></ele><time>2014-9-10T21:57:24Z</time></trkpt>
<trkpt lat="48.16530579" lon="6.36037337"><ele></ele><time>2014-9-10T21:57:27Z</time></trkpt>
<trkpt lat="48.16518257" lon="6.36053824"><ele></ele><time>2014-9-10T21:57:30Z</time></trkpt>
<trkpt lat="48.16485484" lon="6.36093018"><ele></ele><time>2014-9-10T21:57:33Z</time></trkpt>
<trkpt lat="48.16462534" lon="6.36125020"><ele></ele><time>2014-9-10T21:57:36Z</time></trkpt>
<trkpt lat="48.16449098" lon="6.36140904"><ele></ele><time>2014-9-10T21:57:39Z</time></trkpt>
<trkpt lat="48.16420365" lon="6.36166225"><ele></ele><time>2014-9-10T21:57:42Z</time></trkpt>
<trkpt lat="48.16403216" lon="6.36187892"><ele></ele><time>2014-9-10T21:57:45Z</time></trkpt>
<trkpt lat="48.16398027" lon="6.36198940"><ele></ele><time>2014-9-10T21:57:48Z</time></trkpt>
<trkpt lat="48.16391733" lon="6.36224253"><ele></ele><time>2014-9-10T21:57:51Z</time></trkpt>
<trkpt lat="48.16383812" lon="6.36284837"><ele></ele><time>2014-9-10T21:57:54Z</time></trkpt>
<trkpt lat="48.16382890" lon="6.36291166"><ele></ele><time>2014-9-10T21:57:57Z</time></trkpt>
<trkpt lat="48.16378732" lon="6.36341013"><ele></ele><time>2014-9-10T21:58:0Z</time></trkpt>
<trkpt lat="48.16380736" lon="6.36380115"><ele></ele><time>2014-9-10T21:58:3Z</time></trkpt>
<trkpt lat="48.16384206" lon="6.36412972"><ele></ele><time>2014-9-10T21:58:6Z</time></trkpt>
<trkpt lat="48.16380585" lon="6.36446139"><ele></ele><time>2014-9-10T21:58:9Z</time></trkpt>
<trkpt lat="48.16377014" lon="6.36461914"><ele></ele><time>2014-9-10T21:58:12Z</time></trkpt>
<trkpt lat="48.16374583" lon="6.36493966"><ele></ele><time>2014-9-10T21:58:15Z</time></trkpt>
<trkpt lat="48.16373427" lon="6.36499842"><ele></ele><time>2014-9-10T21:58:18Z</time></trkpt>
<trkpt lat="48.16371943" lon="6.36541793"><ele></ele><time>2014-9-10T21:58:21Z</time></trkpt>
<trkpt lat="48.16371448" lon="6.36550410"><ele></ele><time>2014-9-10T21:58:24Z</time></trkpt>
<trkpt lat="48.16367375" lon="6.36612084"><ele></ele><time>2014-9-10T21:58:27Z</time></trkpt>
<trkpt lat="48.16364433" lon="6.36674630"><ele></ele><time>2014-9-10T21:58:30Z</time></trkpt>
<trkpt lat="48.16360133" lon="6.36706615"><ele></ele><time>2014-9-10T21:58:33Z</time></trkpt>
<trkpt lat="48.16344970" lon="6.36767325"><ele></ele><time>2014-9-10T21:58:36Z</time></trkpt>
<trkpt lat="48.16340167" lon="6.36790358"><ele></ele><time>2014-9-10T21:58:39Z</time></trkpt>
<trkpt lat="48.16328298" lon="6.36807583"><ele></ele><time>2014-9-10T21:58:42Z</time></trkpt>
<trkpt lat="48.16311719" lon="6.36806670"><ele></ele><time>2014-9-10T21:58:45Z</time></trkpt>
<trkpt lat="48.16307830" lon="6.36803937"><ele></ele><time>2014-9-10T21:58:48Z</time></trkpt>
<trkpt lat="48.16282759" lon="6.36800383"><ele></ele><time>2014-9-10T21:58:51Z</time></trkpt>
<trkpt lat="48.16259617" lon="6.36796955"><ele></ele><time>2014-9-10T21:58:54Z</time></trkpt>
<trkpt lat="48.16239693" lon="6.36792018"><ele></ele><time>2014-9-10T21:58:57Z</time></trkpt>
<trkpt lat="48.16224229" lon="6.36786888"><ele></ele><time>2014-9-10T21:59:0Z</time></trkpt>
<trkpt lat="48.16209678" lon="6.36781985"><ele></ele><time>2014-9-10T21:59:3Z</time></trkpt>
<trkpt lat="48.16185387" lon="6.36777023"><ele></ele><time>2014-9-10T21:59:6Z</time></trkpt>
<trkpt lat="48.16173309" lon="6.36777123"><ele></ele><time>2014-9-10T21:59:9Z</time></trkpt>
<trkpt lat="48.16160702" lon="6.36777408"><ele></ele><time>2014-9-10T21:59:12Z</time></trkpt>
<trkpt lat="48.16140435" lon="6.36777073"><ele></ele><time>2014-9-10T21:59:15Z</time></trkpt>
<trkpt lat="48.16119966" lon="6.36778196"><ele></ele><time>2014-9-10T21:59:18Z</time></trkpt>
<trkpt lat="48.16101618" lon="6.36777316"><ele></ele><time>2014-9-10T21:59:21Z</time></trkpt>
<trkpt lat="48.16081124" lon="6.36771717"><ele></ele><time>2014-9-10T21:59:24Z</time></trkpt>
<trkpt lat="48.16059885" lon="6.36762589"><ele></ele><time>2014-9-10T21:59:27Z</time></trkpt>
<trkpt lat="48.16041713" lon="6.36755138"><ele></ele><time>2014-9-10T21:59:30Z</time></trkpt>
<trkpt lat="48.16023574" lon="6.36750754"><ele></ele><time>2014-9-10T21:59:33Z</time></trkpt>
<trkpt lat="48.16010968" lon="6.36744769"><ele></ele><time>2014-9-10T21:59:36Z</time></trkpt>
<trkpt lat="48.15997599" lon="6.36736915"><ele></ele><time>2014-9-10T21:59:39Z</time></trkpt>
<trkpt lat="48.15988286" lon="6.36729330"><ele></ele><time>2014-9-10T21:59:42Z</time></trkpt>
<trkpt lat="48.15975839" lon="6.36715164"><ele></ele><time>2014-9-10T21:59:45Z</time></trkpt>
<trkpt lat="48.15964255" lon="6.36695769"><ele></ele><time>2014-9-10T21:59:48Z</time></trkpt>
<trkpt lat="48.15953745" lon="6.36679483"><ele></ele><time>2014-9-10T21:59:51Z</time></trkpt>
<trkpt lat="48.15946268" lon="6.36665770"><ele></ele><time>2014-9-10T21:59:54Z</time></trkpt>
<trkpt lat="48.15933670" lon="6.36651646"><ele></ele><time>2014-9-10T21:59:57Z</time></trkpt>
<trkpt lat="48.15915196" lon="6.36640356"><ele></ele><time>2014-9-10T22:0:0Z</time></trkpt>
<trkpt lat="48.15880747" lon="6.36632334"><ele></ele><time>2014-9-10T22:0:3Z</time></trkpt>
<trkpt lat="48.15845878" lon="6.36628655"><ele></ele><time>2014-9-10T22:0:6Z</time></trkpt>
<trkpt lat="48.15814915" lon="6.36630960"><ele></ele><time>2014-9-10T22:0:9Z</time></trkpt>
<trkpt lat="48.15810054" lon="6.36630390"><ele></ele><time>2014-9-10T22:0:12Z</time></trkpt>
<trkpt lat="48.15791437" lon="6.36627750"><ele></ele><time>2014-9-10T22:0:15Z</time></trkpt>
<trkpt lat="48.15754423" lon="6.36615177"><ele></ele><time>2014-9-10T22:0:18Z</time></trkpt>
<trkpt lat="48.15729998" lon="6.36614724"><ele></ele><time>2014-9-10T22:0:21Z</time></trkpt>
<trkpt lat="48.15714307" lon="6.36620189"><ele></ele><time>2014-9-10T22:0:24Z</time></trkpt>
<trkpt lat="48.15689413" lon="6.36625537"><ele></ele><time>2014-9-10T22:0:27Z</time></trkpt>
<trkpt lat="48.15662792" lon="6.36637992"><ele></ele><time>2014-9-10T22:0:30Z</time></trkpt>
<trkpt lat="48.15640052" lon="6.36643977"><ele></ele><time>2014-9-10T22:0:33Z</time></trkpt>
<trkpt lat="48.15618678" lon="6.36643709"><ele></ele><time>2014-9-10T22:0:36Z</time></trkpt>
<trkpt lat="48.15596784" lon="6.36637489"><ele></ele><time>2014-9-10T22:0:39Z</time></trkpt>
<trkpt lat="48.15575268" lon="6.36633659"><ele></ele><time>2014-9-10T22:0:42Z</time></trkpt>
<trkpt lat="48.15557314" lon="6.36637489"><ele></ele><time>2014-9-10T22:0:45Z</time></trkpt>
<trkpt lat="48.15539318" lon="6.36648973"><ele></ele><time>2014-9-10T22:0:48Z</time></trkpt>
<trkpt lat="48.15531146" lon="6.36654463"><ele></ele><time>2014-9-10T22:0:51Z</time></trkpt>
<trkpt lat="48.15519193" lon="6.36671905"><ele></ele><time>2014-9-10T22:0:54Z</time></trkpt>
<trkpt lat="48.15504114" lon="6.36705383"><ele></ele><time>2014-9-10T22:0:57Z</time></trkpt>
<trkpt lat="48.15486252" lon="6.36732934"><ele></ele><time>2014-9-10T22:1:0Z</time></trkpt>
<trkpt lat="48.15470318" lon="6.36746546"><ele></ele><time>2014-9-10T22:1:3Z</time></trkpt>
<trkpt lat="48.15451476" lon="6.36743688"><ele></ele><time>2014-9-10T22:1:6Z</time></trkpt>
<trkpt lat="48.15447712" lon="6.36742657"><ele></ele><time>2014-9-10T22:1:9Z</time></trkpt>
<trkpt lat="48.15428794" lon="6.36721007"><ele></ele><time>2014-9-10T22:1:12Z</time></trkpt>
<trkpt lat="48.15420513" lon="6.36707738"><ele></ele><time>2014-9-10T22:1:15Z</time></trkpt>
<trkpt lat="48.15403473" lon="6.36669357"><ele></ele><time>2014-9-10T22:1:18Z</time></trkpt>
<trkpt lat="48.15401863" lon="6.36643449"><ele></ele><time>2014-9-10T22:1:21Z</time></trkpt>
<trkpt lat="48.15399776" lon="6.36630172"><ele></ele><time>2014-9-10T22:1:24Z</time></trkpt>
<trkpt lat="48.15394403" lon="6.36609024"><ele></ele><time>2014-9-10T22:1:27Z</time></trkpt>
<trkpt lat="48.15389399" lon="6.36587265"><ele></ele><time>2014-9-10T22:1:30Z</time></trkpt>
<trkpt lat="48.15370549" lon="6.36538449"><ele></ele><time>2014-9-10T22:1:33Z</time></trkpt>
<trkpt lat="48.15359283" lon="6.36512750"><ele></ele><time>2014-9-10T22:1:36Z</time></trkpt>
<trkpt lat="48.15343106" lon="6.36463447"><ele></ele><time>2014-9-10T22:1:39Z</time></trkpt>
<trkpt lat="48.15339846" lon="6.36454219"><ele></ele><time>2014-9-10T22:1:42Z</time></trkpt>
<trkpt lat="48.15322922" lon="6.36403349"><ele></ele><time>2014-9-10T22:1:45Z</time></trkpt>
<trkpt lat="48.15311657" lon="6.36367626"><ele></ele><time>2014-9-10T22:1:48Z</time></trkpt>
<trkpt lat="48.15308665" lon="6.36347610"><ele></ele><time>2014-9-10T22:1:51Z</time></trkpt>
<trkpt lat="48.15311247" lon="6.36311073"><ele></ele><time>2014-9-10T22:1:54Z</time></trkpt>
<trkpt lat="48.15312076" lon="6.36295558"><ele></ele><time>2014-9-10T22:1:57Z</time></trkpt>
<trkpt lat="48.15299294" lon="6.36279817"><ele></ele><time>2014-9-10T22:2:0Z</time></trkpt>
<trkpt lat="48.15258667" lon="6.36283228"><ele></ele><time>2014-9-10T22:2:3Z</time></trkpt>
<trkpt lat="48.15254166" lon="6.36285156"><ele></ele><time>2014-9-10T22:2:6Z</time></trkpt>
<trkpt lat="48.15232507" lon="6.36308793"><ele></ele><time>2014-9-10T22:2:9Z</time></trkpt>
<trkpt lat="48.15211225" lon="6.36362228"><ele></ele><time>2014-9-10T22:2:12Z</time></trkpt>
<trkpt lat="48.15189550" lon="6.36408999"><ele></ele><time>2014-9-10T22:2:15Z</time></trkpt>
<trkpt lat="48.15150968" lon="6.36489482"><ele></ele><time>2014-9-10T22:2:18Z</time></trkpt>
<trkpt lat="48.15110575" lon="6.36578908"><ele></ele><time>2014-9-10T22:2:21Z</time></trkpt>
<trkpt lat="48.15079923" lon="6.36644287"><ele></ele><time>2014-9-10T22:2:24Z</time></trkpt>
<trkpt lat="48.15054283" lon="6.36694277"><ele></ele><time>2014-9-10T22:2:27Z</time></trkpt>
<trkpt lat="48.15029816" lon="6.36728165"><ele></ele><time>2014-9-10T22:2:30Z</time></trkpt>
<trkpt lat="48.15002265" lon="6.36748868"><ele></ele><time>2014-9-10T22:2:33Z</time></trkpt>
<trkpt lat="48.14970397" lon="6.36768297"><ele></ele><time>2014-9-10T22:2:36Z</time></trkpt>
<trkpt lat="48.14928546" lon="6.36799864"><ele></ele><time>2014-9-10T22:2:39Z</time></trkpt>
<trkpt lat="48.14889276" lon="6.36840172"><ele></ele><time>2014-9-10T22:2:42Z</time></trkpt>
<trkpt lat="48.14866888" lon="6.36864413"><ele></ele><time>2014-9-10T22:2:45Z</time></trkpt>
<trkpt lat="48.14851684" lon="6.36869936"><ele></ele><time>2014-9-10T22:2:48Z</time></trkpt>
<trkpt lat="48.14841474" lon="6.36859207"><ele></ele><time>2014-9-10T22:2:51Z</time></trkpt>
<trkpt lat="48.14811870" lon="6.36827675"><ele></ele><time>2014-9-10T22:2:54Z</time></trkpt>
<trkpt lat="48.14778702" lon="6.36799914"><ele></ele><time>2014-9-10T22:2:57Z</time></trkpt>
<trkpt lat="48.14766306" lon="6.36792538"><ele></ele><time>2014-9-10T22:3:0Z</time></trkpt>
<trkpt lat="48.14743658" lon="6.36774005"><ele></ele><time>2014-9-10T22:3:3Z</time></trkpt>
<trkpt lat="48.14732585" lon="6.36755942"><ele></ele><time>2014-9-10T22:3:6Z</time></trkpt>
<trkpt lat="48.14727237" lon="6.36744987"><ele></ele><time>2014-9-10T22:3:9Z</time></trkpt>
<trkpt lat="48.14721068" lon="6.36730922"><ele></ele><time>2014-9-10T22:3:12Z</time></trkpt>
<trkpt lat="48.14714924" lon="6.36703338"><ele></ele><time>2014-9-10T22:3:15Z</time></trkpt>
<trkpt lat="48.14711496" lon="6.36677354"><ele></ele><time>2014-9-10T22:3:18Z</time></trkpt>
<trkpt lat="48.14708495" lon="6.36645704"><ele></ele><time>2014-9-10T22:3:21Z</time></trkpt>
<trkpt lat="48.14703307" lon="6.36615227"><ele></ele><time>2014-9-10T22:3:24Z</time></trkpt>
<trkpt lat="48.14692402" lon="6.36610877"><ele></ele><time>2014-9-10T22:3:27Z</time></trkpt>
<trkpt lat="48.14677055" lon="6.36624003"><ele></ele><time>2014-9-10T22:3:30Z</time></trkpt>
<trkpt lat="48.14656972" lon="6.36632737"><ele></ele><time>2014-9-10T22:3:33Z</time></trkpt>
<trkpt lat="48.14629345" lon="6.36634983"><ele></ele><time>2014-9-10T22:3:36Z</time></trkpt>
<trkpt lat="48.14599246" lon="6.36640448"><ele></ele><time>2014-9-10T22:3:39Z</time></trkpt>
<trkpt lat="48.14576975" lon="6.36649417"><ele></ele><time>2014-9-10T22:3:42Z</time></trkpt>
<trkpt lat="48.14551452" lon="6.36656617"><ele></ele><time>2014-9-10T22:3:45Z</time></trkpt>
<trkpt lat="48.14519333" lon="6.36659039"><ele></ele><time>2014-9-10T22:3:48Z</time></trkpt>
<trkpt lat="48.14499065" lon="6.36673322"><ele></ele><time>2014-9-10T22:3:51Z</time></trkpt>
<trkpt lat="48.14491379" lon="6.36684939"><ele></ele><time>2014-9-10T22:3:54Z</time></trkpt>
<trkpt lat="48.14470785" lon="6.36739187"><ele></ele><time>2014-9-10T22:3:57Z</time></trkpt>
<trkpt lat="48.14456628" lon="6.36773134"><ele></ele><time>2014-9-10T22:4:0Z</time></trkpt>
<trkpt lat="48.14439646" lon="6.36790887"><ele></ele><time>2014-9-10T22:4:3Z</time></trkpt>
<trkpt lat="48.14413595" lon="6.36809025"><ele></ele><time>2014-9-10T22:4:6Z</time></trkpt>
<trkpt lat="48.14391492" lon="6.36826317"><ele></ele><time>2014-9-10T22:4:9Z</time></trkpt>
<trkpt lat="48.14380956" lon="6.36850876"><ele></ele><time>2014-9-10T22:4:12Z</time></trkpt>
<trkpt lat="48.14372717" lon="6.36889634"><ele></ele><time>2014-9-10T22:4:15Z</time></trkpt>
<trkpt lat="48.14371736" lon="6.36895023"><ele></ele><time>2014-9-10T22:4:18Z</time></trkpt>
<trkpt lat="48.14362960" lon="6.36943898"><ele></ele><time>2014-9-10T22:4:21Z</time></trkpt>
<trkpt lat="48.14359616" lon="6.36959170"><ele></ele><time>2014-9-10T22:4:24Z</time></trkpt>
<trkpt lat="48.14344469" lon="6.36982430"><ele></ele><time>2014-9-10T22:4:27Z</time></trkpt>
<trkpt lat="48.14338904" lon="6.36985464"><ele></ele><time>2014-9-10T22:4:30Z</time></trkpt>
<trkpt lat="48.14291362" lon="6.37002597"><ele></ele><time>2014-9-10T22:4:33Z</time></trkpt>
<trkpt lat="48.14240433" lon="6.37026049"><ele></ele><time>2014-9-10T22:4:36Z</time></trkpt>
<trkpt lat="48.14222295" lon="6.37046518"><ele></ele><time>2014-9-10T22:4:39Z</time></trkpt>
<trkpt lat="48.14220803" lon="6.37051178"><ele></ele><time>2014-9-10T22:4:42Z</time></trkpt>
<trkpt lat="48.14206042" lon="6.37088327"><ele></ele><time>2014-9-10T22:4:45Z</time></trkpt>
<trkpt lat="48.14189563" lon="6.37099885"><ele></ele><time>2014-9-10T22:4:48Z</time></trkpt>
<trkpt lat="48.14167972" lon="6.37106733"><ele></ele><time>2014-9-10T22:4:51Z</time></trkpt>
<trkpt lat="48.14140244" lon="6.37106264"><ele></ele><time>2014-9-10T22:4:54Z</time></trkpt>
<trkpt lat="48.14103515" lon="6.37097362"><ele></ele><time>2014-9-10T22:4:57Z</time></trkpt>
<trkpt lat="48.14070909" lon="6.37083549"><ele></ele><time>2014-9-10T22:5:0Z</time></trkpt>
<trkpt lat="48.14048354" lon="6.37066584"><ele></ele><time>2014-9-10T22:5:3Z</time></trkpt>
<trkpt lat="48.14017734" lon="6.37060725"><ele></ele><time>2014-9-10T22:5:6Z</time></trkpt>
<trkpt lat="48.13997224" lon="6.37062896"><ele></ele><time>2014-9-10T22:5:9Z</time></trkpt>
<trkpt lat="48.13980360" lon="6.37062477"><ele></ele><time>2014-9-10T22:5:12Z</time></trkpt>
<trkpt lat="48.13962137" lon="6.37067196"><ele></ele><time>2014-9-10T22:5:15Z</time></trkpt>
<trkpt lat="48.13942323" lon="6.37082174"><ele></ele><time>2014-9-10T22:5:18Z</time></trkpt>
<trkpt lat="48.13922734" lon="6.37105275"><ele></ele><time>2014-9-10T22:5:21Z</time></trkpt>
<trkpt lat="48.13906414" lon="6.37110740"><ele></ele><time>2014-9-10T22:5:24Z</time></trkpt>
<trkpt lat="48.13886843" lon="6.37117127"><ele></ele><time>2014-9-10T22:5:27Z</time></trkpt>
<trkpt lat="48.13868453" lon="6.37134704"><ele></ele><time>2014-9-10T22:5:30Z</time></trkpt>
<trkpt lat="48.13849594" lon="6.37158198"><ele></ele><time>2014-9-10T22:5:33Z</time></trkpt>
<trkpt lat="48.13830273" lon="6.37166412"><ele></ele><time>2014-9-10T22:5:36Z</time></trkpt>
<trkpt lat="48.13824766" lon="6.37167016"><ele></ele><time>2014-9-10T22:5:39Z</time></trkpt>
<trkpt lat="48.13802219" lon="6.37168994"><ele></ele><time>2014-9-10T22:5:42Z</time></trkpt>
<trkpt lat="48.13785464" lon="6.37174442"><ele></ele><time>2014-9-10T22:5:45Z</time></trkpt>
<trkpt lat="48.13761257" lon="6.37200242"><ele></ele><time>2014-9-10T22:5:48Z</time></trkpt>
<trkpt lat="48.13760360" lon="6.37228698"><ele></ele><time>2014-9-10T22:5:51Z</time></trkpt>
<trkpt lat="48.13765037" lon="6.37243115"><ele></ele><time>2014-9-10T22:5:54Z</time></trkpt>
<trkpt lat="48.13775715" lon="6.37266048"><ele></ele><time>2014-9-10T22:5:57Z</time></trkpt>
<trkpt lat="48.13789529" lon="6.37297447"><ele></ele><time>2014-9-10T22:6:0Z</time></trkpt>
<trkpt lat="48.13796997" lon="6.37321469"><ele></ele><time>2014-9-10T22:6:3Z</time></trkpt>
<trkpt lat="48.13797559" lon="6.37361728"><ele></ele><time>2014-9-10T22:6:6Z</time></trkpt>
<trkpt lat="48.13786059" lon="6.37386622"><ele></ele><time>2014-9-10T22:6:9Z</time></trkpt>
<trkpt lat="48.13768507" lon="6.37402749"><ele></ele><time>2014-9-10T22:6:12Z</time></trkpt>
<trkpt lat="48.13739539" lon="6.37416897"><ele></ele><time>2014-9-10T22:6:15Z</time></trkpt>
<trkpt lat="48.13713983" lon="6.37425623"><ele></ele><time>2014-9-10T22:6:18Z</time></trkpt>
<trkpt lat="48.13680824" lon="6.37432278"><ele></ele><time>2014-9-10T22:6:21Z</time></trkpt>
<trkpt lat="48.13657405" lon="6.37435338"><ele></ele><time>2014-9-10T22:6:24Z</time></trkpt>
<trkpt lat="48.13626149" lon="6.37452856"><ele></ele><time>2014-9-10T22:6:27Z</time></trkpt>
<trkpt lat="48.13605496" lon="6.37477046"><ele></ele><time>2014-9-10T22:6:30Z</time></trkpt>
<trkpt lat="48.13596158" lon="6.37487859"><ele></ele><time>2014-9-10T22:6:33Z</time></trkpt>
<trkpt lat="48.13580987" lon="6.37484154"><ele></ele><time>2014-9-10T22:6:36Z</time></trkpt>
<trkpt lat="48.13562195" lon="6.37467876"><ele></ele><time>2014-9-10T22:6:39Z</time></trkpt>
<trkpt lat="48.13541332" lon="6.37470282"><ele></ele><time>2014-9-10T22:6:42Z</time></trkpt>
<trkpt lat="48.13533420" lon="6.37485939"><ele></ele><time>2014-9-10T22:6:45Z</time></trkpt>
<trkpt lat="48.13531140" lon="6.37494028"><ele></ele><time>2014-9-10T22:6:48Z</time></trkpt>
<trkpt lat="48.13516187" lon="6.37519542"><ele></ele><time>2014-9-10T22:6:51Z</time></trkpt>
<trkpt lat="48.13498283" lon="6.37540648"><ele></ele><time>2014-9-10T22:6:54Z</time></trkpt>
<trkpt lat="48.13488333" lon="6.37553732"><ele></ele><time>2014-9-10T22:6:57Z</time></trkpt>
<trkpt lat="48.13467689" lon="6.37568635"><ele></ele><time>2014-9-10T22:7:0Z</time></trkpt>
<trkpt lat="48.13458620" lon="6.37569842"><ele></ele><time>2014-9-10T22:7:3Z</time></trkpt>
<trkpt lat="48.13449232" lon="6.37568425"><ele></ele><time>2014-9-10T22:7:6Z</time></trkpt>
<trkpt lat="48.13438319" lon="6.37567386"><ele></ele><time>2014-9-10T22:7:9Z</time></trkpt>
<trkpt lat="48.13427598" lon="6.37573396"><ele></ele><time>2014-9-10T22:7:12Z</time></trkpt>
<trkpt lat="48.13407943" lon="6.37585868"><ele></ele><time>2014-9-10T22:7:15Z</time></trkpt>
<trkpt lat="48.13405193" lon="6.37591442"><ele></ele><time>2014-9-10T22:7:18Z</time></trkpt>
<trkpt lat="48.13405554" lon="6.37607309"><ele></ele><time>2014-9-10T22:7:21Z</time></trkpt>
<trkpt lat="48.13415604" lon="6.37624408"><ele></ele><time>2014-9-10T22:7:24Z</time></trkpt>
<trkpt lat="48.13431504" lon="6.37636696"><ele></ele><time>2014-9-10T22:7:27Z</time></trkpt>
<trkpt lat="48.13439660" lon="6.37656570"><ele></ele><time>2014-9-10T22:7:30Z</time></trkpt>
<trkpt lat="48.13440842" lon="6.37662839"><ele></ele><time>2014-9-10T22:7:33Z</time></trkpt>
<trkpt lat="48.13436735" lon="6.37690147"><ele></ele><time>2014-9-10T22:7:36Z</time></trkpt>
<trkpt lat="48.13424740" lon="6.37714413"><ele></ele><time>2014-9-10T22:7:39Z</time></trkpt>
<trkpt lat="48.13413114" lon="6.37752006"><ele></ele><time>2014-9-10T22:7:42Z</time></trkpt>
<trkpt lat="48.13401757" lon="6.37776598"><ele></ele><time>2014-9-10T22:7:45Z</time></trkpt>
<trkpt lat="48.13387214" lon="6.37804887"><ele></ele><time>2014-9-10T22:7:48Z</time></trkpt>
<trkpt lat="48.13387239" lon="6.37809254"><ele></ele><time>2014-9-10T22:7:51Z</time></trkpt>
<trkpt lat="48.13397826" lon="6.37817469"><ele></ele><time>2014-9-10T22:7:54Z</time></trkpt>
<trkpt lat="48.13414112" lon="6.37820754"><ele></ele><time>2014-9-10T22:7:57Z</time></trkpt>
<trkpt lat="48.13422703" lon="6.37824962"><ele></ele><time>2014-9-10T22:8:0Z</time></trkpt>
<trkpt lat="48.13427095" lon="6.37828348"><ele></ele><time>2014-9-10T22:8:3Z</time></trkpt>
<trkpt lat="48.13433424" lon="6.37837266"><ele></ele><time>2014-9-10T22:8:6Z</time></trkpt>
<trkpt lat="48.13434153" lon="6.37838507"><ele></ele><time>2014-9-10T22:8:9Z</time></trkpt>
<trkpt lat="48.13441990" lon="6.37851558"><ele></ele><time>2014-9-10T22:8:12Z</time></trkpt>
<trkpt lat="48.13447346" lon="6.37866167"><ele></ele><time>2014-9-10T22:8:15Z</time></trkpt>
<trkpt lat="48.13449902" lon="6.37880123"><ele></ele><time>2014-9-10T22:8:18Z</time></trkpt>
<trkpt lat="48.13456172" lon="6.37897424"><ele></ele><time>2014-9-10T22:8:21Z</time></trkpt>
<trkpt lat="48.13459927" lon="6.37913969"><ele></ele><time>2014-9-10T22:8:24Z</time></trkpt>
<trkpt lat="48.13465157" lon="6.37930909"><ele></ele><time>2014-9-10T22:8:27Z</time></trkpt>
<trkpt lat="48.13467647" lon="6.37940272"><ele></ele><time>2014-9-10T22:8:30Z</time></trkpt>
<trkpt lat="48.13472148" lon="6.37953532"><ele></ele><time>2014-9-10T22:8:33Z</time></trkpt>
<trkpt lat="48.13472492" lon="6.37963439"><ele></ele><time>2014-9-10T22:8:36Z</time></trkpt>
<trkpt lat="48.13462584" lon="6.37982240"><ele></ele><time>2014-9-10T22:8:39Z</time></trkpt>
<trkpt lat="48.13454546" lon="6.37998576"><ele></ele><time>2014-9-10T22:8:42Z</time></trkpt>
<trkpt lat="48.13450933" lon="6.38007696"><ele></ele><time>2014-9-10T22:8:45Z</time></trkpt>
<trkpt lat="48.13439794" lon="6.38025390"><ele></ele><time>2014-9-10T22:8:48Z</time></trkpt>
<trkpt lat="48.13428344" lon="6.38037887"><ele></ele><time>2014-9-10T22:8:51Z</time></trkpt>
<trkpt lat="48.13416048" lon="6.38047569"><ele></ele><time>2014-9-10T22:8:54Z</time></trkpt>
<trkpt lat="48.13404230" lon="6.38058079"><ele></ele><time>2014-9-10T22:8:57Z</time></trkpt>
<trkpt lat="48.13396954" lon="6.38066730"><ele></ele><time>2014-9-10T22:9:0Z</time></trkpt>
<trkpt lat="48.13392042" lon="6.38063377"><ele></ele><time>2014-9-10T22:9:3Z</time></trkpt>
<trkpt lat="48.13382789" lon="6.38044056"><ele></ele><time>2014-9-10T22:9:6Z</time></trkpt>
<trkpt lat="48.13369696" lon="6.38025063"><ele></ele><time>2014-9-10T22:9:9Z</time></trkpt>
<trkpt lat="48.13354382" lon="6.38008090"><ele></ele><time>2014-9-10T22:9:12Z</time></trkpt>
<trkpt lat="48.13334442" lon="6.37987294"><ele></ele><time>2014-9-10T22:9:15Z</time></trkpt>
<trkpt lat="48.13321576" lon="6.37970497"><ele></ele><time>2014-9-10T22:9:18Z</time></trkpt>
<trkpt lat="48.13304619" lon="6.37952325"><ele></ele><time>2014-9-10T22:9:21Z</time></trkpt>
<trkpt lat="48.13290990" lon="6.37931722"><ele></ele><time>2014-9-10T22:9:24Z</time></trkpt>
<trkpt lat="48.13280018" lon="6.37910348"><ele></ele><time>2014-9-10T22:9:27Z</time></trkpt>
<trkpt lat="48.13273388" lon="6.37893945"><ele></ele><time>2014-9-10T22:9:30Z</time></trkpt>
<trkpt lat="48.13265383" lon="6.37875052"><ele></ele><time>2014-9-10T22:9:33Z</time></trkpt>
<trkpt lat="48.13259047" lon="6.37854257"><ele></ele><time>2014-9-10T22:9:36Z</time></trkpt>
<trkpt lat="48.13252886" lon="6.37824987"><ele></ele><time>2014-9-10T22:9:39Z</time></trkpt>
<trkpt lat="48.13244378" lon="6.37799607"><ele></ele><time>2014-9-10T22:9:42Z</time></trkpt>
<trkpt lat="48.13237664" lon="6.37777302"><ele></ele><time>2014-9-10T22:9:45Z</time></trkpt>
<trkpt lat="48.13224329" lon="6.37741369"><ele></ele><time>2014-9-10T22:9:48Z</time></trkpt>
<trkpt lat="48.13218637" lon="6.37716986"><ele></ele><time>2014-9-10T22:9:51Z</time></trkpt>
<trkpt lat="48.13213575" lon="6.37696987"><ele></ele><time>2014-9-10T22:9:54Z</time></trkpt>
<trkpt lat="48.13219828" lon="6.37680190"><ele></ele><time>2014-9-10T22:9:57Z</time></trkpt>
<trkpt lat="48.13231160" lon="6.37661875"><ele></ele><time>2014-9-10T22:10:0Z</time></trkpt>
<trkpt lat="48.13240347" lon="6.37642454"><ele></ele><time>2014-9-10T22:10:3Z</time></trkpt>
<trkpt lat="48.13252450" lon="6.37616546"><ele></ele><time>2014-9-10T22:10:6Z</time></trkpt>
<trkpt lat="48.13266263" lon="6.37576363"><ele></ele><time>2014-9-10T22:10:9Z</time></trkpt>
<trkpt lat="48.13271762" lon="6.37542559"><ele></ele><time>2014-9-10T22:10:12Z</time></trkpt>
<trkpt lat="48.13272902" lon="6.37511252"><ele></ele><time>2014-9-10T22:10:15Z</time></trkpt>
<trkpt lat="48.13272667" lon="6.37490499"><ele></ele><time>2014-9-10T22:10:18Z</time></trkpt>
<trkpt lat="48.13270153" lon="6.37448849"><ele></ele><time>2014-9-10T22:10:21Z</time></trkpt>
<trkpt lat="48.13268619" lon="6.37413226"><ele></ele><time>2014-9-10T22:10:24Z</time></trkpt>
<trkpt lat="48.13268946" lon="6.37398004"><ele></ele><time>2014-9-10T22:10:27Z</time></trkpt>
<trkpt lat="48.13271309" lon="6.37376564"><ele></ele><time>2014-9-10T22:10:30Z</time></trkpt>
<trkpt lat="48.13283002" lon="6.37320287"><ele></ele><time>2014-9-10T22:10:33Z</time></trkpt>
<trkpt lat="48.13297712" lon="6.37282804"><ele></ele><time>2014-9-10T22:10:36Z</time></trkpt>
<trkpt lat="48.13311316" lon="6.37262696"><ele></ele><time>2014-9-10T22:10:39Z</time></trkpt>
<trkpt lat="48.13318717" lon="6.37253635"><ele></ele><time>2014-9-10T22:10:42Z</time></trkpt>
<trkpt lat="48.13347568" lon="6.37220208"><ele></ele><time>2014-9-10T22:10:45Z</time></trkpt>
<trkpt lat="48.13351566" lon="6.37215924"><ele></ele><time>2014-9-10T22:10:48Z</time></trkpt>
<trkpt lat="48.13374113" lon="6.37185205"><ele></ele><time>2014-9-10T22:10:51Z</time></trkpt>
<trkpt lat="48.13392067" lon="6.37141049"><ele></ele><time>2014-9-10T22:10:54Z</time></trkpt>
<trkpt lat="48.13411647" lon="6.37054958"><ele></ele><time>2014-9-10T22:10:57Z</time></trkpt>
<trkpt lat="48.13417146" lon="6.37027575"><ele></ele><time>2014-9-10T22:11:0Z</time></trkpt>
<trkpt lat="48.13440666" lon="6.36966454"><ele></ele><time>2014-9-10T22:11:3Z</time></trkpt>
<trkpt lat="48.13458083" lon="6.36932993"><ele></ele><time>2014-9-10T22:11:6Z</time></trkpt>
<trkpt lat="48.13452392" lon="6.36927185"><ele></ele><time>2014-9-10T22:11:9Z</time></trkpt>
<trkpt lat="48.13437346" lon="6.36927126"><ele></ele><time>2014-9-10T22:11:12Z</time></trkpt>
<trkpt lat="48.13423575" lon="6.36918493"><ele></ele><time>2014-9-10T22:11:15Z</time></trkpt>
<trkpt lat="48.13390626" lon="6.36904025"><ele></ele><time>2014-9-10T22:11:18Z</time></trkpt>
<trkpt lat="48.13367760" lon="6.36894043"><ele></ele><time>2014-9-10T22:11:21Z</time></trkpt>
<trkpt lat="48.13349739" lon="6.36886608"><ele></ele><time>2014-9-10T22:11:24Z</time></trkpt>
<trkpt lat="48.13316555" lon="6.36871554"><ele></ele><time>2014-9-10T22:11:27Z</time></trkpt>
<trkpt lat="48.13276296" lon="6.36850398"><ele></ele><time>2014-9-10T22:11:30Z</time></trkpt>
<trkpt lat="48.13268308" lon="6.36846458"><ele></ele><time>2014-9-10T22:11:33Z</time></trkpt>
<trkpt lat="48.13251796" lon="6.36840574"><ele></ele><time>2014-9-10T22:11:36Z</time></trkpt>
<trkpt lat="48.13210842" lon="6.36821363"><ele></ele><time>2014-9-10T22:11:39Z</time></trkpt>
<trkpt lat="48.13173543" lon="6.36805412"><ele></ele><time>2014-9-10T22:11:42Z</time></trkpt>
<trkpt lat="48.13135698" lon="6.36803795"><ele></ele><time>2014-9-10T22:11:45Z</time></trkpt>
<trkpt lat="48.13128758" lon="6.36805873"><ele></ele><time>2014-9-10T22:11:48Z</time></trkpt>
<trkpt lat="48.13096723" lon="6.36815152"><ele></ele><time>2014-9-10T22:11:51Z</time></trkpt>
<trkpt lat="48.13074033" lon="6.36821623"><ele></ele><time>2014-9-10T22:11:54Z</time></trkpt>
<trkpt lat="48.13048216" lon="6.36829343"><ele></ele><time>2014-9-10T22:11:57Z</time></trkpt>
<trkpt lat="48.13043330" lon="6.36831245"><ele></ele><time>2014-9-10T22:12:0Z</time></trkpt>
<trkpt lat="48.13016499" lon="6.36833718"><ele></ele><time>2014-9-10T22:12:3Z</time></trkpt>
<trkpt lat="48.12997095" lon="6.36831874"><ele></ele><time>2014-9-10T22:12:6Z</time></trkpt>
<trkpt lat="48.12973056" lon="6.36829452"><ele></ele><time>2014-9-10T22:12:9Z</time></trkpt>
<trkpt lat="48.12950567" lon="6.36825864"><ele></ele><time>2014-9-10T22:12:12Z</time></trkpt>
<trkpt lat="48.12924173" lon="6.36824314"><ele></ele><time>2014-9-10T22:12:15Z</time></trkpt>
<trkpt lat="48.12912354" lon="6.36821816"><ele></ele><time>2014-9-10T22:12:18Z</time></trkpt>
<trkpt lat="48.12879724" lon="6.36813593"><ele></ele><time>2014-9-10T22:12:21Z</time></trkpt>
<trkpt lat="48.12849892" lon="6.36806628"><ele></ele><time>2014-9-10T22:12:24Z</time></trkpt>
<trkpt lat="48.12816650" lon="6.36801884"><ele></ele><time>2014-9-10T22:12:27Z</time></trkpt>
<trkpt lat="48.12787816" lon="6.36797525"><ele></ele><time>2014-9-10T22:12:30Z</time></trkpt>
<trkpt lat="48.12765478" lon="6.36801389"><ele></ele><time>2014-9-10T22:12:33Z</time></trkpt>
<trkpt lat="48.12741062" lon="6.36813182"><ele></ele><time>2014-9-10T22:12:36Z</time></trkpt>
<trkpt lat="48.12710887" lon="6.36829435"><ele></ele><time>2014-9-10T22:12:39Z</time></trkpt>
<trkpt lat="48.12695540" lon="6.36836224"><ele></ele><time>2014-9-10T22:12:42Z</time></trkpt>
<trkpt lat="48.12667477" lon="6.36860322"><ele></ele><time>2014-9-10T22:12:45Z</time></trkpt>
<trkpt lat="48.12637428" lon="6.36888192"><ele></ele><time>2014-9-10T22:12:48Z</time></trkpt>
<trkpt lat="48.12616993" lon="6.36896549"><ele></ele><time>2014-9-10T22:12:51Z</time></trkpt>
<trkpt lat="48.12612835" lon="6.36894302"><ele></ele><time>2014-9-10T22:12:54Z</time></trkpt>
<trkpt lat="48.12568680" lon="6.36862652"><ele></ele><time>2014-9-10T22:12:57Z</time></trkpt>
<trkpt lat="48.12559568" lon="6.36855620"><ele></ele><time>2014-9-10T22:13:0Z</time></trkpt>
<trkpt lat="48.12534783" lon="6.36852779"><ele></ele><time>2014-9-10T22:13:3Z</time></trkpt>
<trkpt lat="48.12529796" lon="6.36854145"><ele></ele><time>2014-9-10T22:13:6Z</time></trkpt>
<trkpt lat="48.12503125" lon="6.36874965"><ele></ele><time>2014-9-10T22:13:9Z</time></trkpt>
<trkpt lat="48.12476738" lon="6.36906565"><ele></ele><time>2014-9-10T22:13:12Z</time></trkpt>
<trkpt lat="48.12463663" lon="6.36925609"><ele></ele><time>2014-9-10T22:13:15Z</time></trkpt>
<trkpt lat="48.12445005" lon="6.36955080"><ele></ele><time>2014-9-10T22:13:18Z</time></trkpt>
<trkpt lat="48.12426397" lon="6.36992513"><ele></ele><time>2014-9-10T22:13:21Z</time></trkpt>
<trkpt lat="48.12421150" lon="6.37015186"><ele></ele><time>2014-9-10T22:13:24Z</time></trkpt>
<trkpt lat="48.12422348" lon="6.37055797"><ele></ele><time>2014-9-10T22:13:27Z</time></trkpt>
<trkpt lat="48.12429582" lon="6.37082602"><ele></ele><time>2014-9-10T22:13:30Z</time></trkpt>
<trkpt lat="48.12438366" lon="6.37107639"><ele></ele><time>2014-9-10T22:13:33Z</time></trkpt>
<trkpt lat="48.12447502" lon="6.37133522"><ele></ele><time>2014-9-10T22:13:36Z</time></trkpt>
<trkpt lat="48.12451266" lon="6.37166706"><ele></ele><time>2014-9-10T22:13:39Z</time></trkpt>
<trkpt lat="48.12448994" lon="6.37192296"><ele></ele><time>2014-9-10T22:13:42Z</time></trkpt>
<trkpt lat="48.12442012" lon="6.37217090"><ele></ele><time>2014-9-10T22:13:45Z</time></trkpt>
<trkpt lat="48.12432675" lon="6.37246627"><ele></ele><time>2014-9-10T22:13:48Z</time></trkpt>
<trkpt lat="48.12423488" lon="6.37275495"><ele></ele><time>2014-9-10T22:13:51Z</time></trkpt>
<trkpt lat="48.12412265" lon="6.37306172"><ele></ele><time>2014-9-10T22:13:54Z</time></trkpt>
<trkpt lat="48.12400899" lon="6.37335300"><ele></ele><time>2014-9-10T22:13:57Z</time></trkpt>
<trkpt lat="48.12386365" lon="6.37353949"><ele></ele><time>2014-9-10T22:14:0Z</time></trkpt>
<trkpt lat="48.12363926" lon="6.37370889"><ele></ele><time>2014-9-10T22:14:3Z</time></trkpt>
<trkpt lat="48.12340792" lon="6.37388567"><ele></ele><time>2014-9-10T22:14:6Z</time></trkpt>
<trkpt lat="48.12317742" lon="6.37404350"><ele></ele><time>2014-9-10T22:14:9Z</time></trkpt>
<trkpt lat="48.12305044" lon="6.37406537"><ele></ele><time>2014-9-10T22:14:12Z</time></trkpt>
<trkpt lat="48.12283804" lon="6.37404987"><ele></ele><time>2014-9-10T22:14:15Z</time></trkpt>
<trkpt lat="48.12266143" lon="6.37403604"><ele></ele><time>2014-9-10T22:14:18Z</time></trkpt>
<trkpt lat="48.12246982" lon="6.37409555"><ele></ele><time>2014-9-10T22:14:21Z</time></trkpt>
<trkpt lat="48.12225449" lon="6.37421222"><ele></ele><time>2014-9-10T22:14:24Z</time></trkpt>
<trkpt lat="48.12203279" lon="6.37426763"><ele></ele><time>2014-9-10T22:14:27Z</time></trkpt>
<trkpt lat="48.12177865" lon="6.37422857"><ele></ele><time>2014-9-10T22:14:30Z</time></trkpt>
<trkpt lat="48.12150800" lon="6.37409287"><ele></ele><time>2014-9-10T22:14:33Z</time></trkpt>
<trkpt lat="48.12127842" lon="6.37397544"><ele></ele><time>2014-9-10T22:14:36Z</time></trkpt>
<trkpt lat="48.12100324" lon="6.37384677"><ele></ele><time>2014-9-10T22:14:39Z</time></trkpt>
<trkpt lat="48.12063963" lon="6.37374678"><ele></ele><time>2014-9-10T22:14:42Z</time></trkpt>
<trkpt lat="48.12041240" lon="6.37370319"><ele></ele><time>2014-9-10T22:14:45Z</time></trkpt>
<trkpt lat="48.12013848" lon="6.37363228"><ele></ele><time>2014-9-10T22:14:48Z</time></trkpt>
<trkpt lat="48.11986338" lon="6.37346615"><ele></ele><time>2014-9-10T22:14:51Z</time></trkpt>
<trkpt lat="48.11955577" lon="6.37328627"><ele></ele><time>2014-9-10T22:14:54Z</time></trkpt>
<trkpt lat="48.11935284" lon="6.37330295"><ele></ele><time>2014-9-10T22:14:57Z</time></trkpt>
<trkpt lat="48.11916215" lon="6.37347906"><ele></ele><time>2014-9-10T22:15:0Z</time></trkpt>
<trkpt lat="48.11902184" lon="6.37379774"><ele></ele><time>2014-9-10T22:15:3Z</time></trkpt>
<trkpt lat="48.11892704" lon="6.37423117"><ele></ele><time>2014-9-10T22:15:6Z</time></trkpt>
<trkpt lat="48.11880852" lon="6.37471883"><ele></ele><time>2014-9-10T22:15:9Z</time></trkpt>
<trkpt lat="48.11866066" lon="6.37494732"><ele></ele><time>2014-9-10T22:15:12Z</time></trkpt>
<trkpt lat="48.11844458" lon="6.37505519"><ele></ele><time>2014-9-10T22:15:15Z</time></trkpt>
<trkpt lat="48.11816697" lon="6.37511898"><ele></ele><time>2014-9-10T22:15:18Z</time></trkpt>
<trkpt lat="48.11784938" lon="6.37519710"><ele></ele><time>2014-9-10T22:15:21Z</time></trkpt>
<trkpt lat="48.11762500" lon="6.37524705"><ele></ele><time>2014-9-10T22:15:24Z</time></trkpt>
<trkpt lat="48.11740288" lon="6.37536423"><ele></ele><time>2014-9-10T22:15:27Z</time></trkpt>
<trkpt lat="48.11709618" lon="6.37550639"><ele></ele><time>2014-9-10T22:15:30Z</time></trkpt>
<trkpt lat="48.11695486" lon="6.37558979"><ele></ele><time>2014-9-10T22:15:33Z</time></trkpt>
<trkpt lat="48.11675219" lon="6.37589497"><ele></ele><time>2014-9-10T22:15:36Z</time></trkpt>
<trkpt lat="48.11665949" lon="6.37622212"><ele></ele><time>2014-9-10T22:15:39Z</time></trkpt>
<trkpt lat="48.11663325" lon="6.37634676"><ele></ele><time>2014-9-10T22:15:42Z</time></trkpt>
<trkpt lat="48.11648522" lon="6.37690458"><ele></ele><time>2014-9-10T22:15:45Z</time></trkpt>
<trkpt lat="48.11643519" lon="6.37729023"><ele></ele><time>2014-9-10T22:15:48Z</time></trkpt>
<trkpt lat="48.11642613" lon="6.37768393"><ele></ele><time>2014-9-10T22:15:51Z</time></trkpt>
<trkpt lat="48.11641683" lon="6.37795332"><ele></ele><time>2014-9-10T22:15:54Z</time></trkpt>
<trkpt lat="48.11640929" lon="6.37818592"><ele></ele><time>2014-9-10T22:15:57Z</time></trkpt>
<trkpt lat="48.11641138" lon="6.37842757"><ele></ele><time>2014-9-10T22:16:0Z</time></trkpt>
<trkpt lat="48.11640057" lon="6.37877952"><ele></ele><time>2014-9-10T22:16:3Z</time></trkpt>
<trkpt lat="48.11639252" lon="6.37907817"><ele></ele><time>2014-9-10T22:16:6Z</time></trkpt>
<trkpt lat="48.11638909" lon="6.37932602"><ele></ele><time>2014-9-10T22:16:9Z</time></trkpt>
<trkpt lat="48.11639294" lon="6.37955703"><ele></ele><time>2014-9-10T22:16:12Z</time></trkpt>
<trkpt lat="48.11644357" lon="6.37979466"><ele></ele><time>2014-9-10T22:16:15Z</time></trkpt>
<trkpt lat="48.11656862" lon="6.38005366"><ele></ele><time>2014-9-10T22:16:18Z</time></trkpt>
<trkpt lat="48.11672025" lon="6.38028265"><ele></ele><time>2014-9-10T22:16:21Z</time></trkpt>
<trkpt lat="48.11692058" lon="6.38053109"><ele></ele><time>2014-9-10T22:16:24Z</time></trkpt>
<trkpt lat="48.11722434" lon="6.38095555"><ele></ele><time>2014-9-10T22:16:27Z</time></trkpt>
<trkpt lat="48.11743665" lon="6.38122167"><ele></ele><time>2014-9-10T22:16:30Z</time></trkpt>
<trkpt lat="48.11767504" lon="6.38153365"><ele></ele><time>2014-9-10T22:16:33Z</time></trkpt>
<trkpt lat="48.11789699" lon="6.38185786"><ele></ele><time>2014-9-10T22:16:36Z</time></trkpt>
<trkpt lat="48.11813612" lon="6.38218165"><ele></ele><time>2014-9-10T22:16:39Z</time></trkpt>
<trkpt lat="48.11849093" lon="6.38264023"><ele></ele><time>2014-9-10T22:16:42Z</time></trkpt>
<trkpt lat="48.11877776" lon="6.38302328"><ele></ele><time>2014-9-10T22:16:45Z</time></trkpt>
<trkpt lat="48.11898865" lon="6.38330877"><ele></ele><time>2014-9-10T22:16:48Z</time></trkpt>
<trkpt lat="48.11919526" lon="6.38356232"><ele></ele><time>2014-9-10T22:16:51Z</time></trkpt>
<trkpt lat="48.11937413" lon="6.38379249"><ele></ele><time>2014-9-10T22:16:54Z</time></trkpt>
<trkpt lat="48.11960757" lon="6.38409583"><ele></ele><time>2014-9-10T22:16:57Z</time></trkpt>
<trkpt lat="48.11973103" lon="6.38428928"><ele></ele><time>2014-9-10T22:17:0Z</time></trkpt>
<trkpt lat="48.11987487" lon="6.38445835"><ele></ele><time>2014-9-10T22:17:3Z</time></trkpt>
<trkpt lat="48.12004577" lon="6.38468265"><ele></ele><time>2014-9-10T22:17:6Z</time></trkpt>
<trkpt lat="48.12024132" lon="6.38496554"><ele></ele><time>2014-9-10T22:17:9Z</time></trkpt>
<trkpt lat="48.12053637" lon="6.38535169"><ele></ele><time>2014-9-10T22:17:12Z</time></trkpt>
<trkpt lat="48.12080316" lon="6.38570834"><ele></ele><time>2014-9-10T22:17:15Z</time></trkpt>
<trkpt lat="48.12103165" lon="6.38602702"><ele></ele><time>2014-9-10T22:17:18Z</time></trkpt>
<trkpt lat="48.12128060" lon="6.38636833"><ele></ele><time>2014-9-10T22:17:21Z</time></trkpt>
<trkpt lat="48.12168058" lon="6.38696764"><ele></ele><time>2014-9-10T22:17:24Z</time></trkpt>
<trkpt lat="48.12194788" lon="6.38751498"><ele></ele><time>2014-9-10T22:17:27Z</time></trkpt>
<trkpt lat="48.12211099" lon="6.38816885"><ele></ele><time>2014-9-10T22:17:30Z</time></trkpt>
<trkpt lat="48.12222683" lon="6.38868609"><ele></ele><time>2014-9-10T22:17:33Z</time></trkpt>
<trkpt lat="48.12228919" lon="6.38902548"><ele></ele><time>2014-9-10T22:17:36Z</time></trkpt>
<trkpt lat="48.12231056" lon="6.38923570"><ele></ele><time>2014-9-10T22:17:39Z</time></trkpt>
<trkpt lat="48.12231023" lon="6.38943778"><ele></ele><time>2014-9-10T22:17:42Z</time></trkpt>
<trkpt lat="48.12218400" lon="6.38985596"><ele></ele><time>2014-9-10T22:17:45Z</time></trkpt>
<trkpt lat="48.12196313" lon="6.38999878"><ele></ele><time>2014-9-10T22:17:48Z</time></trkpt>
<trkpt lat="48.12189742" lon="6.39002552"><ele></ele><time>2014-9-10T22:17:51Z</time></trkpt>
<trkpt lat="48.12139777" lon="6.39026139"><ele></ele><time>2014-9-10T22:17:54Z</time></trkpt>
<trkpt lat="48.12127364" lon="6.39033222"><ele></ele><time>2014-9-10T22:17:57Z</time></trkpt>
<trkpt lat="48.12102847" lon="6.39062500"><ele></ele><time>2014-9-10T22:18:0Z</time></trkpt>
<trkpt lat="48.12078237" lon="6.39097360"><ele></ele><time>2014-9-10T22:18:3Z</time></trkpt>
<trkpt lat="48.12049177" lon="6.39140409"><ele></ele><time>2014-9-10T22:18:6Z</time></trkpt>
<trkpt lat="48.12025515" lon="6.39212217"><ele></ele><time>2014-9-10T22:18:9Z</time></trkpt>
<trkpt lat="48.12008869" lon="6.39261318"><ele></ele><time>2014-9-10T22:18:12Z</time></trkpt>
<trkpt lat="48.11998769" lon="6.39293178"><ele></ele><time>2014-9-10T22:18:15Z</time></trkpt>
<trkpt lat="48.11989305" lon="6.39335163"><ele></ele><time>2014-9-10T22:18:18Z</time></trkpt>
<trkpt lat="48.11985559" lon="6.39377433"><ele></ele><time>2014-9-10T22:18:21Z</time></trkpt>
<trkpt lat="48.11987009" lon="6.39408236"><ele></ele><time>2014-9-10T22:18:24Z</time></trkpt>
<trkpt lat="48.12003748" lon="6.39466273"><ele></ele><time>2014-9-10T22:18:27Z</time></trkpt>
<trkpt lat="48.12022054" lon="6.39516086"><ele></ele><time>2014-9-10T22:18:30Z</time></trkpt>
<trkpt lat="48.12028550" lon="6.39534837"><ele></ele><time>2014-9-10T22:18:33Z</time></trkpt>
<trkpt lat="48.12035029" lon="6.39569018"><ele></ele><time>2014-9-10T22:18:36Z</time></trkpt>
<trkpt lat="48.12033763" lon="6.39618916"><ele></ele><time>2014-9-10T22:18:39Z</time></trkpt>
<trkpt lat="48.12026194" lon="6.39669115"><ele></ele><time>2014-9-10T22:18:42Z</time></trkpt>
<trkpt lat="48.12010839" lon="6.39733773"><ele></ele><time>2014-9-10T22:18:45Z</time></trkpt>
<trkpt lat="48.12007436" lon="6.39780586"><ele></ele><time>2014-9-10T22:18:48Z</time></trkpt>
<trkpt lat="48.12008333" lon="6.39834540"><ele></ele><time>2014-9-10T22:18:51Z</time></trkpt>
<trkpt lat="48.12007452" lon="6.39858177"><ele></ele><time>2014-9-10T22:18:54Z</time></trkpt>
<trkpt lat="48.12002968" lon="6.39880255"><ele></ele><time>2014-9-10T22:18:57Z</time></trkpt>
<trkpt lat="48.11994930" lon="6.39901889"><ele></ele><time>2014-9-10T22:19:0Z</time></trkpt>
<trkpt lat="48.11988057" lon="6.39915325"><ele></ele><time>2014-9-10T22:19:3Z</time></trkpt>
<trkpt lat="48.11973766" lon="6.39939406"><ele></ele><time>2014-9-10T22:19:6Z</time></trkpt>
<trkpt lat="48.11963565" lon="6.39958114"><ele></ele><time>2014-9-10T22:19:9Z</time></trkpt>
<trkpt lat="48.11952157" lon="6.39986093"><ele></ele><time>2014-9-10T22:19:12Z</time></trkpt>
<trkpt lat="48.11939215" lon="6.40042244"><ele></ele><time>2014-9-10T22:19:15Z</time></trkpt>
<trkpt lat="48.11924170" lon="6.40109357"><ele></ele><time>2014-9-10T22:19:18Z</time></trkpt>
<trkpt lat="48.11915000" lon="6.40163446"><ele></ele><time>2014-9-10T22:19:21Z</time></trkpt>
<trkpt lat="48.11912117" lon="6.40191492"><ele></ele><time>2014-9-10T22:19:24Z</time></trkpt>
<trkpt lat="48.11918202" lon="6.40267214"><ele></ele><time>2014-9-10T22:19:27Z</time></trkpt>
<trkpt lat="48.11922384" lon="6.40296316"><ele></ele><time>2014-9-10T22:19:30Z</time></trkpt>
<trkpt lat="48.11929442" lon="6.40344956"><ele></ele><time>2014-9-10T22:19:33Z</time></trkpt>
<trkpt lat="48.11924052" lon="6.40393009"><ele></ele><time>2014-9-10T22:19:36Z</time></trkpt>
<trkpt lat="48.11917439" lon="6.40411575"><ele></ele><time>2014-9-10T22:19:39Z</time></trkpt>
<trkpt lat="48.11899259" lon="6.40449394"><ele></ele><time>2014-9-10T22:19:42Z</time></trkpt>
<trkpt lat="48.11876854" lon="6.40517254"><ele></ele><time>2014-9-10T22:19:45Z</time></trkpt>
<trkpt lat="48.11871414" lon="6.40554336"><ele></ele><time>2014-9-10T22:19:48Z</time></trkpt>
<trkpt lat="48.11882797" lon="6.40600545"><ele></ele><time>2014-9-10T22:19:51Z</time></trkpt>
<trkpt lat="48.11899083" lon="6.40629454"><ele></ele><time>2014-9-10T22:19:54Z</time></trkpt>
<trkpt lat="48.11939785" lon="6.40673795"><ele></ele><time>2014-9-10T22:19:57Z</time></trkpt>
<trkpt lat="48.12001878" lon="6.40729593"><ele></ele><time>2014-9-10T22:20:0Z</time></trkpt>
<trkpt lat="48.12035632" lon="6.40771125"><ele></ele><time>2014-9-10T22:20:3Z</time></trkpt>
<trkpt lat="48.12063125" lon="6.40815835"><ele></ele><time>2014-9-10T22:20:6Z</time></trkpt>
<trkpt lat="48.12074633" lon="6.40843839"><ele></ele><time>2014-9-10T22:20:9Z</time></trkpt>
<trkpt lat="48.12090324" lon="6.40893736"><ele></ele><time>2014-9-10T22:20:12Z</time></trkpt>
<trkpt lat="48.12095236" lon="6.40924129"><ele></ele><time>2014-9-10T22:20:15Z</time></trkpt>
<trkpt lat="48.12096435" lon="6.40999717"><ele></ele><time>2014-9-10T22:20:18Z</time></trkpt>
<trkpt lat="48.12090249" lon="6.41072882"><ele></ele><time>2014-9-10T22:20:21Z</time></trkpt>
<trkpt lat="48.12085547" lon="6.41097743"><ele></ele><time>2014-9-10T22:20:24Z</time></trkpt>
<trkpt lat="48.12068556" lon="6.41158537"><ele></ele><time>2014-9-10T22:20:27Z</time></trkpt>
<trkpt lat="48.12063678" lon="6.41185770"><ele></ele><time>2014-9-10T22:20:30Z</time></trkpt>
<trkpt lat="48.12068414" lon="6.41250235"><ele></ele><time>2014-9-10T22:20:33Z</time></trkpt>
<trkpt lat="48.12087785" lon="6.41296989"><ele></ele><time>2014-9-10T22:20:36Z</time></trkpt>
<trkpt lat="48.12118093" lon="6.41328187"><ele></ele><time>2014-9-10T22:20:39Z</time></trkpt>
<trkpt lat="48.12167153" lon="6.41342662"><ele></ele><time>2014-9-10T22:20:42Z</time></trkpt>
<trkpt lat="48.12187194" lon="6.41352008"><ele></ele><time>2014-9-10T22:20:45Z</time></trkpt>
<trkpt lat="48.12195886" lon="6.41352662"><ele></ele><time>2014-9-10T22:20:48Z</time></trkpt>
<trkpt lat="48.12200094" lon="6.41335999"><ele></ele><time>2014-9-10T22:20:51Z</time></trkpt>
<trkpt lat="48.12200069" lon="6.41322604"><ele></ele><time>2014-9-10T22:20:54Z</time></trkpt>
<trkpt lat="48.12207637" lon="6.41295413"><ele></ele><time>2014-9-10T22:20:57Z</time></trkpt>
<trkpt lat="48.12222708" lon="6.41284257"><ele></ele><time>2014-9-10T22:21:0Z</time></trkpt>
<trkpt lat="48.12251986" lon="6.41264392"><ele></ele><time>2014-9-10T22:21:3Z</time></trkpt>
<trkpt lat="48.12259723" lon="6.41262674"><ele></ele><time>2014-9-10T22:21:6Z</time></trkpt>
<trkpt lat="48.12261273" lon="6.41262833"><ele></ele><time>2014-9-10T22:21:9Z</time></trkpt>
<trkpt lat="48.12262463" lon="6.41263328"><ele></ele><time>2014-9-10T22:21:12Z</time></trkpt>
<trkpt lat="48.12265414" lon="6.41263612"><ele></ele><time>2014-9-10T22:21:15Z</time></trkpt>
<trkpt lat="48.12265112" lon="6.41264752"><ele></ele><time>2014-9-10T22:21:18Z</time></trkpt>
<trkpt lat="48.12264978" lon="6.41264895"><ele></ele><time>2014-9-10T22:21:21Z</time></trkpt>
<trkpt lat="48.12272463" lon="6.41261014"><ele></ele><time>2014-9-10T22:21:24Z</time></trkpt>
<trkpt lat="48.12272279" lon="6.41261056"><ele></ele><time>2014-9-10T22:21:27Z</time></trkpt>
<trkpt lat="48.12272186" lon="6.41261400"><ele></ele><time>2014-9-10T22:21:30Z</time></trkpt>
<trkpt lat="48.12272396" lon="6.41261559"><ele></ele><time>2014-9-10T22:21:33Z</time></trkpt>
<trkpt lat="48.12275489" lon="6.41263906"><ele></ele><time>2014-9-10T22:21:36Z</time></trkpt>
<trkpt lat="48.12274936" lon="6.41265054"><ele></ele><time>2014-9-10T22:21:39Z</time></trkpt>
<trkpt lat="48.12273678" lon="6.41263143"><ele></ele><time>2014-9-10T22:21:42Z</time></trkpt>
<trkpt lat="48.12276084" lon="6.41259438"><ele></ele><time>2014-9-10T22:21:45Z</time></trkpt>
<trkpt lat="48.12277878" lon="6.41259782"><ele></ele><time>2014-9-10T22:21:48Z</time></trkpt>
<trkpt lat="48.12286545" lon="6.41264157"><ele></ele><time>2014-9-10T22:21:51Z</time></trkpt>
<trkpt lat="48.12304582" lon="6.41278214"><ele></ele><time>2014-9-10T22:21:54Z</time></trkpt>
<trkpt lat="48.12320382" lon="6.41279153"><ele></ele><time>2014-9-10T22:21:57Z</time></trkpt>
<trkpt lat="48.12338705" lon="6.41282212"><ele></ele><time>2014-9-10T22:22:0Z</time></trkpt>
<trkpt lat="48.12349929" lon="6.41286160"><ele></ele><time>2014-9-10T22:22:3Z</time></trkpt>
<trkpt lat="48.12355234" lon="6.41290058"><ele></ele><time>2014-9-10T22:22:6Z</time></trkpt>
<trkpt lat="48.12368134" lon="6.41293536"><ele></ele><time>2014-9-10T22:22:9Z</time></trkpt>
<trkpt lat="48.12379274" lon="6.41297417"><ele></ele><time>2014-9-10T22:22:12Z</time></trkpt>
<trkpt lat="48.12389608" lon="6.41303586"><ele></ele><time>2014-9-10T22:22:15Z</time></trkpt>
<trkpt lat="48.12400245" lon="6.41313728"><ele></ele><time>2014-9-10T22:22:18Z</time></trkpt>
<trkpt lat="48.12409993" lon="6.41325865"><ele></ele><time>2014-9-10T22:22:21Z</time></trkpt>
<trkpt lat="48.12425299" lon="6.41339477"><ele></ele><time>2014-9-10T22:22:24Z</time></trkpt>
<trkpt lat="48.12438374" lon="6.41349737"><ele></ele><time>2014-9-10T22:22:27Z</time></trkpt>
<trkpt lat="48.12450235" lon="6.41356124"><ele></ele><time>2014-9-10T22:22:30Z</time></trkpt>
<trkpt lat="48.12461642" lon="6.41363810"><ele></ele><time>2014-9-10T22:22:33Z</time></trkpt>
<trkpt lat="48.12475749" lon="6.41369987"><ele></ele><time>2014-9-10T22:22:36Z</time></trkpt>
<trkpt lat="48.12487417" lon="6.41375570"><ele></ele><time>2014-9-10T22:22:39Z</time></trkpt>
<trkpt lat="48.12503334" lon="6.41387464"><ele></ele><time>2014-9-10T22:22:42Z</time></trkpt>
<trkpt lat="48.12526183" lon="6.41409466"><ele></ele><time>2014-9-10T22:22:45Z</time></trkpt>
<trkpt lat="48.12541002" lon="6.41422927"><ele></ele><time>2014-9-10T22:22:48Z</time></trkpt>
<trkpt lat="48.12557976" lon="6.41437202"><ele></ele><time>2014-9-10T22:22:51Z</time></trkpt>
<trkpt lat="48.12579492" lon="6.41453580"><ele></ele><time>2014-9-10T22:22:54Z</time></trkpt>
<trkpt lat="48.12608167" lon="6.41475767"><ele></ele><time>2014-9-10T22:22:57Z</time></trkpt>
<trkpt lat="48.12632474" lon="6.41493503"><ele></ele><time>2014-9-10T22:23:0Z</time></trkpt>
<trkpt lat="48.12651258" lon="6.41507157"><ele></ele><time>2014-9-10T22:23:3Z</time></trkpt>
<trkpt lat="48.12672556" lon="6.41531398"><ele></ele><time>2014-9-10T22:23:6Z</time></trkpt>
<trkpt lat="48.12676345" lon="6.41535756"><ele></ele><time>2014-9-10T22:23:9Z</time></trkpt>
<trkpt lat="48.12694919" lon="6.41573894"><ele></ele><time>2014-9-10T22:23:12Z</time></trkpt>
<trkpt lat="48.12697199" lon="6.41580423"><ele></ele><time>2014-9-10T22:23:15Z</time></trkpt>
<trkpt lat="48.12713888" lon="6.41606734"><ele></ele><time>2014-9-10T22:23:18Z</time></trkpt>
<trkpt lat="48.12734633" lon="6.41618829"><ele></ele><time>2014-9-10T22:23:21Z</time></trkpt>
<trkpt lat="48.12792677" lon="6.41634495"><ele></ele><time>2014-9-10T22:23:24Z</time></trkpt>
<trkpt lat="48.12851518" lon="6.41644855"><ele></ele><time>2014-9-10T22:23:27Z</time></trkpt>
<trkpt lat="48.12892104" lon="6.41655207"><ele></ele><time>2014-9-10T22:23:30Z</time></trkpt>
<trkpt lat="48.12910963" lon="6.41660437"><ele></ele><time>2014-9-10T22:23:33Z</time></trkpt>
<trkpt lat="48.12929328" lon="6.41672348"><ele></ele><time>2014-9-10T22:23:36Z</time></trkpt>
<trkpt lat="48.12945588" lon="6.41680679"><ele></ele><time>2014-9-10T22:23:39Z</time></trkpt>
<trkpt lat="48.12974146" lon="6.41698038"><ele></ele><time>2014-9-10T22:23:42Z</time></trkpt>
<trkpt lat="48.12997162" lon="6.41713528"><ele></ele><time>2014-9-10T22:23:45Z</time></trkpt>
<trkpt lat="48.13016508" lon="6.41726076"><ele></ele><time>2014-9-10T22:23:48Z</time></trkpt>
<trkpt lat="48.13042726" lon="6.41742295"><ele></ele><time>2014-9-10T22:23:51Z</time></trkpt>
<trkpt lat="48.13058023" lon="6.41753543"><ele></ele><time>2014-9-10T22:23:54Z</time></trkpt>
<trkpt lat="48.13058468" lon="6.41767943"><ele></ele><time>2014-9-10T22:23:57Z</time></trkpt>
<trkpt lat="48.13053832" lon="6.41784154"><ele></ele><time>2014-9-10T22:24:0Z</time></trkpt>
<trkpt lat="48.13055157" lon="6.41792653"><ele></ele><time>2014-9-10T22:24:3Z</time></trkpt>
<trkpt lat="48.13054964" lon="6.41819266"><ele></ele><time>2014-9-10T22:24:6Z</time></trkpt>
<trkpt lat="48.13055442" lon="6.41847253"><ele></ele><time>2014-9-10T22:24:9Z</time></trkpt>
<trkpt lat="48.13056825" lon="6.41874880"><ele></ele><time>2014-9-10T22:24:12Z</time></trkpt>
<trkpt lat="48.13060697" lon="6.41888115"><ele></ele><time>2014-9-10T22:24:15Z</time></trkpt>
<trkpt lat="48.13057445" lon="6.41900646"><ele></ele><time>2014-9-10T22:24:18Z</time></trkpt>
<trkpt lat="48.13051754" lon="6.41909086"><ele></ele><time>2014-9-10T22:24:21Z</time></trkpt>
<trkpt lat="48.13051988" lon="6.41931835"><ele></ele><time>2014-9-10T22:24:24Z</time></trkpt>
<trkpt lat="48.13053120" lon="6.41970685"><ele></ele><time>2014-9-10T22:24:27Z</time></trkpt>
<trkpt lat="48.13055098" lon="6.41995562"><ele></ele><time>2014-9-10T22:24:30Z</time></trkpt>
<trkpt lat="48.13055458" lon="6.42017892"><ele></ele><time>2014-9-10T22:24:33Z</time></trkpt>
<trkpt lat="48.13059457" lon="6.42040699"><ele></ele><time>2014-9-10T22:24:36Z</time></trkpt>
<trkpt lat="48.13064955" lon="6.42060354"><ele></ele><time>2014-9-10T22:24:39Z</time></trkpt>
<trkpt lat="48.13065994" lon="6.42076045"><ele></ele><time>2014-9-10T22:24:42Z</time></trkpt>
<trkpt lat="48.13065282" lon="6.42099355"><ele></ele><time>2014-9-10T22:24:45Z</time></trkpt>
<trkpt lat="48.13066422" lon="6.42125004"><ele></ele><time>2014-9-10T22:24:48Z</time></trkpt>
<trkpt lat="48.13065668" lon="6.42148457"><ele></ele><time>2014-9-10T22:24:51Z</time></trkpt>
<trkpt lat="48.13061393" lon="6.42170794"><ele></ele><time>2014-9-10T22:24:54Z</time></trkpt>
<trkpt lat="48.13059482" lon="6.42193694"><ele></ele><time>2014-9-10T22:24:57Z</time></trkpt>
<trkpt lat="48.13056297" lon="6.42224623"><ele></ele><time>2014-9-10T22:25:0Z</time></trkpt>
<trkpt lat="48.13053908" lon="6.42247556"><ele></ele><time>2014-9-10T22:25:3Z</time></trkpt>
<trkpt lat="48.13053908" lon="6.42269407"><ele></ele><time>2014-9-10T22:25:6Z</time></trkpt>
<trkpt lat="48.13056758" lon="6.42282634"><ele></ele><time>2014-9-10T22:25:9Z</time></trkpt>
<trkpt lat="48.13068132" lon="6.42294754"><ele></ele><time>2014-9-10T22:25:12Z</time></trkpt>
<trkpt lat="48.13080856" lon="6.42299255"><ele></ele><time>2014-9-10T22:25:15Z</time></trkpt>
<trkpt lat="48.13095432" lon="6.42301410"><ele></ele><time>2014-9-10T22:25:18Z</time></trkpt>
<trkpt lat="48.13109379" lon="6.42302809"><ele></ele><time>2014-9-10T22:25:21Z</time></trkpt>
<trkpt lat="48.13127928" lon="6.42313379"><ele></ele><time>2014-9-10T22:25:24Z</time></trkpt>
<trkpt lat="48.13141398" lon="6.42322062"><ele></ele><time>2014-9-10T22:25:27Z</time></trkpt>
<trkpt lat="48.13160182" lon="6.42334484"><ele></ele><time>2014-9-10T22:25:30Z</time></trkpt>
<trkpt lat="48.13181103" lon="6.42347652"><ele></ele><time>2014-9-10T22:25:33Z</time></trkpt>
<trkpt lat="48.13198923" lon="6.42359790"><ele></ele><time>2014-9-10T22:25:36Z</time></trkpt>
<trkpt lat="48.13214740" lon="6.42370619"><ele></ele><time>2014-9-10T22:25:39Z</time></trkpt>
<trkpt lat="48.13224253" lon="6.42378297"><ele></ele><time>2014-9-10T22:25:42Z</time></trkpt>
<trkpt lat="48.13238192" lon="6.42390819"><ele></ele><time>2014-9-10T22:25:45Z</time></trkpt>
<trkpt lat="48.13255543" lon="6.42401800"><ele></ele><time>2014-9-10T22:25:48Z</time></trkpt>
<trkpt lat="48.13268099" lon="6.42407457"><ele></ele><time>2014-9-10T22:25:51Z</time></trkpt>
<trkpt lat="48.13288249" lon="6.42419527"><ele></ele><time>2014-9-10T22:25:54Z</time></trkpt>
<trkpt lat="48.13301317" lon="6.42425302"><ele></ele><time>2014-9-10T22:25:57Z</time></trkpt>
<trkpt lat="48.13311542" lon="6.42432427"><ele></ele><time>2014-9-10T22:26:0Z</time></trkpt>
<trkpt lat="48.13319908" lon="6.42440876"><ele></ele><time>2014-9-10T22:26:3Z</time></trkpt>
<trkpt lat="48.13330066" lon="6.42446660"><ele></ele><time>2014-9-10T22:26:6Z</time></trkpt>
<trkpt lat="48.13332388" lon="6.42449107"><ele></ele><time>2014-9-10T22:26:9Z</time></trkpt>
<trkpt lat="48.13347392" lon="6.42461965"><ele></ele><time>2014-9-10T22:26:12Z</time></trkpt>
<trkpt lat="48.13349060" lon="6.42463298"><ele></ele><time>2014-9-10T22:26:15Z</time></trkpt>
<trkpt lat="48.13349068" lon="6.42475753"><ele></ele><time>2014-9-10T22:26:18Z</time></trkpt>
<trkpt lat="48.13343234" lon="6.42496456"><ele></ele><time>2014-9-10T22:26:21Z</time></trkpt>
<trkpt lat="48.13347643" lon="6.42511636"><ele></ele><time>2014-9-10T22:26:24Z</time></trkpt>
<trkpt lat="48.13347316" lon="6.42522675"><ele></ele><time>2014-9-10T22:26:27Z</time></trkpt>
<trkpt lat="48.13350233" lon="6.42535047"><ele></ele><time>2014-9-10T22:26:30Z</time></trkpt>
<trkpt lat="48.13356645" lon="6.42546756"><ele></ele><time>2014-9-10T22:26:33Z</time></trkpt>
<trkpt lat="48.13359705" lon="6.42552615"><ele></ele><time>2014-9-10T22:26:36Z</time></trkpt>
<trkpt lat="48.13363787" lon="6.42559455"><ele></ele><time>2014-9-10T22:26:39Z</time></trkpt>
<trkpt lat="48.13368942" lon="6.42567183"><ele></ele><time>2014-9-10T22:26:42Z</time></trkpt>
<trkpt lat="48.13373325" lon="6.42576294"><ele></ele><time>2014-9-10T22:26:45Z</time></trkpt>
<trkpt lat="48.13379117" lon="6.42586176"><ele></ele><time>2014-9-10T22:26:48Z</time></trkpt>
<trkpt lat="48.13384448" lon="6.42594592"><ele></ele><time>2014-9-10T22:26:51Z</time></trkpt>
<trkpt lat="48.13387164" lon="6.42600208"><ele></ele><time>2014-9-10T22:26:54Z</time></trkpt>
<trkpt lat="48.13392956" lon="6.42611808"><ele></ele><time>2014-9-10T22:26:57Z</time></trkpt>
<trkpt lat="48.13396233" lon="6.42619603"><ele></ele><time>2014-9-10T22:27:0Z</time></trkpt>
<trkpt lat="48.13402235" lon="6.42628606"><ele></ele><time>2014-9-10T22:27:3Z</time></trkpt>
<trkpt lat="48.13406543" lon="6.42638530"><ele></ele><time>2014-9-10T22:27:6Z</time></trkpt>
<trkpt lat="48.13414078" lon="6.42652997"><ele></ele><time>2014-9-10T22:27:9Z</time></trkpt>
<trkpt lat="48.13420566" lon="6.42663675"><ele></ele><time>2014-9-10T22:27:12Z</time></trkpt>
<trkpt lat="48.13425084" lon="6.42673357"><ele></ele><time>2014-9-10T22:27:15Z</time></trkpt>
<trkpt lat="48.13430632" lon="6.42685032"><ele></ele><time>2014-9-10T22:27:18Z</time></trkpt>
<trkpt lat="48.13439090" lon="6.42701587"><ele></ele><time>2014-9-10T22:27:21Z</time></trkpt>
<trkpt lat="48.13447815" lon="6.42717814"><ele></ele><time>2014-9-10T22:27:24Z</time></trkpt>
<trkpt lat="48.13457245" lon="6.42733765"><ele></ele><time>2014-9-10T22:27:27Z</time></trkpt>
<trkpt lat="48.13468535" lon="6.42756949"><ele></ele><time>2014-9-10T22:27:30Z</time></trkpt>
<trkpt lat="48.13476356" lon="6.42774040"><ele></ele><time>2014-9-10T22:27:33Z</time></trkpt>
<trkpt lat="48.13484847" lon="6.42791617"><ele></ele><time>2014-9-10T22:27:36Z</time></trkpt>
<trkpt lat="48.13493606" lon="6.42806009"><ele></ele><time>2014-9-10T22:27:39Z</time></trkpt>
<trkpt lat="48.13506095" lon="6.42825505"><ele></ele><time>2014-9-10T22:27:42Z</time></trkpt>
<trkpt lat="48.13517779" lon="6.42841749"><ele></ele><time>2014-9-10T22:27:45Z</time></trkpt>
<trkpt lat="48.13525214" lon="6.42853475"><ele></ele><time>2014-9-10T22:27:48Z</time></trkpt>
<trkpt lat="48.13535507" lon="6.42870080"><ele></ele><time>2014-9-10T22:27:51Z</time></trkpt>
<trkpt lat="48.13544325" lon="6.42882477"><ele></ele><time>2014-9-10T22:27:54Z</time></trkpt>
<trkpt lat="48.13551416" lon="6.42893239"><ele></ele><time>2014-9-10T22:27:57Z</time></trkpt>
<trkpt lat="48.13559513" lon="6.42905703"><ele></ele><time>2014-9-10T22:28:0Z</time></trkpt>
<trkpt lat="48.13573033" lon="6.42925627"><ele></ele><time>2014-9-10T22:28:3Z</time></trkpt>
<trkpt lat="48.13584893" lon="6.42943597"><ele></ele><time>2014-9-10T22:28:6Z</time></trkpt>
<trkpt lat="48.13598698" lon="6.42963538"><ele></ele><time>2014-9-10T22:28:9Z</time></trkpt>
<trkpt lat="48.13609167" lon="6.42979874"><ele></ele><time>2014-9-10T22:28:12Z</time></trkpt>
<trkpt lat="48.13620164" lon="6.42996403"><ele></ele><time>2014-9-10T22:28:15Z</time></trkpt>
<trkpt lat="48.13635017" lon="6.43026779"><ele></ele><time>2014-9-10T22:28:18Z</time></trkpt>
<trkpt lat="48.13646106" lon="6.43059234"><ele></ele><time>2014-9-10T22:28:21Z</time></trkpt>
<trkpt lat="48.13648503" lon="6.43067708"><ele></ele><time>2014-9-10T22:28:24Z</time></trkpt>
<trkpt lat="48.13663364" lon="6.43112266"><ele></ele><time>2014-9-10T22:28:27Z</time></trkpt>
<trkpt lat="48.13669483" lon="6.43132123"><ele></ele><time>2014-9-10T22:28:30Z</time></trkpt>
<trkpt lat="48.13687446" lon="6.43164704"><ele></ele><time>2014-9-10T22:28:33Z</time></trkpt>
<trkpt lat="48.13703824" lon="6.43181308"><ele></ele><time>2014-9-10T22:28:36Z</time></trkpt>
<trkpt lat="48.13730193" lon="6.43211986"><ele></ele><time>2014-9-10T22:28:39Z</time></trkpt>
<trkpt lat="48.13744929" lon="6.43227492"><ele></ele><time>2014-9-10T22:28:42Z</time></trkpt>
<trkpt lat="48.13748114" lon="6.43241063"><ele></ele><time>2014-9-10T22:28:45Z</time></trkpt>
<trkpt lat="48.13752623" lon="6.43246159"><ele></ele><time>2014-9-10T22:28:48Z</time></trkpt>
<trkpt lat="48.13767644" lon="6.43248958"><ele></ele><time>2014-9-10T22:28:51Z</time></trkpt>
<trkpt lat="48.13782807" lon="6.43265563"><ele></ele><time>2014-9-10T22:28:54Z</time></trkpt>
<trkpt lat="48.13785246" lon="6.43269519"><ele></ele><time>2014-9-10T22:28:57Z</time></trkpt>
<trkpt lat="48.13788439" lon="6.43290658"><ele></ele><time>2014-9-10T22:29:0Z</time></trkpt>
<trkpt lat="48.13799587" lon="6.43319484"><ele></ele><time>2014-9-10T22:29:3Z</time></trkpt>
<trkpt lat="48.13813132" lon="6.43344387"><ele></ele><time>2014-9-10T22:29:6Z</time></trkpt>
<trkpt lat="48.13821455" lon="6.43386028"><ele></ele><time>2014-9-10T22:29:9Z</time></trkpt>
<trkpt lat="48.13823425" lon="6.43447610"><ele></ele><time>2014-9-10T22:29:12Z</time></trkpt>
<trkpt lat="48.13823777" lon="6.43459747"><ele></ele><time>2014-9-10T22:29:15Z</time></trkpt>
<trkpt lat="48.13820575" lon="6.43519099"><ele></ele><time>2014-9-10T22:29:18Z</time></trkpt>
<trkpt lat="48.13820249" lon="6.43555879"><ele></ele><time>2014-9-10T22:29:21Z</time></trkpt>
<trkpt lat="48.13826652" lon="6.43602960"><ele></ele><time>2014-9-10T22:29:24Z</time></trkpt>
<trkpt lat="48.13820852" lon="6.43624208"><ele></ele><time>2014-9-10T22:29:27Z</time></trkpt>
<trkpt lat="48.13817047" lon="6.43628005"><ele></ele><time>2014-9-10T22:29:30Z</time></trkpt>
<trkpt lat="48.13790585" lon="6.43653067"><ele></ele><time>2014-9-10T22:29:33Z</time></trkpt>
<trkpt lat="48.13767753" lon="6.43697927"><ele></ele><time>2014-9-10T22:29:36Z</time></trkpt>
<trkpt lat="48.13758616" lon="6.43726316"><ele></ele><time>2014-9-10T22:29:39Z</time></trkpt>
<trkpt lat="48.13751986" lon="6.43778754"><ele></ele><time>2014-9-10T22:29:42Z</time></trkpt>
<trkpt lat="48.13751953" lon="6.43814125"><ele></ele><time>2014-9-10T22:29:45Z</time></trkpt>
<trkpt lat="48.13758105" lon="6.43862279"><ele></ele><time>2014-9-10T22:29:48Z</time></trkpt>
<trkpt lat="48.13764232" lon="6.43924414"><ele></ele><time>2014-9-10T22:29:51Z</time></trkpt>
<trkpt lat="48.13763939" lon="6.43949158"><ele></ele><time>2014-9-10T22:29:54Z</time></trkpt>
<trkpt lat="48.13752707" lon="6.44002005"><ele></ele><time>2014-9-10T22:29:57Z</time></trkpt>
<trkpt lat="48.13753252" lon="6.44021468"><ele></ele><time>2014-9-10T22:30:0Z</time></trkpt>
<trkpt lat="48.13752422" lon="6.44040939"><ele></ele><time>2014-9-10T22:30:3Z</time></trkpt>
<trkpt lat="48.13743152" lon="6.44095799"><ele></ele><time>2014-9-10T22:30:6Z</time></trkpt>
<trkpt lat="48.13741819" lon="6.44104877"><ele></ele><time>2014-9-10T22:30:9Z</time></trkpt>
<trkpt lat="48.13745163" lon="6.44142612"><ele></ele><time>2014-9-10T22:30:12Z</time></trkpt>
<trkpt lat="48.13752883" lon="6.44170775"><ele></ele><time>2014-9-10T22:30:15Z</time></trkpt>
<trkpt lat="48.13759337" lon="6.44189727"><ele></ele><time>2014-9-10T22:30:18Z</time></trkpt>
<trkpt lat="48.13775137" lon="6.44235047"><ele></ele><time>2014-9-10T22:30:21Z</time></trkpt>
<trkpt lat="48.13796394" lon="6.44271609"><ele></ele><time>2014-9-10T22:30:24Z</time></trkpt>
<trkpt lat="48.13828295" lon="6.44310770"><ele></ele><time>2014-9-10T22:30:27Z</time></trkpt>
<trkpt lat="48.13863633" lon="6.44348480"><ele></ele><time>2014-9-10T22:30:30Z</time></trkpt>
<trkpt lat="48.13880866" lon="6.44357407"><ele></ele><time>2014-9-10T22:30:33Z</time></trkpt>
<trkpt lat="48.13894202" lon="6.44350592"><ele></ele><time>2014-9-10T22:30:36Z</time></trkpt>
<trkpt lat="48.13905107" lon="6.44335387"><ele></ele><time>2014-9-10T22:30:39Z</time></trkpt>
<trkpt lat="48.13925140" lon="6.44330040"><ele></ele><time>2014-9-10T22:30:42Z</time></trkpt>
<trkpt lat="48.13941585" lon="6.44339184"><ele></ele><time>2014-9-10T22:30:45Z</time></trkpt>
<trkpt lat="48.13951149" lon="6.44356258"><ele></ele><time>2014-9-10T22:30:48Z</time></trkpt>
<trkpt lat="48.13960260" lon="6.44373198"><ele></ele><time>2014-9-10T22:30:51Z</time></trkpt>
<trkpt lat="48.13961995" lon="6.44376693"><ele></ele><time>2014-9-10T22:30:54Z</time></trkpt>
<trkpt lat="48.13962313" lon="6.44376534"><ele></ele><time>2014-9-10T22:30:57Z</time></trkpt>
<trkpt lat="48.13963998" lon="6.44378915"><ele></ele><time>2014-9-10T22:31:0Z</time></trkpt>
<trkpt lat="48.13964275" lon="6.44379124"><ele></ele><time>2014-9-10T22:31:3Z</time></trkpt>
<trkpt lat="48.13964342" lon="6.44380457"><ele></ele><time>2014-9-10T22:31:6Z</time></trkpt>
<trkpt lat="48.13969245" lon="6.44396064"><ele></ele><time>2014-9-10T22:31:9Z</time></trkpt>
<trkpt lat="48.13977258" lon="6.44422064"><ele></ele><time>2014-9-10T22:31:12Z</time></trkpt>
<trkpt lat="48.13986395" lon="6.44441938"><ele></ele><time>2014-9-10T22:31:15Z</time></trkpt>
<trkpt lat="48.13992622" lon="6.44452524"><ele></ele><time>2014-9-10T22:31:18Z</time></trkpt>
<trkpt lat="48.14011180" lon="6.44487225"><ele></ele><time>2014-9-10T22:31:21Z</time></trkpt>
<trkpt lat="48.14018933" lon="6.44497527"><ele></ele><time>2014-9-10T22:31:24Z</time></trkpt>
<trkpt lat="48.14026259" lon="6.44509354"><ele></ele><time>2014-9-10T22:31:27Z</time></trkpt>
<trkpt lat="48.14048018" lon="6.44537584"><ele></ele><time>2014-9-10T22:31:30Z</time></trkpt>
<trkpt lat="48.14076643" lon="6.44575277"><ele></ele><time>2014-9-10T22:31:33Z</time></trkpt>
<trkpt lat="48.14091939" lon="6.44600565"><ele></ele><time>2014-9-10T22:31:36Z</time></trkpt>
<trkpt lat="48.14103389" lon="6.44617514"><ele></ele><time>2014-9-10T22:31:39Z</time></trkpt>
<trkpt lat="48.14120002" lon="6.44649105"><ele></ele><time>2014-9-10T22:31:42Z</time></trkpt>
<trkpt lat="48.14132164" lon="6.44670630"><ele></ele><time>2014-9-10T22:31:45Z</time></trkpt>
<trkpt lat="48.14145525" lon="6.44694887"><ele></ele><time>2014-9-10T22:31:48Z</time></trkpt>
<trkpt lat="48.14161099" lon="6.44720854"><ele></ele><time>2014-9-10T22:31:51Z</time></trkpt>
<trkpt lat="48.14184367" lon="6.44739663"><ele></ele><time>2014-9-10T22:31:54Z</time></trkpt>
<trkpt lat="48.14188817" lon="6.44741273"><ele></ele><time>2014-9-10T22:31:57Z</time></trkpt>
<trkpt lat="48.14213427" lon="6.44753158"><ele></ele><time>2014-9-10T22:32:0Z</time></trkpt>
<trkpt lat="48.14230618" lon="6.44758673"><ele></ele><time>2014-9-10T22:32:3Z</time></trkpt>
<trkpt lat="48.14260734" lon="6.44762529"><ele></ele><time>2014-9-10T22:32:6Z</time></trkpt>
<trkpt lat="48.14286316" lon="6.44773082"><ele></ele><time>2014-9-10T22:32:9Z</time></trkpt>
<trkpt lat="48.14303708" lon="6.44780835"><ele></ele><time>2014-9-10T22:32:12Z</time></trkpt>
<trkpt lat="48.14324713" lon="6.44771758"><ele></ele><time>2014-9-10T22:32:15Z</time></trkpt>
<trkpt lat="48.14333992" lon="6.44760802"><ele></ele><time>2014-9-10T22:32:18Z</time></trkpt>
<trkpt lat="48.14339616" lon="6.44739186"><ele></ele><time>2014-9-10T22:32:21Z</time></trkpt>
<trkpt lat="48.14339683" lon="6.44733452"><ele></ele><time>2014-9-10T22:32:24Z</time></trkpt>
<trkpt lat="48.14343422" lon="6.44704099"><ele></ele><time>2014-9-10T22:32:27Z</time></trkpt>
<trkpt lat="48.14342122" lon="6.44684066"><ele></ele><time>2014-9-10T22:32:30Z</time></trkpt>
<trkpt lat="48.14341427" lon="6.44678987"><ele></ele><time>2014-9-10T22:32:33Z</time></trkpt>
<trkpt lat="48.14344939" lon="6.44652206"><ele></ele><time>2014-9-10T22:32:36Z</time></trkpt>
<trkpt lat="48.14355148" lon="6.44622845"><ele></ele><time>2014-9-10T22:32:39Z</time></trkpt>
<trkpt lat="48.14371082" lon="6.44612510"><ele></ele><time>2014-9-10T22:32:42Z</time></trkpt>
<trkpt lat="48.14389078" lon="6.44586015"><ele></ele><time>2014-9-10T22:32:45Z</time></trkpt>
<trkpt lat="48.14399195" lon="6.44551154"><ele></ele><time>2014-9-10T22:32:48Z</time></trkpt>
<trkpt lat="48.14399756" lon="6.44535312"><ele></ele><time>2014-9-10T22:32:51Z</time></trkpt>
<trkpt lat="48.14398885" lon="6.44496135"><ele></ele><time>2014-9-10T22:32:54Z</time></trkpt>
<trkpt lat="48.14399304" lon="6.44481258"><ele></ele><time>2014-9-10T22:32:57Z</time></trkpt>
<trkpt lat="48.14394065" lon="6.44453849"><ele></ele><time>2014-9-10T22:33:0Z</time></trkpt>
<trkpt lat="48.14395038" lon="6.44438267"><ele></ele><time>2014-9-10T22:33:3Z</time></trkpt>
<trkpt lat="48.14397493" lon="6.44430094"><ele></ele><time>2014-9-10T22:33:6Z</time></trkpt>
<trkpt lat="48.14408667" lon="6.44428083"><ele></ele><time>2014-9-10T22:33:9Z</time></trkpt>
<trkpt lat="48.14412673" lon="6.44430128"><ele></ele><time>2014-9-10T22:33:12Z</time></trkpt>
<trkpt lat="48.14423787" lon="6.44435878"><ele></ele><time>2014-9-10T22:33:15Z</time></trkpt>
<trkpt lat="48.14457432" lon="6.44454008"><ele></ele><time>2014-9-10T22:33:18Z</time></trkpt>
<trkpt lat="48.14465194" lon="6.44457780"><ele></ele><time>2014-9-10T22:33:21Z</time></trkpt>
<trkpt lat="48.14502854" lon="6.44464393"><ele></ele><time>2014-9-10T22:33:24Z</time></trkpt>
<trkpt lat="48.14509870" lon="6.44465449"><ele></ele><time>2014-9-10T22:33:27Z</time></trkpt>
<trkpt lat="48.14523415" lon="6.44458040"><ele></ele><time>2014-9-10T22:33:30Z</time></trkpt>
<trkpt lat="48.14537228" lon="6.44395393"><ele></ele><time>2014-9-10T22:33:33Z</time></trkpt>
<trkpt lat="48.14548795" lon="6.44351003"><ele></ele><time>2014-9-10T22:33:36Z</time></trkpt>
<trkpt lat="48.14565425" lon="6.44287845"><ele></ele><time>2014-9-10T22:33:39Z</time></trkpt>
<trkpt lat="48.14570856" lon="6.44241694"><ele></ele><time>2014-9-10T22:33:42Z</time></trkpt>
<trkpt lat="48.14569507" lon="6.44196114"><ele></ele><time>2014-9-10T22:33:45Z</time></trkpt>
<trkpt lat="48.14567034" lon="6.44149426"><ele></ele><time>2014-9-10T22:33:48Z</time></trkpt>
<trkpt lat="48.14565383" lon="6.44133534"><ele></ele><time>2014-9-10T22:33:51Z</time></trkpt>
<trkpt lat="48.14572809" lon="6.44101608"><ele></ele><time>2014-9-10T22:33:54Z</time></trkpt>
<trkpt lat="48.14574326" lon="6.44095514"><ele></ele><time>2014-9-10T22:33:57Z</time></trkpt>
<trkpt lat="48.14573413" lon="6.44059338"><ele></ele><time>2014-9-10T22:34:0Z</time></trkpt>
<trkpt lat="48.14570035" lon="6.44048785"><ele></ele><time>2014-9-10T22:34:3Z</time></trkpt>
<trkpt lat="48.14552207" lon="6.44004679"><ele></ele><time>2014-9-10T22:34:6Z</time></trkpt>
<trkpt lat="48.14544730" lon="6.43990036"><ele></ele><time>2014-9-10T22:34:9Z</time></trkpt>
<trkpt lat="48.14523113" lon="6.43971948"><ele></ele><time>2014-9-10T22:34:12Z</time></trkpt>
<trkpt lat="48.14519182" lon="6.43971353"><ele></ele><time>2014-9-10T22:34:15Z</time></trkpt>
<trkpt lat="48.14490214" lon="6.43973582"><ele></ele><time>2014-9-10T22:34:18Z</time></trkpt>
<trkpt lat="48.14477574" lon="6.43975619"><ele></ele><time>2014-9-10T22:34:21Z</time></trkpt>
<trkpt lat="48.14458589" lon="6.43965947"><ele></ele><time>2014-9-10T22:34:24Z</time></trkpt>
<trkpt lat="48.14449679" lon="6.43952016"><ele></ele><time>2014-9-10T22:34:27Z</time></trkpt>
<trkpt lat="48.14442345" lon="6.43935068"><ele></ele><time>2014-9-10T22:34:30Z</time></trkpt>
<trkpt lat="48.14436830" lon="6.43905186"><ele></ele><time>2014-9-10T22:34:33Z</time></trkpt>
<trkpt lat="48.14441297" lon="6.43877425"><ele></ele><time>2014-9-10T22:34:36Z</time></trkpt>
<trkpt lat="48.14443074" lon="6.43872312"><ele></ele><time>2014-9-10T22:34:39Z</time></trkpt>
<trkpt lat="48.14455136" lon="6.43850637"><ele></ele><time>2014-9-10T22:34:42Z</time></trkpt>
<trkpt lat="48.14488144" lon="6.43822943"><ele></ele><time>2014-9-10T22:34:45Z</time></trkpt>
<trkpt lat="48.14523658" lon="6.43799515"><ele></ele><time>2014-9-10T22:34:48Z</time></trkpt>
<trkpt lat="48.14545895" lon="6.43783506"><ele></ele><time>2014-9-10T22:34:51Z</time></trkpt>
<trkpt lat="48.14559474" lon="6.43762417"><ele></ele><time>2014-9-10T22:34:54Z</time></trkpt>
<trkpt lat="48.14570814" lon="6.43716820"><ele></ele><time>2014-9-10T22:34:57Z</time></trkpt>
<trkpt lat="48.14573488" lon="6.43682630"><ele></ele><time>2014-9-10T22:35:0Z</time></trkpt>
<trkpt lat="48.14571166" lon="6.43646579"><ele></ele><time>2014-9-10T22:35:3Z</time></trkpt>
<trkpt lat="48.14568526" lon="6.43632967"><ele></ele><time>2014-9-10T22:35:6Z</time></trkpt>
<trkpt lat="48.14545794" lon="6.43585936"><ele></ele><time>2014-9-10T22:35:9Z</time></trkpt>
<trkpt lat="48.14520154" lon="6.43545837"><ele></ele><time>2014-9-10T22:35:12Z</time></trkpt>
<trkpt lat="48.14506844" lon="6.43514933"><ele></ele><time>2014-9-10T22:35:15Z</time></trkpt>
<trkpt lat="48.14503432" lon="6.43477986"><ele></ele><time>2014-9-10T22:35:18Z</time></trkpt>
<trkpt lat="48.14498277" lon="6.43438532"><ele></ele><time>2014-9-10T22:35:21Z</time></trkpt>
<trkpt lat="48.14497238" lon="6.43431466"><ele></ele><time>2014-9-10T22:35:24Z</time></trkpt>
<trkpt lat="48.14486157" lon="6.43400730"><ele></ele><time>2014-9-10T22:35:27Z</time></trkpt>
<trkpt lat="48.14469418" lon="6.43370639"><ele></ele><time>2014-9-10T22:35:30Z</time></trkpt>
<trkpt lat="48.14437944" lon="6.43332442"><ele></ele><time>2014-9-10T22:35:33Z</time></trkpt>
<trkpt lat="48.14414542" lon="6.43303240"><ele></ele><time>2014-9-10T22:35:36Z</time></trkpt>
<trkpt lat="48.14396169" lon="6.43279159"><ele></ele><time>2014-9-10T22:35:39Z</time></trkpt>
<trkpt lat="48.14385214" lon="6.43255647"><ele></ele><time>2014-9-10T22:35:42Z</time></trkpt>
<trkpt lat="48.14381308" lon="6.43217853"><ele></ele><time>2014-9-10T22:35:45Z</time></trkpt>
<trkpt lat="48.14384007" lon="6.43209823"><ele></ele><time>2014-9-10T22:35:48Z</time></trkpt>
<trkpt lat="48.14385415" lon="6.43208248"><ele></ele><time>2014-9-10T22:35:51Z</time></trkpt>
<trkpt lat="48.14384342" lon="6.43206127"><ele></ele><time>2014-9-10T22:35:54Z</time></trkpt>
<trkpt lat="48.14383269" lon="6.43202472"><ele></ele><time>2014-9-10T22:35:57Z</time></trkpt>
<trkpt lat="48.14385742" lon="6.43189330"><ele></ele><time>2014-9-10T22:36:0Z</time></trkpt>
<trkpt lat="48.14386714" lon="6.43184979"><ele></ele><time>2014-9-10T22:36:3Z</time></trkpt>
<trkpt lat="48.14389212" lon="6.43185826"><ele></ele><time>2014-9-10T22:36:6Z</time></trkpt>
<trkpt lat="48.14389573" lon="6.43185457"><ele></ele><time>2014-9-10T22:36:9Z</time></trkpt>
<trkpt lat="48.14396789" lon="6.43175676"><ele></ele><time>2014-9-10T22:36:12Z</time></trkpt>
<trkpt lat="48.14407493" lon="6.43162047"><ele></ele><time>2014-9-10T22:36:15Z</time></trkpt>
<trkpt lat="48.14414073" lon="6.43155299"><ele></ele><time>2014-9-10T22:36:18Z</time></trkpt>
<trkpt lat="48.14439227" lon="6.43136163"><ele></ele><time>2014-9-10T22:36:21Z</time></trkpt>
<trkpt lat="48.14462084" lon="6.43124412"><ele></ele><time>2014-9-10T22:36:24Z</time></trkpt>
<trkpt lat="48.14469905" lon="6.43124093"><ele></ele><time>2014-9-10T22:36:27Z</time></trkpt>
<trkpt lat="48.14497163" lon="6.43126323"><ele></ele><time>2014-9-10T22:36:30Z</time></trkpt>
<trkpt lat="48.14512535" lon="6.43116684"><ele></ele><time>2014-9-10T22:36:33Z</time></trkpt>
<trkpt lat="48.14525477" lon="6.43098822"><ele></ele><time>2014-9-10T22:36:36Z</time></trkpt>
<trkpt lat="48.14530422" lon="6.43088856"><ele></ele><time>2014-9-10T22:36:39Z</time></trkpt>
<trkpt lat="48.14546918" lon="6.43040350"><ele></ele><time>2014-9-10T22:36:42Z</time></trkpt>
<trkpt lat="48.14558216" lon="6.43013829"><ele></ele><time>2014-9-10T22:36:45Z</time></trkpt>
<trkpt lat="48.14563958" lon="6.42995649"><ele></ele><time>2014-9-10T22:36:48Z</time></trkpt>
<trkpt lat="48.14572038" lon="6.42973873"><ele></ele><time>2014-9-10T22:36:51Z</time></trkpt>
<trkpt lat="48.14584326" lon="6.42936783"><ele></ele><time>2014-9-10T22:36:54Z</time></trkpt>
<trkpt lat="48.14588316" lon="6.42923330"><ele></ele><time>2014-9-10T22:36:57Z</time></trkpt>
<trkpt lat="48.14596765" lon="6.42906164"><ele></ele><time>2014-9-10T22:37:0Z</time></trkpt>
<trkpt lat="48.14614274" lon="6.42895569"><ele></ele><time>2014-9-10T22:37:3Z</time></trkpt>
<trkpt lat="48.14617787" lon="6.42891009"><ele></ele><time>2014-9-10T22:37:6Z</time></trkpt>
<trkpt lat="48.14617828" lon="6.42890037"><ele></ele><time>2014-9-10T22:37:9Z</time></trkpt>
<trkpt lat="48.14618776" lon="6.42887447"><ele></ele><time>2014-9-10T22:37:12Z</time></trkpt>
<trkpt lat="48.14620050" lon="6.42887598"><ele></ele><time>2014-9-10T22:37:15Z</time></trkpt>
<trkpt lat="48.14623319" lon="6.42888922"><ele></ele><time>2014-9-10T22:37:18Z</time></trkpt>
<trkpt lat="48.14629513" lon="6.42891479"><ele></ele><time>2014-9-10T22:37:21Z</time></trkpt>
<trkpt lat="48.14630426" lon="6.42891923"><ele></ele><time>2014-9-10T22:37:24Z</time></trkpt>
<trkpt lat="48.14631105" lon="6.42894479"><ele></ele><time>2014-9-10T22:37:27Z</time></trkpt>
<trkpt lat="48.14630343" lon="6.42895175"><ele></ele><time>2014-9-10T22:37:30Z</time></trkpt>
<trkpt lat="48.14628926" lon="6.42897447"><ele></ele><time>2014-9-10T22:37:33Z</time></trkpt>
<trkpt lat="48.14632589" lon="6.42900347"><ele></ele><time>2014-9-10T22:37:36Z</time></trkpt>
<trkpt lat="48.14643636" lon="6.42911553"><ele></ele><time>2014-9-10T22:37:39Z</time></trkpt>
<trkpt lat="48.14650183" lon="6.42930195"><ele></ele><time>2014-9-10T22:37:42Z</time></trkpt>
<trkpt lat="48.14649847" lon="6.42958366"><ele></ele><time>2014-9-10T22:37:45Z</time></trkpt>
<trkpt lat="48.14648942" lon="6.42970352"><ele></ele><time>2014-9-10T22:37:48Z</time></trkpt>
<trkpt lat="48.14647182" lon="6.42989916"><ele></ele><time>2014-9-10T22:37:51Z</time></trkpt>
<trkpt lat="48.14646109" lon="6.43035790"><ele></ele><time>2014-9-10T22:37:54Z</time></trkpt>
<trkpt lat="48.14646092" lon="6.43049285"><ele></ele><time>2014-9-10T22:37:57Z</time></trkpt>
<trkpt lat="48.14645883" lon="6.43063442"><ele></ele><time>2014-9-10T22:38:0Z</time></trkpt>
<trkpt lat="48.14646076" lon="6.43078295"><ele></ele><time>2014-9-10T22:38:3Z</time></trkpt>
<trkpt lat="48.14646369" lon="6.43099819"><ele></ele><time>2014-9-10T22:38:6Z</time></trkpt>
<trkpt lat="48.14649487" lon="6.43141989"><ele></ele><time>2014-9-10T22:38:9Z</time></trkpt>
<trkpt lat="48.14654558" lon="6.43193915"><ele></ele><time>2014-9-10T22:38:12Z</time></trkpt>
<trkpt lat="48.14655974" lon="6.43237123"><ele></ele><time>2014-9-10T22:38:15Z</time></trkpt>
<trkpt lat="48.14653787" lon="6.43265085"><ele></ele><time>2014-9-10T22:38:18Z</time></trkpt>
<trkpt lat="48.14651725" lon="6.43299703"><ele></ele><time>2014-9-10T22:38:21Z</time></trkpt>
<trkpt lat="48.14651716" lon="6.43333817"><ele></ele><time>2014-9-10T22:38:24Z</time></trkpt>
<trkpt lat="48.14656276" lon="6.43378819"><ele></ele><time>2014-9-10T22:38:27Z</time></trkpt>
<trkpt lat="48.14659067" lon="6.43393932"><ele></ele><time>2014-9-10T22:38:30Z</time></trkpt>
<trkpt lat="48.14668975" lon="6.43422497"><ele></ele><time>2014-9-10T22:38:33Z</time></trkpt>
<trkpt lat="48.14680534" lon="6.43447953"><ele></ele><time>2014-9-10T22:38:36Z</time></trkpt>
<trkpt lat="48.14700935" lon="6.43499837"><ele></ele><time>2014-9-10T22:38:39Z</time></trkpt>
<trkpt lat="48.14715427" lon="6.43549534"><ele></ele><time>2014-9-10T22:38:42Z</time></trkpt>
<trkpt lat="48.14724220" lon="6.43569105"><ele></ele><time>2014-9-10T22:38:45Z</time></trkpt>
<trkpt lat="48.14748863" lon="6.43599909"><ele></ele><time>2014-9-10T22:38:48Z</time></trkpt>
<trkpt lat="48.14757295" lon="6.43609087"><ele></ele><time>2014-9-10T22:38:51Z</time></trkpt>
<trkpt lat="48.14780882" lon="6.43621869"><ele></ele><time>2014-9-10T22:38:54Z</time></trkpt>
<trkpt lat="48.14798106" lon="6.43629598"><ele></ele><time>2014-9-10T22:38:57Z</time></trkpt>
<trkpt lat="48.14805047" lon="6.43646453"><ele></ele><time>2014-9-10T22:39:0Z</time></trkpt>
<trkpt lat="48.14802557" lon="6.43659010"><ele></ele><time>2014-9-10T22:39:3Z</time></trkpt>
<trkpt lat="48.14796455" lon="6.43712176"><ele></ele><time>2014-9-10T22:39:6Z</time></trkpt>
<trkpt lat="48.14795634" lon="6.43727934"><ele></ele><time>2014-9-10T22:39:9Z</time></trkpt>
<trkpt lat="48.14796413" lon="6.43761445"><ele></ele><time>2014-9-10T22:39:12Z</time></trkpt>
<trkpt lat="48.14808735" lon="6.43824284"><ele></ele><time>2014-9-10T22:39:15Z</time></trkpt>
<trkpt lat="48.14821626" lon="6.43875263"><ele></ele><time>2014-9-10T22:39:18Z</time></trkpt>
<trkpt lat="48.14823629" lon="6.43881843"><ele></ele><time>2014-9-10T22:39:21Z</time></trkpt>
<trkpt lat="48.14856780" lon="6.43950356"><ele></ele><time>2014-9-10T22:39:24Z</time></trkpt>
<trkpt lat="48.14887684" lon="6.44015576"><ele></ele><time>2014-9-10T22:39:27Z</time></trkpt>
<trkpt lat="48.14898488" lon="6.44036078"><ele></ele><time>2014-9-10T22:39:30Z</time></trkpt>
<trkpt lat="48.14918865" lon="6.44094525"><ele></ele><time>2014-9-10T22:39:33Z</time></trkpt>
<trkpt lat="48.14931588" lon="6.44150617"><ele></ele><time>2014-9-10T22:39:36Z</time></trkpt>
<trkpt lat="48.14951889" lon="6.44215099"><ele></ele><time>2014-9-10T22:39:39Z</time></trkpt>
<trkpt lat="48.14975115" lon="6.44281098"><ele></ele><time>2014-9-10T22:39:42Z</time></trkpt>
<trkpt lat="48.15001007" lon="6.44352059"><ele></ele><time>2014-9-10T22:39:45Z</time></trkpt>
<trkpt lat="48.15006137" lon="6.44366643"><ele></ele><time>2014-9-10T22:39:48Z</time></trkpt>
<trkpt lat="48.15024686" lon="6.44392275"><ele></ele><time>2014-9-10T22:39:51Z</time></trkpt>
<trkpt lat="48.15043495" lon="6.44391119"><ele></ele><time>2014-9-10T22:39:54Z</time></trkpt>
<trkpt lat="48.15069747" lon="6.44380105"><ele></ele><time>2014-9-10T22:39:57Z</time></trkpt>
<trkpt lat="48.15073988" lon="6.44376886"><ele></ele><time>2014-9-10T22:40:0Z</time></trkpt>
<trkpt lat="48.15074986" lon="6.44372226"><ele></ele><time>2014-9-10T22:40:3Z</time></trkpt>
<trkpt lat="48.15076176" lon="6.44371144"><ele></ele><time>2014-9-10T22:40:6Z</time></trkpt>
<trkpt lat="48.15078942" lon="6.44369133"><ele></ele><time>2014-9-10T22:40:9Z</time></trkpt>
<trkpt lat="48.15087643" lon="6.44356526"><ele></ele><time>2014-9-10T22:40:12Z</time></trkpt>
<trkpt lat="48.15096209" lon="6.44334784"><ele></ele><time>2014-9-10T22:40:15Z</time></trkpt>
<trkpt lat="48.15100785" lon="6.44324189"><ele></ele><time>2014-9-10T22:40:18Z</time></trkpt>
<trkpt lat="48.15113308" lon="6.44278860"><ele></ele><time>2014-9-10T22:40:21Z</time></trkpt>
<trkpt lat="48.15114909" lon="6.44265742"><ele></ele><time>2014-9-10T22:40:24Z</time></trkpt>
<trkpt lat="48.15109704" lon="6.44241435"><ele></ele><time>2014-9-10T22:40:27Z</time></trkpt>
<trkpt lat="48.15091607" lon="6.44194270"><ele></ele><time>2014-9-10T22:40:30Z</time></trkpt>
<trkpt lat="48.15076738" lon="6.44160155"><ele></ele><time>2014-9-10T22:40:33Z</time></trkpt>
<trkpt lat="48.15066344" lon="6.44128664"><ele></ele><time>2014-9-10T22:40:36Z</time></trkpt>
<trkpt lat="48.15059345" lon="6.44068088"><ele></ele><time>2014-9-10T22:40:39Z</time></trkpt>
<trkpt lat="48.15063679" lon="6.44025114"><ele></ele><time>2014-9-10T22:40:42Z</time></trkpt>
<trkpt lat="48.15079143" lon="6.44016624"><ele></ele><time>2014-9-10T22:40:45Z</time></trkpt>
<trkpt lat="48.15087693" lon="6.44020898"><ele></ele><time>2014-9-10T22:40:48Z</time></trkpt>
<trkpt lat="48.15104163" lon="6.44032859"><ele></ele><time>2014-9-10T22:40:51Z</time></trkpt>
<trkpt lat="48.15128320" lon="6.44035969"><ele></ele><time>2014-9-10T22:40:54Z</time></trkpt>
<trkpt lat="48.15138278" lon="6.44020747"><ele></ele><time>2014-9-10T22:40:57Z</time></trkpt>
<trkpt lat="48.15141253" lon="6.44007286"><ele></ele><time>2014-9-10T22:41:0Z</time></trkpt>
<trkpt lat="48.15141773" lon="6.43957129"><ele></ele><time>2014-9-10T22:41:3Z</time></trkpt>
<trkpt lat="48.15166114" lon="6.43936526"><ele></ele><time>2014-9-10T22:41:6Z</time></trkpt>
<trkpt lat="48.15186365" lon="6.43913777"><ele></ele><time>2014-9-10T22:41:9Z</time></trkpt>
<trkpt lat="48.15205014" lon="6.43871206"><ele></ele><time>2014-9-10T22:41:12Z</time></trkpt>
<trkpt lat="48.15218065" lon="6.43827016"><ele></ele><time>2014-9-10T22:41:15Z</time></trkpt>
<trkpt lat="48.15222675" lon="6.43793397"><ele></ele><time>2014-9-10T22:41:18Z</time></trkpt>
<trkpt lat="48.15222709" lon="6.43766047"><ele></ele><time>2014-9-10T22:41:21Z</time></trkpt>
<trkpt lat="48.15220320" lon="6.43731815"><ele></ele><time>2014-9-10T22:41:24Z</time></trkpt>
<trkpt lat="48.15222239" lon="6.43716778"><ele></ele><time>2014-9-10T22:41:27Z</time></trkpt>
<trkpt lat="48.15231233" lon="6.43691699"><ele></ele><time>2014-9-10T22:41:30Z</time></trkpt>
<trkpt lat="48.15250805" lon="6.43644769"><ele></ele><time>2014-9-10T22:41:33Z</time></trkpt>
<trkpt lat="48.15261869" lon="6.43613496"><ele></ele><time>2014-9-10T22:41:36Z</time></trkpt>
<trkpt lat="48.15268918" lon="6.43579432"><ele></ele><time>2014-9-10T22:41:39Z</time></trkpt>
<trkpt lat="48.15270443" lon="6.43572785"><ele></ele><time>2014-9-10T22:41:42Z</time></trkpt>
<trkpt lat="48.15274567" lon="6.43535343"><ele></ele><time>2014-9-10T22:41:45Z</time></trkpt>
<trkpt lat="48.15279555" lon="6.43504967"><ele></ele><time>2014-9-10T22:41:48Z</time></trkpt>
<trkpt lat="48.15282404" lon="6.43477793"><ele></ele><time>2014-9-10T22:41:51Z</time></trkpt>
<trkpt lat="48.15289915" lon="6.43433629"><ele></ele><time>2014-9-10T22:41:54Z</time></trkpt>
<trkpt lat="48.15294810" lon="6.43403563"><ele></ele><time>2014-9-10T22:41:57Z</time></trkpt>
<trkpt lat="48.15300509" lon="6.43348033"><ele></ele><time>2014-9-10T22:42:0Z</time></trkpt>
<trkpt lat="48.15301515" lon="6.43321428"><ele></ele><time>2014-9-10T22:42:3Z</time></trkpt>
<trkpt lat="48.15308699" lon="6.43295906"><ele></ele><time>2014-9-10T22:42:6Z</time></trkpt>
<trkpt lat="48.15316787" lon="6.43272285"><ele></ele><time>2014-9-10T22:42:9Z</time></trkpt>
<trkpt lat="48.15317147" lon="6.43241934"><ele></ele><time>2014-9-10T22:42:12Z</time></trkpt>
<trkpt lat="48.15317290" lon="6.43211248"><ele></ele><time>2014-9-10T22:42:15Z</time></trkpt>
<trkpt lat="48.15319142" lon="6.43181778"><ele></ele><time>2014-9-10T22:42:18Z</time></trkpt>
<trkpt lat="48.15325068" lon="6.43172574"><ele></ele><time>2014-9-10T22:42:21Z</time></trkpt>
<trkpt lat="48.15340214" lon="6.43166095"><ele></ele><time>2014-9-10T22:42:24Z</time></trkpt>
<trkpt lat="48.15353877" lon="6.43161736"><ele></ele><time>2014-9-10T22:42:27Z</time></trkpt>
<trkpt lat="48.15367548" lon="6.43158384"><ele></ele><time>2014-9-10T22:42:30Z</time></trkpt>
<trkpt lat="48.15377464" lon="6.43151502"><ele></ele><time>2014-9-10T22:42:33Z</time></trkpt>
<trkpt lat="48.15395283" lon="6.43143808"><ele></ele><time>2014-9-10T22:42:36Z</time></trkpt>
<trkpt lat="48.15416817" lon="6.43129449"><ele></ele><time>2014-9-10T22:42:39Z</time></trkpt>
<trkpt lat="48.15432273" lon="6.43120875"><ele></ele><time>2014-9-10T22:42:42Z</time></trkpt>
<trkpt lat="48.15446807" lon="6.43114387"><ele></ele><time>2014-9-10T22:42:45Z</time></trkpt>
<trkpt lat="48.15462632" lon="6.43108453"><ele></ele><time>2014-9-10T22:42:48Z</time></trkpt>
<trkpt lat="48.15477653" lon="6.43099099"><ele></ele><time>2014-9-10T22:42:51Z</time></trkpt>
<trkpt lat="48.15492539" lon="6.43090457"><ele></ele><time>2014-9-10T22:42:54Z</time></trkpt>
<trkpt lat="48.15505564" lon="6.43089258"><ele></ele><time>2014-9-10T22:42:57Z</time></trkpt>
<trkpt lat="48.15517416" lon="6.43087615"><ele></ele><time>2014-9-10T22:43:0Z</time></trkpt>
<trkpt lat="48.15530115" lon="6.43089267"><ele></ele><time>2014-9-10T22:43:3Z</time></trkpt>
<trkpt lat="48.15542135" lon="6.43090918"><ele></ele><time>2014-9-10T22:43:6Z</time></trkpt>
<trkpt lat="48.15554506" lon="6.43088805"><ele></ele><time>2014-9-10T22:43:9Z</time></trkpt>
<trkpt lat="48.15565554" lon="6.43087196"><ele></ele><time>2014-9-10T22:43:12Z</time></trkpt>
<trkpt lat="48.15578939" lon="6.43087632"><ele></ele><time>2014-9-10T22:43:15Z</time></trkpt>
<trkpt lat="48.15588738" lon="6.43088847"><ele></ele><time>2014-9-10T22:43:18Z</time></trkpt>
<trkpt lat="48.15598796" lon="6.43085562"><ele></ele><time>2014-9-10T22:43:21Z</time></trkpt>
<trkpt lat="48.15609575" lon="6.43082284"><ele></ele><time>2014-9-10T22:43:24Z</time></trkpt>
<trkpt lat="48.15619416" lon="6.43078512"><ele></ele><time>2014-9-10T22:43:27Z</time></trkpt>
<trkpt lat="48.15622576" lon="6.43078102"><ele></ele><time>2014-9-10T22:43:30Z</time></trkpt>
<trkpt lat="48.15622735" lon="6.43078253"><ele></ele><time>2014-9-10T22:43:33Z</time></trkpt>
<trkpt lat="48.15622777" lon="6.43078295"><ele></ele><time>2014-9-10T22:43:36Z</time></trkpt>
<trkpt lat="48.15621679" lon="6.43076015"><ele></ele><time>2014-9-10T22:43:39Z</time></trkpt>
<trkpt lat="48.15622089" lon="6.43074908"><ele></ele><time>2014-9-10T22:43:42Z</time></trkpt>
<trkpt lat="48.15622903" lon="6.43073995"><ele></ele><time>2014-9-10T22:43:45Z</time></trkpt>
<trkpt lat="48.15623146" lon="6.43074187"><ele></ele><time>2014-9-10T22:43:48Z</time></trkpt>
<trkpt lat="48.15623565" lon="6.43074489"><ele></ele><time>2014-9-10T22:43:51Z</time></trkpt>
<trkpt lat="48.15625317" lon="6.43073425"><ele></ele><time>2014-9-10T22:43:54Z</time></trkpt>
<trkpt lat="48.15630086" lon="6.43067960"><ele></ele><time>2014-9-10T22:43:57Z</time></trkpt>
<trkpt lat="48.15631812" lon="6.43059377"><ele></ele><time>2014-9-10T22:44:0Z</time></trkpt>
<trkpt lat="48.15631854" lon="6.43053174"><ele></ele><time>2014-9-10T22:44:3Z</time></trkpt>
<trkpt lat="48.15632114" lon="6.43052185"><ele></ele><time>2014-9-10T22:44:6Z</time></trkpt>
<trkpt lat="48.15632039" lon="6.43049662"><ele></ele><time>2014-9-10T22:44:9Z</time></trkpt>
<trkpt lat="48.15632986" lon="6.43043979"><ele></ele><time>2014-9-10T22:44:12Z</time></trkpt>
<trkpt lat="48.15633187" lon="6.43042839"><ele></ele><time>2014-9-10T22:44:15Z</time></trkpt>
<trkpt lat="48.15634034" lon="6.43041087"><ele></ele><time>2014-9-10T22:44:18Z</time></trkpt>
<trkpt lat="48.15637227" lon="6.43038883"><ele></ele><time>2014-9-10T22:44:21Z</time></trkpt>
<trkpt lat="48.15639415" lon="6.43036804"><ele></ele><time>2014-9-10T22:44:24Z</time></trkpt>
<trkpt lat="48.15640286" lon="6.43035555"><ele></ele><time>2014-9-10T22:44:27Z</time></trkpt>
<trkpt lat="48.15646280" lon="6.43031004"><ele></ele><time>2014-9-10T22:44:30Z</time></trkpt>
<trkpt lat="48.15660638" lon="6.43024206"><ele></ele><time>2014-9-10T22:44:33Z</time></trkpt>
<trkpt lat="48.15675524" lon="6.43020636"><ele></ele><time>2014-9-10T22:44:36Z</time></trkpt>
<trkpt lat="48.15687996" lon="6.43015296"><ele></ele><time>2014-9-10T22:44:39Z</time></trkpt>
<trkpt lat="48.15703319" lon="6.43008624"><ele></ele><time>2014-9-10T22:44:42Z</time></trkpt>
<trkpt lat="48.15723058" lon="6.42993889"><ele></ele><time>2014-9-10T22:44:45Z</time></trkpt>
<trkpt lat="48.15741506" lon="6.42977687"><ele></ele><time>2014-9-10T22:44:48Z</time></trkpt>
<trkpt lat="48.15756292" lon="6.42958785"><ele></ele><time>2014-9-10T22:44:51Z</time></trkpt>
<trkpt lat="48.15764054" lon="6.42938828"><ele></ele><time>2014-9-10T22:44:54Z</time></trkpt>
<trkpt lat="48.15770273" lon="6.42907379"><ele></ele><time>2014-9-10T22:44:57Z</time></trkpt>
<trkpt lat="48.15770558" lon="6.42881035"><ele></ele><time>2014-9-10T22:45:0Z</time></trkpt>
<trkpt lat="48.15766719" lon="6.42859552"><ele></ele><time>2014-9-10T22:45:3Z</time></trkpt>
<trkpt lat="48.15766074" lon="6.42856652"><ele></ele><time>2014-9-10T22:45:6Z</time></trkpt>
<trkpt lat="48.15762227" lon="6.42846786"><ele></ele><time>2014-9-10T22:45:9Z</time></trkpt>
<trkpt lat="48.15754524" lon="6.42823527"><ele></ele><time>2014-9-10T22:45:12Z</time></trkpt>
<trkpt lat="48.15750592" lon="6.42807685"><ele></ele><time>2014-9-10T22:45:15Z</time></trkpt>
<trkpt lat="48.15748849" lon="6.42781709"><ele></ele><time>2014-9-10T22:45:18Z</time></trkpt>
<trkpt lat="48.15752948" lon="6.42760143"><ele></ele><time>2014-9-10T22:45:21Z</time></trkpt>
<trkpt lat="48.15763065" lon="6.42747436"><ele></ele><time>2014-9-10T22:45:24Z</time></trkpt>
<trkpt lat="48.15774774" lon="6.42748794"><ele></ele><time>2014-9-10T22:45:27Z</time></trkpt>
<trkpt lat="48.15779535" lon="6.42758458"><ele></ele><time>2014-9-10T22:45:30Z</time></trkpt>
<trkpt lat="48.15785126" lon="6.42774099"><ele></ele><time>2014-9-10T22:45:33Z</time></trkpt>
<trkpt lat="48.15787992" lon="6.42777359"><ele></ele><time>2014-9-10T22:45:36Z</time></trkpt>
<trkpt lat="48.15803063" lon="6.42792564"><ele></ele><time>2014-9-10T22:45:39Z</time></trkpt>
<trkpt lat="48.15816902" lon="6.42805858"><ele></ele><time>2014-9-10T22:45:42Z</time></trkpt>
<trkpt lat="48.15823582" lon="6.42819503"><ele></ele><time>2014-9-10T22:45:45Z</time></trkpt>
<trkpt lat="48.15827513" lon="6.42838639"><ele></ele><time>2014-9-10T22:45:48Z</time></trkpt>
<trkpt lat="48.15827899" lon="6.42846543"><ele></ele><time>2014-9-10T22:45:51Z</time></trkpt>
<trkpt lat="48.15831444" lon="6.42864782"><ele></ele><time>2014-9-10T22:45:54Z</time></trkpt>
<trkpt lat="48.15840866" lon="6.42884346"><ele></ele><time>2014-9-10T22:45:57Z</time></trkpt>
<trkpt lat="48.15855534" lon="6.42891387"><ele></ele><time>2014-9-10T22:46:0Z</time></trkpt>
<trkpt lat="48.15868727" lon="6.42885000"><ele></ele><time>2014-9-10T22:46:3Z</time></trkpt>
<trkpt lat="48.15883035" lon="6.42870893"><ele></ele><time>2014-9-10T22:46:6Z</time></trkpt>
<trkpt lat="48.15900452" lon="6.42854204"><ele></ele><time>2014-9-10T22:46:9Z</time></trkpt>
<trkpt lat="48.15923553" lon="6.42829042"><ele></ele><time>2014-9-10T22:46:12Z</time></trkpt>
<trkpt lat="48.15936243" lon="6.42817559"><ele></ele><time>2014-9-10T22:46:15Z</time></trkpt>
<trkpt lat="48.15950274" lon="6.42798565"><ele></ele><time>2014-9-10T22:46:18Z</time></trkpt>
<trkpt lat="48.15973358" lon="6.42773202"><ele></ele><time>2014-9-10T22:46:21Z</time></trkpt>
<trkpt lat="48.15983232" lon="6.42761853"><ele></ele><time>2014-9-10T22:46:24Z</time></trkpt>
<trkpt lat="48.15992159" lon="6.42731393"><ele></ele><time>2014-9-10T22:46:27Z</time></trkpt>
<trkpt lat="48.15987892" lon="6.42711846"><ele></ele><time>2014-9-10T22:46:30Z</time></trkpt>
<trkpt lat="48.15981514" lon="6.42687480"><ele></ele><time>2014-9-10T22:46:33Z</time></trkpt>
<trkpt lat="48.15959687" lon="6.42644824"><ele></ele><time>2014-9-10T22:46:36Z</time></trkpt>
<trkpt lat="48.15928356" lon="6.42612085"><ele></ele><time>2014-9-10T22:46:39Z</time></trkpt>
<trkpt lat="48.15895189" lon="6.42570837"><ele></ele><time>2014-9-10T22:46:42Z</time></trkpt>
<trkpt lat="48.15892179" lon="6.42565616"><ele></ele><time>2014-9-10T22:46:45Z</time></trkpt>
<trkpt lat="48.15888232" lon="6.42541132"><ele></ele><time>2014-9-10T22:46:48Z</time></trkpt>
<trkpt lat="48.15893990" lon="6.42513505"><ele></ele><time>2014-9-10T22:46:51Z</time></trkpt>
<trkpt lat="48.15895398" lon="6.42496138"><ele></ele><time>2014-9-10T22:46:54Z</time></trkpt>
<trkpt lat="48.15899212" lon="6.42434665"><ele></ele><time>2014-9-10T22:46:57Z</time></trkpt>
<trkpt lat="48.15903319" lon="6.42382328"><ele></ele><time>2014-9-10T22:47:0Z</time></trkpt>
<trkpt lat="48.15913394" lon="6.42327519"><ele></ele><time>2014-9-10T22:47:3Z</time></trkpt>
<trkpt lat="48.15921642" lon="6.42253029"><ele></ele><time>2014-9-10T22:47:6Z</time></trkpt>
<trkpt lat="48.15924358" lon="6.42197994"><ele></ele><time>2014-9-10T22:47:9Z</time></trkpt>
<trkpt lat="48.15929177" lon="6.42152463"><ele></ele><time>2014-9-10T22:47:12Z</time></trkpt>
<trkpt lat="48.15939294" lon="6.42121299"><ele></ele><time>2014-9-10T22:47:15Z</time></trkpt>
<trkpt lat="48.15947928" lon="6.42107025"><ele></ele><time>2014-9-10T22:47:18Z</time></trkpt>
<trkpt lat="48.15974205" lon="6.42060304"><ele></ele><time>2014-9-10T22:47:21Z</time></trkpt>
<trkpt lat="48.15984389" lon="6.42040330"><ele></ele><time>2014-9-10T22:47:24Z</time></trkpt>
<trkpt lat="48.15994682" lon="6.42004782"><ele></ele><time>2014-9-10T22:47:27Z</time></trkpt>
<trkpt lat="48.15998864" lon="6.41948406"><ele></ele><time>2014-9-10T22:47:30Z</time></trkpt>
<trkpt lat="48.16001044" lon="6.41878719"><ele></ele><time>2014-9-10T22:47:33Z</time></trkpt>
<trkpt lat="48.16002628" lon="6.41866984"><ele></ele><time>2014-9-10T22:47:36Z</time></trkpt>
<trkpt lat="48.16022049" lon="6.41823792"><ele></ele><time>2014-9-10T22:47:39Z</time></trkpt>
<trkpt lat="48.16045946" lon="6.41772293"><ele></ele><time>2014-9-10T22:47:42Z</time></trkpt>
<trkpt lat="48.16071024" lon="6.41723268"><ele></ele><time>2014-9-10T22:47:45Z</time></trkpt>
<trkpt lat="48.16087838" lon="6.41692129"><ele></ele><time>2014-9-10T22:47:48Z</time></trkpt>
<trkpt lat="48.16113755" lon="6.41661703"><ele></ele><time>2014-9-10T22:47:51Z</time></trkpt>
<trkpt lat="48.16119363" lon="6.41654989"><ele></ele><time>2014-9-10T22:47:54Z</time></trkpt>
<trkpt lat="48.16157693" lon="6.41614823"><ele></ele><time>2014-9-10T22:47:57Z</time></trkpt>
<trkpt lat="48.16190936" lon="6.41588177"><ele></ele><time>2014-9-10T22:48:0Z</time></trkpt>
<trkpt lat="48.16223449" lon="6.41554490"><ele></ele><time>2014-9-10T22:48:3Z</time></trkpt>
<trkpt lat="48.16241370" lon="6.41531993"><ele></ele><time>2014-9-10T22:48:6Z</time></trkpt>
<trkpt lat="48.16278183" lon="6.41497518"><ele></ele><time>2014-9-10T22:48:9Z</time></trkpt>
<trkpt lat="48.16305173" lon="6.41480645"><ele></ele><time>2014-9-10T22:48:12Z</time></trkpt>
<trkpt lat="48.16344618" lon="6.41461627"><ele></ele><time>2014-9-10T22:48:15Z</time></trkpt>
<trkpt lat="48.16353813" lon="6.41460512"><ele></ele><time>2014-9-10T22:48:18Z</time></trkpt>
<trkpt lat="48.16388866" lon="6.41457972"><ele></ele><time>2014-9-10T22:48:21Z</time></trkpt>
<trkpt lat="48.16429015" lon="6.41469028"><ele></ele><time>2014-9-10T22:48:24Z</time></trkpt>
<trkpt lat="48.16459492" lon="6.41485758"><ele></ele><time>2014-9-10T22:48:27Z</time></trkpt>
<trkpt lat="48.16475334" lon="6.41493394"><ele></ele><time>2014-9-10T22:48:30Z</time></trkpt>
<trkpt lat="48.16508903" lon="6.41525572"><ele></ele><time>2014-9-10T22:48:33Z</time></trkpt>
<trkpt lat="48.16537703" lon="6.41563769"><ele></ele><time>2014-9-10T22:48:36Z</time></trkpt>
<trkpt lat="48.16543252" lon="6.41571329"><ele></ele><time>2014-9-10T22:48:39Z</time></trkpt>
<trkpt lat="48.16561148" lon="6.41590373"><ele></ele><time>2014-9-10T22:48:42Z</time></trkpt>
<trkpt lat="48.16578054" lon="6.41612769"><ele></ele><time>2014-9-10T22:48:45Z</time></trkpt>
<trkpt lat="48.16582027" lon="6.41619558"><ele></ele><time>2014-9-10T22:48:48Z</time></trkpt>
<trkpt lat="48.16588883" lon="6.41625334"><ele></ele><time>2014-9-10T22:48:51Z</time></trkpt>
<trkpt lat="48.16589110" lon="6.41625443"><ele></ele><time>2014-9-10T22:48:54Z</time></trkpt>
<trkpt lat="48.16590560" lon="6.41625560"><ele></ele><time>2014-9-10T22:48:57Z</time></trkpt>
<trkpt lat="48.16590954" lon="6.41626105"><ele></ele><time>2014-9-10T22:49:0Z</time></trkpt>
<trkpt lat="48.16593946" lon="6.41630237"><ele></ele><time>2014-9-10T22:49:3Z</time></trkpt>
<trkpt lat="48.16596620" lon="6.41638225"><ele></ele><time>2014-9-10T22:49:6Z</time></trkpt>
<trkpt lat="48.16605337" lon="6.41647554"><ele></ele><time>2014-9-10T22:49:9Z</time></trkpt>
<trkpt lat="48.16606494" lon="6.41649717"><ele></ele><time>2014-9-10T22:49:12Z</time></trkpt>
<trkpt lat="48.16616435" lon="6.41659884"><ele></ele><time>2014-9-10T22:49:15Z</time></trkpt>
<trkpt lat="48.16622025" lon="6.41663773"><ele></ele><time>2014-9-10T22:49:18Z</time></trkpt>
<trkpt lat="48.16637892" lon="6.41680956"><ele></ele><time>2014-9-10T22:49:21Z</time></trkpt>
<trkpt lat="48.16642553" lon="6.41691408"><ele></ele><time>2014-9-10T22:49:24Z</time></trkpt>
<trkpt lat="48.16651789" lon="6.41701877"><ele></ele><time>2014-9-10T22:49:27Z</time></trkpt>
<trkpt lat="48.16672962" lon="6.41728649"><ele></ele><time>2014-9-10T22:49:30Z</time></trkpt>
<trkpt lat="48.16690304" lon="6.41754742"><ele></ele><time>2014-9-10T22:49:33Z</time></trkpt>
<trkpt lat="48.16717437" lon="6.41789912"><ele></ele><time>2014-9-10T22:49:36Z</time></trkpt>
<trkpt lat="48.16721234" lon="6.41795905"><ele></ele><time>2014-9-10T22:49:39Z</time></trkpt>
<trkpt lat="48.16730554" lon="6.41809207"><ele></ele><time>2014-9-10T22:49:42Z</time></trkpt>
<trkpt lat="48.16733932" lon="6.41817950"><ele></ele><time>2014-9-10T22:49:45Z</time></trkpt>
<trkpt lat="48.16743487" lon="6.41828159"><ele></ele><time>2014-9-10T22:49:48Z</time></trkpt>
<trkpt lat="48.16758659" lon="6.41846214"><ele></ele><time>2014-9-10T22:49:51Z</time></trkpt>
<trkpt lat="48.16761752" lon="6.41848929"><ele></ele><time>2014-9-10T22:49:54Z</time></trkpt>
<trkpt lat="48.16772707" lon="6.41861670"><ele></ele><time>2014-9-10T22:49:57Z</time></trkpt>
<trkpt lat="48.16788222" lon="6.41880286"><ele></ele><time>2014-9-10T22:50:0Z</time></trkpt>
<trkpt lat="48.16801256" lon="6.41891040"><ele></ele><time>2014-9-10T22:50:3Z</time></trkpt>
<trkpt lat="48.16819352" lon="6.41910855"><ele></ele><time>2014-9-10T22:50:6Z</time></trkpt>
<trkpt lat="48.16830978" lon="6.41928339"><ele></ele><time>2014-9-10T22:50:9Z</time></trkpt>
<trkpt lat="48.16841246" lon="6.41941407"><ele></ele><time>2014-9-10T22:50:12Z</time></trkpt>
<trkpt lat="48.16859577" lon="6.41960668"><ele></ele><time>2014-9-10T22:50:15Z</time></trkpt>
<trkpt lat="48.16868923" lon="6.41971665"><ele></ele><time>2014-9-10T22:50:18Z</time></trkpt>
<trkpt lat="48.16884345" lon="6.41970534"><ele></ele><time>2014-9-10T22:50:21Z</time></trkpt>
<trkpt lat="48.16891545" lon="6.41953024"><ele></ele><time>2014-9-10T22:50:24Z</time></trkpt>
<trkpt lat="48.16894286" lon="6.41924475"><ele></ele><time>2014-9-10T22:50:27Z</time></trkpt>
<trkpt lat="48.16904688" lon="6.41912967"><ele></ele><time>2014-9-10T22:50:30Z</time></trkpt>
<trkpt lat="48.16919658" lon="6.41913705"><ele></ele><time>2014-9-10T22:50:33Z</time></trkpt>
<trkpt lat="48.16922450" lon="6.41915155"><ele></ele><time>2014-9-10T22:50:36Z</time></trkpt>
<trkpt lat="48.16948442" lon="6.41925179"><ele></ele><time>2014-9-10T22:50:39Z</time></trkpt>
<trkpt lat="48.16952792" lon="6.41920016"><ele></ele><time>2014-9-10T22:50:42Z</time></trkpt>
<trkpt lat="48.16946707" lon="6.41906153"><ele></ele><time>2014-9-10T22:50:45Z</time></trkpt>
<trkpt lat="48.16921310" lon="6.41881937"><ele></ele><time>2014-9-10T22:50:48Z</time></trkpt>
<trkpt lat="48.16897790" lon="6.41862416"><ele></ele><time>2014-9-10T22:50:51Z</time></trkpt>
<trkpt lat="48.16883147" lon="6.41848653"><ele></ele><time>2014-9-10T22:50:54Z</time></trkpt>
<trkpt lat="48.16870616" lon="6.41836558"><ele></ele><time>2014-9-10T22:50:57Z</time></trkpt>
<trkpt lat="48.16854154" lon="6.41821110"><ele></ele><time>2014-9-10T22:51:0Z</time></trkpt>
<trkpt lat="48.16833300" lon="6.41800063"><ele></ele><time>2014-9-10T22:51:3Z</time></trkpt>
<trkpt lat="48.16812194" lon="6.41774339"><ele></ele><time>2014-9-10T22:51:6Z</time></trkpt>
<trkpt lat="48.16793217" lon="6.41748548"><ele></ele><time>2014-9-10T22:51:9Z</time></trkpt>
<trkpt lat="48.16776269" lon="6.41722463"><ele></ele><time>2014-9-10T22:51:12Z</time></trkpt>
<trkpt lat="48.16756354" lon="6.41687879"><ele></ele><time>2014-9-10T22:51:15Z</time></trkpt>
<trkpt lat="48.16737645" lon="6.41650236"><ele></ele><time>2014-9-10T22:51:18Z</time></trkpt>
<trkpt lat="48.16721845" lon="6.41621277"><ele></ele><time>2014-9-10T22:51:21Z</time></trkpt>
<trkpt lat="48.16701846" lon="6.41584539"><ele></ele><time>2014-9-10T22:51:24Z</time></trkpt>
<trkpt lat="48.16676633" lon="6.41545303"><ele></ele><time>2014-9-10T22:51:27Z</time></trkpt>
<trkpt lat="48.16647423" lon="6.41499840"><ele></ele><time>2014-9-10T22:51:30Z</time></trkpt>
<trkpt lat="48.16626593" lon="6.41467637"><ele></ele><time>2014-9-10T22:51:33Z</time></trkpt>
<trkpt lat="48.16600325" lon="6.41428342"><ele></ele><time>2014-9-10T22:51:36Z</time></trkpt>
<trkpt lat="48.16569647" lon="6.41384773"><ele></ele><time>2014-9-10T22:51:39Z</time></trkpt>
<trkpt lat="48.16543948" lon="6.41348798"><ele></ele><time>2014-9-10T22:51:42Z</time></trkpt>
<trkpt lat="48.16518752" lon="6.41308330"><ele></ele><time>2014-9-10T22:51:45Z</time></trkpt>
<trkpt lat="48.16490924" lon="6.41268306"><ele></ele><time>2014-9-10T22:51:48Z</time></trkpt>
<trkpt lat="48.16476474" lon="6.41249942"><ele></ele><time>2014-9-10T22:51:51Z</time></trkpt>
<trkpt lat="48.16468536" lon="6.41238408"><ele></ele><time>2014-9-10T22:51:54Z</time></trkpt>
<trkpt lat="48.16450800" lon="6.41216582"><ele></ele><time>2014-9-10T22:51:57Z</time></trkpt>
<trkpt lat="48.16435117" lon="6.41188620"><ele></ele><time>2014-9-10T22:52:0Z</time></trkpt>
<trkpt lat="48.16420348" lon="6.41154598"><ele></ele><time>2014-9-10T22:52:3Z</time></trkpt>
<trkpt lat="48.16404842" lon="6.41128002"><ele></ele><time>2014-9-10T22:52:6Z</time></trkpt>
<trkpt lat="48.16388103" lon="6.41101272"><ele></ele><time>2014-9-10T22:52:9Z</time></trkpt>
<trkpt lat="48.16378196" lon="6.41086008"><ele></ele><time>2014-9-10T22:52:12Z</time></trkpt>
<trkpt lat="48.16361876" lon="6.41065029"><ele></ele><time>2014-9-10T22:52:15Z</time></trkpt>
<trkpt lat="48.16340787" lon="6.41032079"><ele></ele><time>2014-9-10T22:52:18Z</time></trkpt>
<trkpt lat="48.16328776" lon="6.41006229"><ele></ele><time>2014-9-10T22:52:21Z</time></trkpt>
<trkpt lat="48.16318466" lon="6.40977127"><ele></ele><time>2014-9-10T22:52:24Z</time></trkpt>
<trkpt lat="48.16304913" lon="6.40936073"><ele></ele><time>2014-9-10T22:52:27Z</time></trkpt>
<trkpt lat="48.16298484" lon="6.40918907"><ele></ele><time>2014-9-10T22:52:30Z</time></trkpt>
<trkpt lat="48.16293455" lon="6.40900685"><ele></ele><time>2014-9-10T22:52:33Z</time></trkpt>
<trkpt lat="48.16276817" lon="6.40867073"><ele></ele><time>2014-9-10T22:52:36Z</time></trkpt>
<trkpt lat="48.16257832" lon="6.40844576"><ele></ele><time>2014-9-10T22:52:39Z</time></trkpt>
<trkpt lat="48.16237816" lon="6.40820906"><ele></ele><time>2014-9-10T22:52:42Z</time></trkpt>
<trkpt lat="48.16219753" lon="6.40795173"><ele></ele><time>2014-9-10T22:52:45Z</time></trkpt>
<trkpt lat="48.16207373" lon="6.40768586"><ele></ele><time>2014-9-10T22:52:48Z</time></trkpt>
<trkpt lat="48.16193593" lon="6.40739517"><ele></ele><time>2014-9-10T22:52:51Z</time></trkpt>
<trkpt lat="48.16179176" lon="6.40711228"><ele></ele><time>2014-9-10T22:52:54Z</time></trkpt>
<trkpt lat="48.16170853" lon="6.40694029"><ele></ele><time>2014-9-10T22:52:57Z</time></trkpt>
<trkpt lat="48.16165363" lon="6.40683736"><ele></ele><time>2014-9-10T22:53:0Z</time></trkpt>
<trkpt lat="48.16153469" lon="6.40657098"><ele></ele><time>2014-9-10T22:53:3Z</time></trkpt>
<trkpt lat="48.16138733" lon="6.40620628"><ele></ele><time>2014-9-10T22:53:6Z</time></trkpt>
<trkpt lat="48.16131240" lon="6.40586305"><ele></ele><time>2014-9-10T22:53:9Z</time></trkpt>
<trkpt lat="48.16130653" lon="6.40553883"><ele></ele><time>2014-9-10T22:53:12Z</time></trkpt>
<trkpt lat="48.16131583" lon="6.40533674"><ele></ele><time>2014-9-10T22:53:15Z</time></trkpt>
<trkpt lat="48.16129362" lon="6.40512653"><ele></ele><time>2014-9-10T22:53:18Z</time></trkpt>
<trkpt lat="48.16127317" lon="6.40488706"><ele></ele><time>2014-9-10T22:53:21Z</time></trkpt>
<trkpt lat="48.16122028" lon="6.40468924"><ele></ele><time>2014-9-10T22:53:24Z</time></trkpt>
<trkpt lat="48.16119564" lon="6.40461632"><ele></ele><time>2014-9-10T22:53:27Z</time></trkpt>
<trkpt lat="48.16116186" lon="6.40452404"><ele></ele><time>2014-9-10T22:53:30Z</time></trkpt>
<trkpt lat="48.16112665" lon="6.40442689"><ele></ele><time>2014-9-10T22:53:33Z</time></trkpt>
<trkpt lat="48.16098358" lon="6.40411517"><ele></ele><time>2014-9-10T22:53:36Z</time></trkpt>
<trkpt lat="48.16087956" lon="6.40390914"><ele></ele><time>2014-9-10T22:53:39Z</time></trkpt>
<trkpt lat="48.16071879" lon="6.40353715"><ele></ele><time>2014-9-10T22:53:42Z</time></trkpt>
<trkpt lat="48.16056255" lon="6.40327337"><ele></ele><time>2014-9-10T22:53:45Z</time></trkpt>
<trkpt lat="48.16038016" lon="6.40307782"><ele></ele><time>2014-9-10T22:53:48Z</time></trkpt>
<trkpt lat="48.16021496" lon="6.40291303"><ele></ele><time>2014-9-10T22:53:51Z</time></trkpt>
<trkpt lat="48.15999627" lon="6.40270189"><ele></ele><time>2014-9-10T22:53:54Z</time></trkpt>
<trkpt lat="48.15981229" lon="6.40252428"><ele></ele><time>2014-9-10T22:53:57Z</time></trkpt>
<trkpt lat="48.15968463" lon="6.40233602"><ele></ele><time>2014-9-10T22:54:0Z</time></trkpt>
<trkpt lat="48.15957952" lon="6.40216596"><ele></ele><time>2014-9-10T22:54:3Z</time></trkpt>
<trkpt lat="48.15941742" lon="6.40192238"><ele></ele><time>2014-9-10T22:54:6Z</time></trkpt>
<trkpt lat="48.15928825" lon="6.40171493"><ele></ele><time>2014-9-10T22:54:9Z</time></trkpt>
<trkpt lat="48.15916613" lon="6.40151652"><ele></ele><time>2014-9-10T22:54:12Z</time></trkpt>
<trkpt lat="48.15905037" lon="6.40134118"><ele></ele><time>2014-9-10T22:54:15Z</time></trkpt>
<trkpt lat="48.15889137" lon="6.40109802"><ele></ele><time>2014-9-10T22:54:18Z</time></trkpt>
<trkpt lat="48.15875206" lon="6.40085402"><ele></ele><time>2014-9-10T22:54:21Z</time></trkpt>
<trkpt lat="48.15863363" lon="6.40055864"><ele></ele><time>2014-9-10T22:54:24Z</time></trkpt>
<trkpt lat="48.15853782" lon="6.40025832"><ele></ele><time>2014-9-10T22:54:27Z</time></trkpt>
<trkpt lat="48.15850538" lon="6.39999546"><ele></ele><time>2014-9-10T22:54:30Z</time></trkpt>
<trkpt lat="48.15851904" lon="6.39974945"><ele></ele><time>2014-9-10T22:54:33Z</time></trkpt>
<trkpt lat="48.15850228" lon="6.39947905"><ele></ele><time>2014-9-10T22:54:36Z</time></trkpt>
<trkpt lat="48.15845224" lon="6.39915677"><ele></ele><time>2014-9-10T22:54:39Z</time></trkpt>
<trkpt lat="48.15842332" lon="6.39892316"><ele></ele><time>2014-9-10T22:54:42Z</time></trkpt>
<trkpt lat="48.15839667" lon="6.39864195"><ele></ele><time>2014-9-10T22:54:45Z</time></trkpt>
<trkpt lat="48.15834252" lon="6.39837725"><ele></ele><time>2014-9-10T22:54:48Z</time></trkpt>
<trkpt lat="48.15829868" lon="6.39809487"><ele></ele><time>2014-9-10T22:54:51Z</time></trkpt>
<trkpt lat="48.15825535" lon="6.39774534"><ele></ele><time>2014-9-10T22:54:54Z</time></trkpt>
<trkpt lat="48.15821948" lon="6.39741937"><ele></ele><time>2014-9-10T22:54:57Z</time></trkpt>
<trkpt lat="48.15820715" lon="6.39720186"><ele></ele><time>2014-9-10T22:55:0Z</time></trkpt>
<trkpt lat="48.15823230" lon="6.39680816"><ele></ele><time>2014-9-10T22:55:3Z</time></trkpt>
<trkpt lat="48.15832282" lon="6.39645176"><ele></ele><time>2014-9-10T22:55:6Z</time></trkpt>
<trkpt lat="48.15845040" lon="6.39615077"><ele></ele><time>2014-9-10T22:55:9Z</time></trkpt>
<trkpt lat="48.15871820" lon="6.39572865"><ele></ele><time>2014-9-10T22:55:12Z</time></trkpt>
<trkpt lat="48.15888190" lon="6.39541064"><ele></ele><time>2014-9-10T22:55:15Z</time></trkpt>
<trkpt lat="48.15899933" lon="6.39510789"><ele></ele><time>2014-9-10T22:55:18Z</time></trkpt>
<trkpt lat="48.15909463" lon="6.39461587"><ele></ele><time>2014-9-10T22:55:21Z</time></trkpt>
<trkpt lat="48.15916303" lon="6.39429493"><ele></ele><time>2014-9-10T22:55:24Z</time></trkpt>
<trkpt lat="48.15927434" lon="6.39399528"><ele></ele><time>2014-9-10T22:55:27Z</time></trkpt>
<trkpt lat="48.15941809" lon="6.39367006"><ele></ele><time>2014-9-10T22:55:30Z</time></trkpt>
<trkpt lat="48.15955949" lon="6.39330176"><ele></ele><time>2014-9-10T22:55:33Z</time></trkpt>
<trkpt lat="48.15965219" lon="6.39302474"><ele></ele><time>2014-9-10T22:55:36Z</time></trkpt>
<trkpt lat="48.15969637" lon="6.39278216"><ele></ele><time>2014-9-10T22:55:39Z</time></trkpt>
<trkpt lat="48.15969528" lon="6.39251562"><ele></ele><time>2014-9-10T22:55:42Z</time></trkpt>
<trkpt lat="48.15968757" lon="6.39224212"><ele></ele><time>2014-9-10T22:55:45Z</time></trkpt>
<trkpt lat="48.15967633" lon="6.39206107"><ele></ele><time>2014-9-10T22:55:48Z</time></trkpt>
<trkpt lat="48.15967038" lon="6.39196795"><ele></ele><time>2014-9-10T22:55:51Z</time></trkpt>
<trkpt lat="48.15967466" lon="6.39172948"><ele></ele><time>2014-9-10T22:55:54Z</time></trkpt>
<trkpt lat="48.15964566" lon="6.39137769"><ele></ele><time>2014-9-10T22:55:57Z</time></trkpt>
<trkpt lat="48.15967742" lon="6.39110235"><ele></ele><time>2014-9-10T22:56:0Z</time></trkpt>
<trkpt lat="48.15972545" lon="6.39082423"><ele></ele><time>2014-9-10T22:56:3Z</time></trkpt>
<trkpt lat="48.15981120" lon="6.39056892"><ele></ele><time>2014-9-10T22:56:6Z</time></trkpt>
<trkpt lat="48.15991907" lon="6.39018025"><ele></ele><time>2014-9-10T22:56:9Z</time></trkpt>
<trkpt lat="48.15993684" lon="6.39012963"><ele></ele><time>2014-9-10T22:56:12Z</time></trkpt>
<trkpt lat="48.15994523" lon="6.38990097"><ele></ele><time>2014-9-10T22:56:15Z</time></trkpt>
<trkpt lat="48.15980122" lon="6.38969176"><ele></ele><time>2014-9-10T22:56:18Z</time></trkpt>
<trkpt lat="48.15971883" lon="6.38952227"><ele></ele><time>2014-9-10T22:56:21Z</time></trkpt>
<trkpt lat="48.15957877" lon="6.38929403"><ele></ele><time>2014-9-10T22:56:24Z</time></trkpt>
<trkpt lat="48.15943502" lon="6.38905079"><ele></ele><time>2014-9-10T22:56:27Z</time></trkpt>
<trkpt lat="48.15922832" lon="6.38872482"><ele></ele><time>2014-9-10T22:56:30Z</time></trkpt>
<trkpt lat="48.15915666" lon="6.38855316"><ele></ele><time>2014-9-10T22:56:33Z</time></trkpt>
<trkpt lat="48.15913352" lon="6.38852944"><ele></ele><time>2014-9-10T22:56:36Z</time></trkpt>
<trkpt lat="48.15914308" lon="6.38837840"><ele></ele><time>2014-9-10T22:56:39Z</time></trkpt>
<trkpt lat="48.15919119" lon="6.38829986"><ele></ele><time>2014-9-10T22:56:42Z</time></trkpt>
<trkpt lat="48.15936897" lon="6.38804530"><ele></ele><time>2014-9-10T22:56:45Z</time></trkpt>
<trkpt lat="48.15949696" lon="6.38786995"><ele></ele><time>2014-9-10T22:56:48Z</time></trkpt>
<trkpt lat="48.15962537" lon="6.38784505"><ele></ele><time>2014-9-10T22:56:51Z</time></trkpt>
<trkpt lat="48.15983618" lon="6.38770608"><ele></ele><time>2014-9-10T22:56:54Z</time></trkpt>
<trkpt lat="48.15994254" lon="6.38759318"><ele></ele><time>2014-9-10T22:56:57Z</time></trkpt>
<trkpt lat="48.16010046" lon="6.38739394"><ele></ele><time>2014-9-10T22:57:0Z</time></trkpt>
<trkpt lat="48.16025209" lon="6.38726033"><ele></ele><time>2014-9-10T22:57:3Z</time></trkpt>
<trkpt lat="48.16050237" lon="6.38713754"><ele></ele><time>2014-9-10T22:57:6Z</time></trkpt>
<trkpt lat="48.16055308" lon="6.38708875"><ele></ele><time>2014-9-10T22:57:9Z</time></trkpt>
<trkpt lat="48.16091116" lon="6.38664309"><ele></ele><time>2014-9-10T22:57:12Z</time></trkpt>
<trkpt lat="48.16104787" lon="6.38632894"><ele></ele><time>2014-9-10T22:57:15Z</time></trkpt>
<trkpt lat="48.16109422" lon="6.38617102"><ele></ele><time>2014-9-10T22:57:18Z</time></trkpt>
<trkpt lat="48.16118935" lon="6.38596047"><ele></ele><time>2014-9-10T22:57:21Z</time></trkpt>
<trkpt lat="48.16129480" lon="6.38562796"><ele></ele><time>2014-9-10T22:57:24Z</time></trkpt>
<trkpt lat="48.16137685" lon="6.38509026"><ele></ele><time>2014-9-10T22:57:27Z</time></trkpt>
<trkpt lat="48.16143905" lon="6.38478356"><ele></ele><time>2014-9-10T22:57:30Z</time></trkpt>
<trkpt lat="48.16143427" lon="6.38451803"><ele></ele><time>2014-9-10T22:57:33Z</time></trkpt>
<trkpt lat="48.16144072" lon="6.38434569"><ele></ele><time>2014-9-10T22:57:36Z</time></trkpt>
<trkpt lat="48.16145564" lon="6.38410614"><ele></ele><time>2014-9-10T22:57:39Z</time></trkpt>
<trkpt lat="48.16146847" lon="6.38376114"><ele></ele><time>2014-9-10T22:57:42Z</time></trkpt>
<trkpt lat="48.16136998" lon="6.38352477"><ele></ele><time>2014-9-10T22:57:45Z</time></trkpt>
<trkpt lat="48.16129304" lon="6.38328077"><ele></ele><time>2014-9-10T22:57:48Z</time></trkpt>
<trkpt lat="48.16128465" lon="6.38305186"><ele></ele><time>2014-9-10T22:57:51Z</time></trkpt>
<trkpt lat="48.16130678" lon="6.38263830"><ele></ele><time>2014-9-10T22:57:54Z</time></trkpt>
<trkpt lat="48.16135095" lon="6.38224930"><ele></ele><time>2014-9-10T22:57:57Z</time></trkpt>
<trkpt lat="48.16140728" lon="6.38206280"><ele></ele><time>2014-9-10T22:58:0Z</time></trkpt>
<trkpt lat="48.16160635" lon="6.38173054"><ele></ele><time>2014-9-10T22:58:3Z</time></trkpt>
<trkpt lat="48.16164583" lon="6.38167908"><ele></ele><time>2014-9-10T22:58:6Z</time></trkpt>
<trkpt lat="48.16171364" lon="6.38155226"><ele></ele><time>2014-9-10T22:58:9Z</time></trkpt>
<trkpt lat="48.16186485" lon="6.38130549"><ele></ele><time>2014-9-10T22:58:12Z</time></trkpt>
<trkpt lat="48.16201966" lon="6.38104775"><ele></ele><time>2014-9-10T22:58:15Z</time></trkpt>
<trkpt lat="48.16232896" lon="6.38060770"><ele></ele><time>2014-9-10T22:58:18Z</time></trkpt>
<trkpt lat="48.16256809" lon="6.38044920"><ele></ele><time>2014-9-10T22:58:21Z</time></trkpt>
<trkpt lat="48.16276574" lon="6.38029640"><ele></ele><time>2014-9-10T22:58:24Z</time></trkpt>
<trkpt lat="48.16299548" lon="6.38008266"><ele></ele><time>2014-9-10T22:58:27Z</time></trkpt>
<trkpt lat="48.16313378" lon="6.37997973"><ele></ele><time>2014-9-10T22:58:30Z</time></trkpt>
<trkpt lat="48.16320042" lon="6.37968318"><ele></ele><time>2014-9-10T22:58:33Z</time></trkpt>
<trkpt lat="48.16322146" lon="6.37932904"><ele></ele><time>2014-9-10T22:58:36Z</time></trkpt>
<trkpt lat="48.16322884" lon="6.37905939"><ele></ele><time>2014-9-10T22:58:39Z</time></trkpt>
<trkpt lat="48.16325683" lon="6.37885362"><ele></ele><time>2014-9-10T22:58:42Z</time></trkpt>
<trkpt lat="48.16325926" lon="6.37850585"><ele></ele><time>2014-9-10T22:58:45Z</time></trkpt>
<trkpt lat="48.16326697" lon="6.37819857"><ele></ele><time>2014-9-10T22:58:48Z</time></trkpt>
<trkpt lat="48.16327728" lon="6.37807092"><ele></ele><time>2014-9-10T22:58:51Z</time></trkpt>
<trkpt lat="48.16332137" lon="6.37794762"><ele></ele><time>2014-9-10T22:58:54Z</time></trkpt>
<trkpt lat="48.16332062" lon="6.37790957"><ele></ele><time>2014-9-10T22:58:57Z</time></trkpt>
<trkpt lat="48.16335255" lon="6.37771217"><ele></ele><time>2014-9-10T22:59:0Z</time></trkpt>
<trkpt lat="48.16340184" lon="6.37754705"><ele></ele><time>2014-9-10T22:59:3Z</time></trkpt>
<trkpt lat="48.16342195" lon="6.37726550"><ele></ele><time>2014-9-10T22:59:6Z</time></trkpt>
<trkpt lat="48.16344358" lon="6.37692830"><ele></ele><time>2014-9-10T22:59:9Z</time></trkpt>
<trkpt lat="48.16342782" lon="6.37661456"><ele></ele><time>2014-9-10T22:59:12Z</time></trkpt>
<trkpt lat="48.16342564" lon="6.37627074"><ele></ele><time>2014-9-10T22:59:15Z</time></trkpt>
<trkpt lat="48.16338248" lon="6.37580847"><ele></ele><time>2014-9-10T22:59:18Z</time></trkpt>
<trkpt lat="48.16337225" lon="6.37559759"><ele></ele><time>2014-9-10T22:59:21Z</time></trkpt>
<trkpt lat="48.16339807" lon="6.37527103"><ele></ele><time>2014-9-10T22:59:24Z</time></trkpt>
<trkpt lat="48.16342145" lon="6.37497749"><ele></ele><time>2014-9-10T22:59:27Z</time></trkpt>
<trkpt lat="48.16332866" lon="6.37478739"><ele></ele><time>2014-9-10T22:59:30Z</time></trkpt>
<trkpt lat="48.16314317" lon="6.37468186"><ele></ele><time>2014-9-10T22:59:33Z</time></trkpt>
<trkpt lat="48.16277747" lon="6.37462738"><ele></ele><time>2014-9-10T22:59:36Z</time></trkpt>
<trkpt lat="48.16273866" lon="6.37462210"><ele></ele><time>2014-9-10T22:59:39Z</time></trkpt>
<trkpt lat="48.16267890" lon="6.37449914"><ele></ele><time>2014-9-10T22:59:42Z</time></trkpt>
<trkpt lat="48.16268980" lon="6.37443359"><ele></ele><time>2014-9-10T22:59:45Z</time></trkpt>
<trkpt lat="48.16269776" lon="6.37405674"><ele></ele><time>2014-9-10T22:59:48Z</time></trkpt>
<trkpt lat="48.16270304" lon="6.37396613"><ele></ele><time>2014-9-10T22:59:51Z</time></trkpt>
<trkpt lat="48.16277345" lon="6.37378869"><ele></ele><time>2014-9-10T22:59:54Z</time></trkpt>
<trkpt lat="48.16282349" lon="6.37365525"><ele></ele><time>2014-9-10T22:59:57Z</time></trkpt>
<trkpt lat="48.16283153" lon="6.37361954"><ele></ele><time>2014-9-10T23:0:0Z</time></trkpt>
<trkpt lat="48.16285609" lon="6.37344595"><ele></ele><time>2014-9-10T23:0:3Z</time></trkpt>
<trkpt lat="48.16283723" lon="6.37326038"><ele></ele><time>2014-9-10T23:0:6Z</time></trkpt>
<trkpt lat="48.16284528" lon="6.37300548"><ele></ele><time>2014-9-10T23:0:9Z</time></trkpt>
<trkpt lat="48.16289716" lon="6.37282678"><ele></ele><time>2014-9-10T23:0:12Z</time></trkpt>
<trkpt lat="48.16296506" lon="6.37252956"><ele></ele><time>2014-9-10T23:0:15Z</time></trkpt>
<trkpt lat="48.16296975" lon="6.37245454"><ele></ele><time>2014-9-10T23:0:18Z</time></trkpt>
<trkpt lat="48.16299968" lon="6.37205749"><ele></ele><time>2014-9-10T23:0:21Z</time></trkpt>
<trkpt lat="48.16300889" lon="6.37192614"><ele></ele><time>2014-9-10T23:0:24Z</time></trkpt>
<trkpt lat="48.16301292" lon="6.37175817"><ele></ele><time>2014-9-10T23:0:27Z</time></trkpt>
<trkpt lat="48.16301853" lon="6.37153932"><ele></ele><time>2014-9-10T23:0:30Z</time></trkpt>
<trkpt lat="48.16303865" lon="6.37134746"><ele></ele><time>2014-9-10T23:0:33Z</time></trkpt>
<trkpt lat="48.16306413" lon="6.37107069"><ele></ele><time>2014-9-10T23:0:36Z</time></trkpt>
<trkpt lat="48.16310839" lon="6.37081370"><ele></ele><time>2014-9-10T23:0:39Z</time></trkpt>
<trkpt lat="48.16310537" lon="6.37060155"><ele></ele><time>2014-9-10T23:0:42Z</time></trkpt>
<trkpt lat="48.16306564" lon="6.37035940"><ele></ele><time>2014-9-10T23:0:45Z</time></trkpt>
<trkpt lat="48.16303035" lon="6.37003653"><ele></ele><time>2014-9-10T23:0:48Z</time></trkpt>
<trkpt lat="48.16303873" lon="6.36989957"><ele></ele><time>2014-9-10T23:0:51Z</time></trkpt>
<trkpt lat="48.16302734" lon="6.36966127"><ele></ele><time>2014-9-10T23:0:54Z</time></trkpt>
<trkpt lat="48.16303245" lon="6.36955683"><ele></ele><time>2014-9-10T23:0:57Z</time></trkpt>
<trkpt lat="48.16300504" lon="6.36923052"><ele></ele><time>2014-9-10T23:1:0Z</time></trkpt>
<trkpt lat="48.16299314" lon="6.36908493"><ele></ele><time>2014-9-10T23:1:3Z</time></trkpt>
<trkpt lat="48.16291116" lon="6.36888158"><ele></ele><time>2014-9-10T23:1:6Z</time></trkpt>
<trkpt lat="48.16287998" lon="6.36871537"><ele></ele><time>2014-9-10T23:1:9Z</time></trkpt>
<trkpt lat="48.16285970" lon="6.36870246"><ele></ele><time>2014-9-10T23:1:12Z</time></trkpt>
<trkpt lat="48.16285576" lon="6.36870657"><ele></ele><time>2014-9-10T23:1:15Z</time></trkpt>
<trkpt lat="48.16284872" lon="6.36870515"><ele></ele><time>2014-9-10T23:1:18Z</time></trkpt>
<trkpt lat="48.16280429" lon="6.36863055"><ele></ele><time>2014-9-10T23:1:21Z</time></trkpt>
<trkpt lat="48.16277135" lon="6.36856969"><ele></ele><time>2014-9-10T23:1:24Z</time></trkpt>
<trkpt lat="48.16276364" lon="6.36855134"><ele></ele><time>2014-9-10T23:1:27Z</time></trkpt>
<trkpt lat="48.16273556" lon="6.36841689"><ele></ele><time>2014-9-10T23:1:30Z</time></trkpt>
<trkpt lat="48.16276649" lon="6.36827624"><ele></ele><time>2014-9-10T23:1:33Z</time></trkpt>
<trkpt lat="48.16279155" lon="6.36819016"><ele></ele><time>2014-9-10T23:1:36Z</time></trkpt>
<trkpt lat="48.16282676" lon="6.36810073"><ele></ele><time>2014-9-10T23:1:39Z</time></trkpt>
<trkpt lat="48.16302306" lon="6.36805002"><ele></ele><time>2014-9-10T23:1:42Z</time></trkpt>
<trkpt lat="48.16316505" lon="6.36811908"><ele></ele><time>2014-9-10T23:1:45Z</time></trkpt>
<trkpt lat="48.16332188" lon="6.36809427"><ele></ele><time>2014-9-10T23:1:48Z</time></trkpt>
<trkpt lat="48.16340402" lon="6.36798028"><ele></ele><time>2014-9-10T23:1:51Z</time></trkpt>
<trkpt lat="48.16344098" lon="6.36786696"><ele></ele><time>2014-9-10T23:1:54Z</time></trkpt>
<trkpt lat="48.16354492" lon="6.36736739"><ele></ele><time>2014-9-10T23:1:57Z</time></trkpt>
<trkpt lat="48.16361549" lon="6.36709297"><ele></ele><time>2014-9-10T23:2:0Z</time></trkpt>
<trkpt lat="48.16367953" lon="6.36669776"><ele></ele><time>2014-9-10T23:2:3Z</time></trkpt>
<trkpt lat="48.16369663" lon="6.36637632"><ele></ele><time>2014-9-10T23:2:6Z</time></trkpt>
<trkpt lat="48.16370007" lon="6.36613576"><ele></ele><time>2014-9-10T23:2:9Z</time></trkpt>
<trkpt lat="48.16373427" lon="6.36571214"><ele></ele><time>2014-9-10T23:2:12Z</time></trkpt>
<trkpt lat="48.16375623" lon="6.36534073"><ele></ele><time>2014-9-10T23:2:15Z</time></trkpt>
<trkpt lat="48.16375706" lon="6.36504728"><ele></ele><time>2014-9-10T23:2:18Z</time></trkpt>
<trkpt lat="48.16382320" lon="6.36476289"><ele></ele><time>2014-9-10T23:2:21Z</time></trkpt>
<trkpt lat="48.16384357" lon="6.36470924"><ele></ele><time>2014-9-10T23:2:24Z</time></trkpt>
<trkpt lat="48.16390467" lon="6.36432242"><ele></ele><time>2014-9-10T23:2:27Z</time></trkpt>
<trkpt lat="48.16390115" lon="6.36424187"><ele></ele><time>2014-9-10T23:2:30Z</time></trkpt>
<trkpt lat="48.16382764" lon="6.36370660"><ele></ele><time>2014-9-10T23:2:33Z</time></trkpt>
<trkpt lat="48.16379629" lon="6.36349177"><ele></ele><time>2014-9-10T23:2:36Z</time></trkpt>
<trkpt lat="48.16379855" lon="6.36328365"><ele></ele><time>2014-9-10T23:2:39Z</time></trkpt>
<trkpt lat="48.16382152" lon="6.36301283"><ele></ele><time>2014-9-10T23:2:42Z</time></trkpt>
<trkpt lat="48.16390920" lon="6.36247194"><ele></ele><time>2014-9-10T23:2:45Z</time></trkpt>
<trkpt lat="48.16397139" lon="6.36203139"><ele></ele><time>2014-9-10T23:2:48Z</time></trkpt>
<trkpt lat="48.16413442" lon="6.36178949"><ele></ele><time>2014-9-10T23:2:51Z</time></trkpt>
<trkpt lat="48.16427557" lon="6.36164222"><ele></ele><time>2014-9-10T23:2:54Z</time></trkpt>
<trkpt lat="48.16444882" lon="6.36151616"><ele></ele><time>2014-9-10T23:2:57Z</time></trkpt>
<trkpt lat="48.16472786" lon="6.36117459"><ele></ele><time>2014-9-10T23:3:0Z</time></trkpt>
<trkpt lat="48.16505173" lon="6.36077796"><ele></ele><time>2014-9-10T23:3:3Z</time></trkpt>
<trkpt lat="48.16536647" lon="6.36039223"><ele></ele><time>2014-9-10T23:3:6Z</time></trkpt>
<trkpt lat="48.16552799" lon="6.36020875"><ele></ele><time>2014-9-10T23:3:9Z</time></trkpt>
<trkpt lat="48.16583443" lon="6.36002569"><ele></ele><time>2014-9-10T23:3:12Z</time></trkpt>
<trkpt lat="48.16613426" lon="6.35985444"><ele></ele><time>2014-9-10T23:3:15Z</time></trkpt>
<trkpt lat="48.16630994" lon="6.35975788"><ele></ele><time>2014-9-10T23:3:18Z</time></trkpt>
<trkpt lat="48.16653156" lon="6.35977054"><ele></ele><time>2014-9-10T23:3:21Z</time></trkpt>
<trkpt lat="48.16657397" lon="6.35980365"><ele></ele><time>2014-9-10T23:3:24Z</time></trkpt>
<trkpt lat="48.16674345" lon="6.35989359"><ele></ele><time>2014-9-10T23:3:27Z</time></trkpt>
<trkpt lat="48.16673549" lon="6.35984598"><ele></ele><time>2014-9-10T23:3:30Z</time></trkpt>
<trkpt lat="48.16673708" lon="6.35984724"><ele></ele><time>2014-9-10T23:3:33Z</time></trkpt>
<trkpt lat="48.16674697" lon="6.35985034"><ele></ele><time>2014-9-10T23:3:36Z</time></trkpt>
<trkpt lat="48.16674647" lon="6.35985285"><ele></ele><time>2014-9-10T23:3:39Z</time></trkpt>
<trkpt lat="48.16674664" lon="6.35985738"><ele></ele><time>2014-9-10T23:3:42Z</time></trkpt>
<trkpt lat="48.16676835" lon="6.35986593"><ele></ele><time>2014-9-10T23:3:45Z</time></trkpt>
<trkpt lat="48.16684336" lon="6.35993063"><ele></ele><time>2014-9-10T23:3:48Z</time></trkpt>
<trkpt lat="48.16701972" lon="6.36008872"><ele></ele><time>2014-9-10T23:3:51Z</time></trkpt>
<trkpt lat="48.16714914" lon="6.36010540"><ele></ele><time>2014-9-10T23:3:54Z</time></trkpt>
<trkpt lat="48.16725408" lon="6.36009844"><ele></ele><time>2014-9-10T23:3:57Z</time></trkpt>
<trkpt lat="48.16747754" lon="6.36022350"><ele></ele><time>2014-9-10T23:4:0Z</time></trkpt>
<trkpt lat="48.16786487" lon="6.36068677"><ele></ele><time>2014-9-10T23:4:3Z</time></trkpt>
<trkpt lat="48.16827927" lon="6.36124198"><ele></ele><time>2014-9-10T23:4:6Z</time></trkpt>
<trkpt lat="48.16836066" lon="6.36140158"><ele></ele><time>2014-9-10T23:4:9Z</time></trkpt>
<trkpt lat="48.16846157" lon="6.36183417"><ele></ele><time>2014-9-10T23:4:12Z</time></trkpt>
<trkpt lat="48.16846317" lon="6.36224555"><ele></ele><time>2014-9-10T23:4:15Z</time></trkpt>
<trkpt lat="48.16841162" lon="6.36280093"><ele></ele><time>2014-9-10T23:4:18Z</time></trkpt>
<trkpt lat="48.16841656" lon="6.36309765"><ele></ele><time>2014-9-10T23:4:21Z</time></trkpt>
<trkpt lat="48.16839636" lon="6.36342572"><ele></ele><time>2014-9-10T23:4:24Z</time></trkpt>
<trkpt lat="48.16828136" lon="6.36383778"><ele></ele><time>2014-9-10T23:4:27Z</time></trkpt>
<trkpt lat="48.16820576" lon="6.36400382"><ele></ele><time>2014-9-10T23:4:30Z</time></trkpt>
<trkpt lat="48.16814239" lon="6.36417565"><ele></ele><time>2014-9-10T23:4:33Z</time></trkpt>
<trkpt lat="48.16807089" lon="6.36468133"><ele></ele><time>2014-9-10T23:4:36Z</time></trkpt>
<trkpt lat="48.16811792" lon="6.36512239"><ele></ele><time>2014-9-10T23:4:39Z</time></trkpt>
<trkpt lat="48.16835705" lon="6.36565187"><ele></ele><time>2014-9-10T23:4:42Z</time></trkpt>
<trkpt lat="48.16864489" lon="6.36621228"><ele></ele><time>2014-9-10T23:4:45Z</time></trkpt>
<trkpt lat="48.16872007" lon="6.36635964"><ele></ele><time>2014-9-10T23:4:48Z</time></trkpt>
<trkpt lat="48.16880448" lon="6.36654823"><ele></ele><time>2014-9-10T23:4:51Z</time></trkpt>
<trkpt lat="48.16887505" lon="6.36664345"><ele></ele><time>2014-9-10T23:4:54Z</time></trkpt>
<trkpt lat="48.16901143" lon="6.36691553"><ele></ele><time>2014-9-10T23:4:57Z</time></trkpt>
<trkpt lat="48.16914034" lon="6.36709339"><ele></ele><time>2014-9-10T23:5:0Z</time></trkpt>
<trkpt lat="48.16950445" lon="6.36736027"><ele></ele><time>2014-9-10T23:5:3Z</time></trkpt>
<trkpt lat="48.16956723" lon="6.36740536"><ele></ele><time>2014-9-10T23:5:6Z</time></trkpt>
<trkpt lat="48.16974082" lon="6.36768524"><ele></ele><time>2014-9-10T23:5:9Z</time></trkpt>
<trkpt lat="48.16975423" lon="6.36777794"><ele></ele><time>2014-9-10T23:5:12Z</time></trkpt>
<trkpt lat="48.16980620" lon="6.36838529"><ele></ele><time>2014-9-10T23:5:15Z</time></trkpt>
<trkpt lat="48.16988482" lon="6.36862678"><ele></ele><time>2014-9-10T23:5:18Z</time></trkpt>
<trkpt lat="48.16991357" lon="6.36865905"><ele></ele><time>2014-9-10T23:5:21Z</time></trkpt>
<trkpt lat="48.17003025" lon="6.36871747"><ele></ele><time>2014-9-10T23:5:24Z</time></trkpt>
<trkpt lat="48.17019998" lon="6.36870456"><ele></ele><time>2014-9-10T23:5:27Z</time></trkpt>
<trkpt lat="48.17032093" lon="6.36872476"><ele></ele><time>2014-9-10T23:5:30Z</time></trkpt>
<trkpt lat="48.17058597" lon="6.36886398"><ele></ele><time>2014-9-10T23:5:33Z</time></trkpt>
<trkpt lat="48.17109383" lon="6.36929976"><ele></ele><time>2014-9-10T23:5:36Z</time></trkpt>
<trkpt lat="48.17134109" lon="6.36953487"><ele></ele><time>2014-9-10T23:5:39Z</time></trkpt>
<trkpt lat="48.17151753" lon="6.36984617"><ele></ele><time>2014-9-10T23:5:42Z</time></trkpt>
<trkpt lat="48.17173513" lon="6.37067649"><ele></ele><time>2014-9-10T23:5:45Z</time></trkpt>
<trkpt lat="48.17189849" lon="6.37133866"><ele></ele><time>2014-9-10T23:5:48Z</time></trkpt>
<trkpt lat="48.17205573" lon="6.37191357"><ele></ele><time>2014-9-10T23:5:51Z</time></trkpt>
<trkpt lat="48.17220384" lon="6.37240869"><ele></ele><time>2014-9-10T23:5:54Z</time></trkpt>
<trkpt lat="48.17236612" lon="6.37293306"><ele></ele><time>2014-9-10T23:5:57Z</time></trkpt>
<trkpt lat="48.17251984" lon="6.37337303"><ele></ele><time>2014-9-10T23:6:0Z</time></trkpt>
<trkpt lat="48.17256845" lon="6.37349398"><ele></ele><time>2014-9-10T23:6:3Z</time></trkpt>
<trkpt lat="48.17266678" lon="6.37346657"><ele></ele><time>2014-9-10T23:6:6Z</time></trkpt>
<trkpt lat="48.17272142" lon="6.37339884"><ele></ele><time>2014-9-10T23:6:9Z</time></trkpt>
<trkpt lat="48.17294019" lon="6.37304949"><ele></ele><time>2014-9-10T23:6:12Z</time></trkpt>
<trkpt lat="48.17318595" lon="6.37248647"><ele></ele><time>2014-9-10T23:6:15Z</time></trkpt>
<trkpt lat="48.17322124" lon="6.37240307"><ele></ele><time>2014-9-10T23:6:18Z</time></trkpt>
<trkpt lat="48.17350388" lon="6.37186948"><ele></ele><time>2014-9-10T23:6:21Z</time></trkpt>
<trkpt lat="48.17370445" lon="6.37181517"><ele></ele><time>2014-9-10T23:6:24Z</time></trkpt>
<trkpt lat="48.17396262" lon="6.37213695"><ele></ele><time>2014-9-10T23:6:27Z</time></trkpt>
<trkpt lat="48.17405633" lon="6.37225279"><ele></ele><time>2014-9-10T23:6:30Z</time></trkpt>
<trkpt lat="48.17415884" lon="6.37234767"><ele></ele><time>2014-9-10T23:6:33Z</time></trkpt>
<trkpt lat="48.17438473" lon="6.37245563"><ele></ele><time>2014-9-10T23:6:36Z</time></trkpt>
<trkpt lat="48.17482763" lon="6.37238983"><ele></ele><time>2014-9-10T23:6:39Z</time></trkpt>
<trkpt lat="48.17506417" lon="6.37216017"><ele></ele><time>2014-9-10T23:6:42Z</time></trkpt>
<trkpt lat="48.17510398" lon="6.37195540"><ele></ele><time>2014-9-10T23:6:45Z</time></trkpt>
<trkpt lat="48.17504766" lon="6.37171467"><ele></ele><time>2014-9-10T23:6:48Z</time></trkpt>
<trkpt lat="48.17496333" lon="6.37131116"><ele></ele><time>2014-9-10T23:6:51Z</time></trkpt>
<trkpt lat="48.17494850" lon="6.37121913"><ele></ele><time>2014-9-10T23:6:54Z</time></trkpt>
<trkpt lat="48.17500407" lon="6.37095896"><ele></ele><time>2014-9-10T23:6:57Z</time></trkpt>
<trkpt lat="48.17512628" lon="6.37086156"><ele></ele><time>2014-9-10T23:7:0Z</time></trkpt>
<trkpt lat="48.17541109" lon="6.37063935"><ele></ele><time>2014-9-10T23:7:3Z</time></trkpt>
<trkpt lat="48.17552777" lon="6.37049728"><ele></ele><time>2014-9-10T23:7:6Z</time></trkpt>
<trkpt lat="48.17557496" lon="6.37010274"><ele></ele><time>2014-9-10T23:7:9Z</time></trkpt>
<trkpt lat="48.17550967" lon="6.36974257"><ele></ele><time>2014-9-10T23:7:12Z</time></trkpt>
<trkpt lat="48.17557152" lon="6.36926263"><ele></ele><time>2014-9-10T23:7:15Z</time></trkpt>
<trkpt lat="48.17561327" lon="6.36915173"><ele></ele><time>2014-9-10T23:7:18Z</time></trkpt>
<trkpt lat="48.17591032" lon="6.36867656"><ele></ele><time>2014-9-10T23:7:21Z</time></trkpt>
<trkpt lat="48.17639806" lon="6.36841404"><ele></ele><time>2014-9-10T23:7:24Z</time></trkpt>
<trkpt lat="48.17704867" lon="6.36805865"><ele></ele><time>2014-9-10T23:7:27Z</time></trkpt>
<trkpt lat="48.17712326" lon="6.36800769"><ele></ele><time>2014-9-10T23:7:30Z</time></trkpt>
<trkpt lat="48.17728587" lon="6.36781817"><ele></ele><time>2014-9-10T23:7:33Z</time></trkpt>
<trkpt lat="48.17745863" lon="6.36776118"><ele></ele><time>2014-9-10T23:7:36Z</time></trkpt>
<trkpt lat="48.17761109" lon="6.36779764"><ele></ele><time>2014-9-10T23:7:39Z</time></trkpt>
<trkpt lat="48.17769558" lon="6.36774693"><ele></ele><time>2014-9-10T23:7:42Z</time></trkpt>
<trkpt lat="48.17796833" lon="6.36752313"><ele></ele><time>2014-9-10T23:7:45Z</time></trkpt>
<trkpt lat="48.17799574" lon="6.36750645"><ele></ele><time>2014-9-10T23:7:48Z</time></trkpt>
<trkpt lat="48.17807126" lon="6.36765112"><ele></ele><time>2014-9-10T23:7:51Z</time></trkpt>
<trkpt lat="48.17814368" lon="6.36807567"><ele></ele><time>2014-9-10T23:7:54Z</time></trkpt>
<trkpt lat="48.17823839" lon="6.36866827"><ele></ele><time>2014-9-10T23:7:57Z</time></trkpt>
<trkpt lat="48.17818760" lon="6.36938986"><ele></ele><time>2014-9-10T23:8:0Z</time></trkpt>
<trkpt lat="48.17808567" lon="6.37006033"><ele></ele><time>2014-9-10T23:8:3Z</time></trkpt>
<trkpt lat="48.17791477" lon="6.37084555"><ele></ele><time>2014-9-10T23:8:6Z</time></trkpt>
<trkpt lat="48.17774193" lon="6.37159849"><ele></ele><time>2014-9-10T23:8:9Z</time></trkpt>
<trkpt lat="48.17757606" lon="6.37240307"><ele></ele><time>2014-9-10T23:8:12Z</time></trkpt>
<trkpt lat="48.17752317" lon="6.37312903"><ele></ele><time>2014-9-10T23:8:15Z</time></trkpt>
<trkpt lat="48.17755049" lon="6.37352684"><ele></ele><time>2014-9-10T23:8:18Z</time></trkpt>
<trkpt lat="48.17769860" lon="6.37416235"><ele></ele><time>2014-9-10T23:8:21Z</time></trkpt>
<trkpt lat="48.17791225" lon="6.37464825"><ele></ele><time>2014-9-10T23:8:24Z</time></trkpt>
<trkpt lat="48.17822725" lon="6.37514429"><ele></ele><time>2014-9-10T23:8:27Z</time></trkpt>
<trkpt lat="48.17864248" lon="6.37569238"><ele></ele><time>2014-9-10T23:8:30Z</time></trkpt>
<trkpt lat="48.17892009" lon="6.37617267"><ele></ele><time>2014-9-10T23:8:33Z</time></trkpt>
<trkpt lat="48.17911439" lon="6.37672378"><ele></ele><time>2014-9-10T23:8:36Z</time></trkpt>
<trkpt lat="48.17921849" lon="6.37733909"><ele></ele><time>2014-9-10T23:8:39Z</time></trkpt>
<trkpt lat="48.17923777" lon="6.37796966"><ele></ele><time>2014-9-10T23:8:42Z</time></trkpt>
<trkpt lat="48.17909955" lon="6.37876745"><ele></ele><time>2014-9-10T23:8:45Z</time></trkpt>
<trkpt lat="48.17902420" lon="6.37903056"><ele></ele><time>2014-9-10T23:8:48Z</time></trkpt>
<trkpt lat="48.17911824" lon="6.37930188"><ele></ele><time>2014-9-10T23:8:51Z</time></trkpt>
<trkpt lat="48.17942519" lon="6.37972467"><ele></ele><time>2014-9-10T23:8:54Z</time></trkpt>
<trkpt lat="48.17980539" lon="6.38023722"><ele></ele><time>2014-9-10T23:8:57Z</time></trkpt>
<trkpt lat="48.17992886" lon="6.38036177"><ele></ele><time>2014-9-10T23:9:0Z</time></trkpt>
<trkpt lat="48.18013053" lon="6.38068364"><ele></ele><time>2014-9-10T23:9:3Z</time></trkpt>
<trkpt lat="48.18035717" lon="6.38113677"><ele></ele><time>2014-9-10T23:9:6Z</time></trkpt>
<trkpt lat="48.18060754" lon="6.38139057"><ele></ele><time>2014-9-10T23:9:9Z</time></trkpt>
<trkpt lat="48.18066286" lon="6.38166675"><ele></ele><time>2014-9-10T23:9:12Z</time></trkpt>
<trkpt lat="48.18059916" lon="6.38178904"><ele></ele><time>2014-9-10T23:9:15Z</time></trkpt>
<trkpt lat="48.18041920" lon="6.38217403"><ele></ele><time>2014-9-10T23:9:18Z</time></trkpt>
<trkpt lat="48.18027914" lon="6.38230998"><ele></ele><time>2014-9-10T23:9:21Z</time></trkpt>
<trkpt lat="48.18018928" lon="6.38218492"><ele></ele><time>2014-9-10T23:9:24Z</time></trkpt>
<trkpt lat="48.18012105" lon="6.38213312"><ele></ele><time>2014-9-10T23:9:27Z</time></trkpt>
<trkpt lat="48.18003329" lon="6.38209599"><ele></ele><time>2014-9-10T23:9:30Z</time></trkpt>
<trkpt lat="48.18003380" lon="6.38209138"><ele></ele><time>2014-9-10T23:9:33Z</time></trkpt>
</trkseg></trk></gpx>